Provisional Data: Snake Creek near Lawsville Center, PA


Please select a monitoring station.
Please select start date.
Please select start date.

Toggle Unit: C/F Toggle Unit: C/F
Sample Time Temperature (C) Temperature (F) Specific Conductivity (mS/cm) pH   Turbidity (NTU+) DO (mg/L)
4/13/2022 12:00:00 AM 8.46 47.228 0.088 7.03 5.76 10.95
4/13/2022 12:15:00 AM 8.36 47.048 0.088 7.03 5.67 10.98
4/13/2022 12:30:00 AM 8.25 46.85 0.089 7.03 5.8 11.01
4/13/2022 12:45:00 AM 8.15 46.67 0.089 7.03 6.02 11.03
4/13/2022 1:00:00 AM 8.05 46.49 0.089 7.04 5.83 11.06
4/13/2022 1:15:00 AM 7.95 46.31 0.089 7.03 6 11.09
4/13/2022 1:30:00 AM 7.86 46.148 0.089 6.97 5.57 11.12
4/13/2022 1:45:00 AM 7.77 45.986 0.089 7.01 5.66 11.14
4/13/2022 2:00:00 AM 7.68 45.824 0.089 7.01 5.49 11.17
4/13/2022 2:15:00 AM 7.59 45.662 0.089 7.01 5.5 11.19
4/13/2022 2:30:00 AM 7.5 45.5 0.089 7.01 5.56 11.22
4/13/2022 2:45:00 AM 7.42 45.356 0.089 7.01 5.36 11.24
4/13/2022 3:00:00 AM 7.34 45.212 0.089 7.01 5.4 11.26
4/13/2022 3:15:00 AM 7.26 45.068 0.089 7.01 5.37 11.28
4/13/2022 3:30:00 AM 7.2 44.96 0.089 7.01 5.41 11.3
4/13/2022 3:45:00 AM 7.13 44.834 0.089 7.01 5.24 11.32
4/13/2022 4:00:00 AM 7.09 44.762 0.089 7.01 5.3 11.34
4/13/2022 4:15:00 AM 7.04 44.672 0.088 7.01 5.23 11.36
4/13/2022 4:30:00 AM 7.01 44.618 0.088 7.01 5.15 11.37
4/13/2022 4:45:00 AM 6.97 44.546 0.088 7.01 5.12 11.39
4/13/2022 5:00:00 AM 6.95 44.51 0.088 7.02 5.07 11.4
4/13/2022 5:15:00 AM 6.92 44.456 0.088 7.02 5.06 11.41
4/13/2022 5:30:00 AM 6.9 44.42 0.089 7.02 5 11.41
4/13/2022 5:45:00 AM 6.89 44.402 0.089 7.02 5.01 11.42
4/13/2022 6:00:00 AM 6.87 44.366 0.089 7.02 5.04 11.42
4/13/2022 6:15:00 AM 6.86 44.348 0.089 7.02 4.92 11.43
4/13/2022 6:30:00 AM 6.85 44.33 0.089 7.02 5.03 11.43
4/13/2022 6:45:00 AM 6.85 44.33 0.089 7.03 5.04 11.44
4/13/2022 7:00:00 AM 6.85 44.33 0.089 7.03 4.89 11.44
4/13/2022 7:15:00 AM 6.85 44.33 0.089 7.03 4.88 11.45
4/13/2022 7:30:00 AM 6.86 44.348 0.089 7.03 4.87 11.46
4/13/2022 7:45:00 AM 6.87 44.366 0.089 7.03 4.84 11.47
4/13/2022 8:00:00 AM 6.89 44.402 0.089 7.03 4.84 11.49
4/13/2022 8:15:00 AM 6.92 44.456 0.089 7.04 4.76 11.52
4/13/2022 8:30:00 AM 6.95 44.51 0.089 7.05 4.59 11.53
4/13/2022 8:45:00 AM 7 44.6 0.089 7.06 4.7 11.56
4/13/2022 9:00:00 AM 7.08 44.744 0.089 7.06 4.62 11.58
4/13/2022 9:15:00 AM 7.17 44.906 0.089 7.07 4.69 11.58
4/13/2022 9:30:00 AM 7.27 45.086 0.089 7.09 4.57 11.58
4/13/2022 9:45:00 AM 7.4 45.32 0.089 7.09 4.48 11.57
4/13/2022 10:00:00 AM 7.58 45.644 0.089 7.1 4.59 11.54
4/13/2022 10:15:00 AM 7.77 45.986 0.089 7.11 4.56 11.51
4/13/2022 10:30:00 AM 7.98 46.364 0.089 7.12 4.59 11.48
4/13/2022 10:45:00 AM 8.24 46.832 0.089 7.13 4.54 11.43
4/13/2022 11:00:00 AM 8.53 47.354 0.089 7.13 4.46 11.37
4/13/2022 11:15:00 AM 8.84 47.912 0.088 7.13 4.53 11.31
4/13/2022 11:30:00 AM 9.16 48.488 0.088 7.14 4.46 11.25
4/13/2022 11:45:00 AM 9.45 49.01 0.088 7.14 4.53 11.18
4/13/2022 12:00:00 PM 9.79 49.622 0.088 7.16 4.47 11.12
4/13/2022 12:15:00 PM 10.13 50.234 0.088 7.17 4.46 11.05
4/13/2022 12:30:00 PM 10.43 50.774 0.088 7.17 4.36 10.98
4/13/2022 12:45:00 PM 10.76 51.368 0.088 7.18 4.52 10.91
4/13/2022 1:00:00 PM 10.97 51.746 0.087 7.18 4.4 10.83
4/13/2022 1:15:00 PM 11.23 52.214 0.087 7.18 4.42 10.77
4/13/2022 1:30:00 PM 11.4 52.52 0.087 7.19 4.33 10.72
4/13/2022 1:45:00 PM 11.67 53.006 0.087 7.19 4.43 10.66
4/13/2022 2:00:00 PM 11.89 53.402 0.087 7.19 4.35 10.61
4/13/2022 2:15:00 PM 12.15 53.87 0.087 7.2 4.43 10.56
4/13/2022 2:30:00 PM 12.39 54.302 0.087 7.2 4.38 10.5
4/13/2022 2:45:00 PM 12.53 54.554 0.087 7.2 4.53 10.44
4/13/2022 3:00:00 PM 12.66 54.788 0.087 7.2 4.44 10.38
4/13/2022 3:15:00 PM 12.79 55.022 0.087 7.2 4.53 10.35
4/13/2022 3:30:00 PM 12.84 55.112 0.087 7.2 4.5 10.31
4/13/2022 3:45:00 PM 12.86 55.148 0.087 7.2 4.46 10.26
4/13/2022 4:00:00 PM 12.92 55.256 0.087 7.2 4.65 10.24
4/13/2022 4:15:00 PM 12.9 55.22 0.087 7.2 4.56 10.22
4/13/2022 4:30:00 PM 12.83 55.094 0.087 7.18 4.55 10.19
4/13/2022 4:45:00 PM 12.79 55.022 0.087 7.18 4.64 10.18
4/13/2022 5:00:00 PM 12.8 55.04 0.087 7.18 4.68 10.19
4/13/2022 5:15:00 PM 12.81 55.058 0.087 7.18 4.58 10.2
4/13/2022 5:30:00 PM 12.79 55.022 0.087 7.18 4.61 10.19
4/13/2022 5:45:00 PM 12.77 54.986 0.087 7.18 4.57 10.18
4/13/2022 6:00:00 PM 12.75 54.95 0.087 7.17 4.59 10.18
4/13/2022 6:15:00 PM 12.66 54.788 0.087 7.17 4.68 10.15
4/13/2022 6:30:00 PM 12.58 54.644 0.087 7.15 4.76 10.12
4/13/2022 6:45:00 PM 12.5 54.5 0.087 7.14 4.74 10.09
4/13/2022 7:00:00 PM 12.39 54.302 0.088 7.13 4.77 10.07
4/13/2022 7:15:00 PM 12.28 54.104 0.088 7.12 4.74 10.06
4/13/2022 7:30:00 PM 12.17 53.906 0.088 7.1 4.87 10.03
4/13/2022 7:45:00 PM 12.07 53.726 0.088 7.08 4.83 10.02
4/13/2022 8:00:00 PM 11.98 53.564 0.088 7.06 5.05 10.01
4/13/2022 8:15:00 PM 11.89 53.402 0.088 7.06 4.94 10.01
4/13/2022 8:30:00 PM 11.81 53.258 0.088 7.04 5.18 10.01
4/13/2022 8:45:00 PM 11.72 53.096 0.088 7.04 5.25 10.02
4/13/2022 9:00:00 PM 11.64 52.952 0.088 7.04 5.18 10.03
4/13/2022 9:15:00 PM 11.56 52.808 0.088 7.04 5.21 10.05
4/13/2022 9:30:00 PM 11.48 52.664 0.088 7.03 5.2 10.06
4/13/2022 9:45:00 PM 11.39 52.502 0.088 7.03 5.1 10.08
4/13/2022 10:00:00 PM 11.31 52.358 0.088 7.03 5.09 10.1
4/13/2022 10:15:00 PM 11.23 52.214 0.089 7.03 5.19 10.11
4/13/2022 10:30:00 PM 11.15 52.07 0.089 7.02 5.17 10.13
4/13/2022 10:45:00 PM 11.07 51.926 0.089 7.02 5.17 10.14
4/13/2022 11:00:00 PM 11.01 51.818 0.089 7.02 5.22 10.16
4/13/2022 11:15:00 PM 10.95 51.71 0.089 7.01 5.16 10.17
4/13/2022 11:30:00 PM 10.9 51.62 0.089 7.02 5.13 10.19
4/13/2022 11:45:00 PM 10.84 51.512 0.089 7.02 5.11 10.2
4/14/2022 12:00:00 AM 10.8 51.44 0.089 7.02 5.12 10.21
4/14/2022 12:15:00 AM 10.75 51.35 0.089 7.02 5.13 10.22
4/14/2022 12:30:00 AM 10.69 51.242 0.089 7.03 5.13 10.23
4/14/2022 12:45:00 AM 10.63 51.134 0.089 7.03 5.07 10.24
4/14/2022 1:00:00 AM 10.58 51.044 0.089 7.03 4.97 10.25
4/14/2022 1:15:00 AM 10.52 50.936 0.089 7.03 5.05 10.26
4/14/2022 1:30:00 AM 10.47 50.846 0.089 7.03 4.98 10.27
4/14/2022 1:45:00 AM 10.41 50.738 0.089 7.03 4.98 10.28
4/14/2022 2:00:00 AM 10.36 50.648 0.089 7.04 4.86 10.3
4/14/2022 2:15:00 AM 10.31 50.558 0.089 7.03 4.94 10.31
4/14/2022 2:30:00 AM 10.27 50.486 0.089 7.03 5.02 10.32
4/14/2022 2:45:00 AM 10.24 50.432 0.089 7.03 4.91 10.33
4/14/2022 3:00:00 AM 10.21 50.378 0.089 7.04 5.01 10.34
4/14/2022 3:15:00 AM 10.18 50.324 0.089 7.04 4.82 10.35
4/14/2022 3:30:00 AM 10.14 50.252 0.089 7.04 4.91 10.36
4/14/2022 3:45:00 AM 10.11 50.198 0.089 7.04 4.91 10.36
4/14/2022 4:00:00 AM 10.08 50.144 0.089 7.04 4.82 10.37
4/14/2022 4:15:00 AM 10.06 50.108 0.089 7.04 4.83 10.38
4/14/2022 4:30:00 AM 10.03 50.054 0.089 7.05 4.8 10.39
4/14/2022 4:45:00 AM 9.99 49.982 0.089 7.04 4.73 10.39
4/14/2022 5:00:00 AM 9.95 49.91 0.089 7.04 4.85 10.4
4/14/2022 5:15:00 AM 9.9 49.82 0.089 7.04 4.87 10.41
4/14/2022 5:30:00 AM 9.86 49.748 0.089 7.04 4.87 10.42
4/14/2022 5:45:00 AM 9.81 49.658 0.089 7.03 4.82 10.43
4/14/2022 6:00:00 AM 9.77 49.586 0.089 7.03 4.71 10.44
4/14/2022 6:15:00 AM 9.73 49.514 0.089 7.03 4.81 10.44
4/14/2022 6:30:00 AM 9.68 49.424 0.089 7.03 4.67 10.46
4/14/2022 6:45:00 AM 9.64 49.352 0.089 7.04 4.66 10.48
4/14/2022 7:00:00 AM 9.6 49.28 0.089 7.03 4.73 10.51
4/14/2022 7:15:00 AM 9.56 49.208 0.089 7.04 4.78 10.54
4/14/2022 7:30:00 AM 9.52 49.136 0.088 7.05 4.64 10.58
4/14/2022 7:45:00 AM 9.5 49.1 0.088 7.06 4.69 10.62
4/14/2022 8:00:00 AM 9.48 49.064 0.089 7.06 4.58 10.66
4/14/2022 8:15:00 AM 9.46 49.028 0.089 7.07 4.54 10.69
4/14/2022 8:30:00 AM 9.46 49.028 0.089 7.08 4.52 10.72
4/14/2022 8:45:00 AM 9.5 49.1 0.089 7.09 4.38 10.75
4/14/2022 9:00:00 AM 9.58 49.244 0.089 7.11 4.46 10.78
4/14/2022 9:15:00 AM 9.68 49.424 0.089 7.12 4.4 10.79
4/14/2022 9:30:00 AM 9.82 49.676 0.089 7.14 4.49 10.8
4/14/2022 9:45:00 AM 9.96 49.928 0.089 7.15 4.5 10.8
4/14/2022 10:00:00 AM 10.15 50.27 0.089 7.16 4.51 10.8
4/14/2022 10:15:00 AM 10.35 50.63 0.089 7.17 4.41 10.78
4/14/2022 10:30:00 AM 10.58 51.044 0.089 7.18 4.37 10.75
4/14/2022 10:45:00 AM 10.83 51.494 0.089 7.19 4.37 10.73
4/14/2022 11:00:00 AM 11.03 51.854 0.089 7.2 4.35 10.69
4/14/2022 11:15:00 AM 11.37 52.466 0.089 7.22 4.35 10.67
4/14/2022 11:30:00 AM 11.64 52.952 0.089 7.23 4.36 10.62
4/14/2022 11:45:00 AM 11.89 53.402 0.089 7.23 4.32 10.58
4/14/2022 12:00:00 PM 12.14 53.852 0.089 7.23 4.34 10.52
4/14/2022 12:15:00 PM 12.23 54.014 0.089 7.24 4.38 10.45
4/14/2022 12:30:00 PM 12.35 54.23 0.089 7.24 4.5 10.39
4/14/2022 12:45:00 PM 12.46 54.428 0.089 7.24 4.69 10.34
4/14/2022 1:00:00 PM 12.53 54.554 0.089 7.24 4.59 10.31
4/14/2022 1:15:00 PM 12.55 54.59 0.089 7.24 4.43 10.27
4/14/2022 1:30:00 PM 12.58 54.644 0.089 7.23 4.28 10.23
4/14/2022 1:45:00 PM 12.6 54.68 0.089 7.23 4.34 10.19
4/14/2022 2:00:00 PM 12.64 54.752 0.089 7.23 4.27 10.2
4/14/2022 2:15:00 PM 12.69 54.842 0.089 7.24 4.22 10.23
4/14/2022 2:30:00 PM 12.7 54.86 0.089 7.23 4.17 10.22
4/14/2022 2:45:00 PM 12.67 54.806 0.088 7.22 4.3 10.16
4/14/2022 3:00:00 PM 12.64 54.752 0.088 7.22 4.32 10.15
4/14/2022 3:15:00 PM 12.61 54.698 0.088 7.22 4.67 10.17
4/14/2022 3:30:00 PM 12.57 54.626 0.088 7.22 7.45 10.18
4/14/2022 3:45:00 PM 12.51 54.518 0.088 7.21 5.99 10.19
4/14/2022 4:00:00 PM 12.42 54.356 0.088 7.2 5.68 10.17
4/14/2022 4:15:00 PM 12.33 54.194 0.088 7.19 6.34 10.17
4/14/2022 4:30:00 PM 12.24 54.032 0.088 7.19 5.44 10.19
4/14/2022 4:45:00 PM 12.14 53.852 0.088 7.19 5.17 10.21
4/14/2022 5:00:00 PM 12.07 53.726 0.088 7.19 5.16 10.24
4/14/2022 5:15:00 PM 12.02 53.636 0.088 7.2 5.16 10.28
4/14/2022 5:30:00 PM 11.96 53.528 0.088 7.21 5.4 10.3
4/14/2022 5:45:00 PM 11.9 53.42 0.088 7.2 5.29 10.3
4/14/2022 6:00:00 PM 11.82 53.276 0.087 7.2 5.27 10.31
4/14/2022 6:15:00 PM 11.75 53.15 0.087 7.19 5.42 10.3
4/14/2022 6:30:00 PM 11.67 53.006 0.087 7.19 5.53 10.28
4/14/2022 6:45:00 PM 11.61 52.898 0.087 7.18 5.64 10.29
4/14/2022 7:00:00 PM 11.54 52.772 0.087 7.18 5.67 10.31
4/14/2022 7:15:00 PM 11.47 52.646 0.088 7.17 5.6 10.29
4/14/2022 7:30:00 PM 11.4 52.52 0.088 7.16 5.49 10.27
4/14/2022 7:45:00 PM 11.32 52.376 0.088 7.15 5.6 10.25
4/14/2022 8:00:00 PM 11.23 52.214 0.089 7.13 5.54 10.23
4/14/2022 8:15:00 PM 11.12 52.016 0.089 7.12 5.56 10.23
4/14/2022 8:30:00 PM 11.02 51.836 0.09 7.12 5.68 10.23
4/14/2022 8:45:00 PM 10.91 51.638 0.09 7.12 5.8 10.24
4/14/2022 9:00:00 PM 10.8 51.44 0.09 7.1 5.72 10.25
4/14/2022 9:15:00 PM 10.69 51.242 0.09 7.1 5.72 10.27
4/14/2022 9:30:00 PM 10.58 51.044 0.089 7.09 5.61 10.3
4/14/2022 9:45:00 PM 10.48 50.864 0.089 7.09 5.62 10.32
4/14/2022 10:00:00 PM 10.39 50.702 0.088 7.08 5.7 10.35
4/14/2022 10:15:00 PM 10.31 50.558 0.088 7.08 5.49 10.37
4/14/2022 10:30:00 PM 10.22 50.396 0.088 7.08 5.54 10.4
4/14/2022 10:45:00 PM 10.14 50.252 0.088 7.08 5.29 10.43
4/14/2022 11:00:00 PM 10.07 50.126 0.088 7.08 5.67 10.45
4/14/2022 11:15:00 PM 10 50 0.088 7.08 5.37 10.47
4/14/2022 11:30:00 PM 9.92 49.856 0.088 7.08 5.12 10.5
4/14/2022 11:45:00 PM 9.84 49.712 0.088 7.08 5.09 10.51
4/15/2022 12:00:00 AM 9.76 49.568 0.088 7.08 5.13 10.53
4/15/2022 12:15:00 AM 9.67 49.406 0.088 7.08 4.95 10.56
4/15/2022 12:30:00 AM 9.58 49.244 0.088 7.08 4.9 10.58
4/15/2022 12:45:00 AM 9.49 49.082 0.088 7.08 4.86 10.61
4/15/2022 1:00:00 AM 9.41 48.938 0.088 7.08 4.9 10.63
4/15/2022 1:15:00 AM 9.32 48.776 0.089 7.08 5.04 10.65
4/15/2022 1:30:00 AM 9.23 48.614 0.089 7.07 5.03 10.67
4/15/2022 1:45:00 AM 9.14 48.452 0.089 7.07 4.9 10.7
4/15/2022 2:00:00 AM 9.07 48.326 0.089 7.08 4.89 10.72
4/15/2022 2:15:00 AM 8.98 48.164 0.089 7.07 4.7 10.74
4/15/2022 2:30:00 AM 8.88 47.984 0.089 7.06 5.05 10.76
4/15/2022 2:45:00 AM 8.78 47.804 0.089 7.07 4.75 10.79
4/15/2022 3:00:00 AM 8.68 47.624 0.089 7.07 4.62 10.81
4/15/2022 3:15:00 AM 8.56 47.408 0.089 7.06 4.63 10.84
4/15/2022 3:30:00 AM 8.44 47.192 0.089 7.03 4.89 10.87
4/15/2022 3:45:00 AM 8.34 47.012 0.089 7 4.73 10.9
4/15/2022 4:00:00 AM 8.24 46.832 0.089 7.02 4.53 10.93
4/15/2022 4:15:00 AM 8.15 46.67 0.089 7.02 4.58 10.96
4/15/2022 4:30:00 AM 8.04 46.472 0.089 7.03 4.47 10.99
4/15/2022 4:45:00 AM 7.94 46.292 0.089 7.03 4.49 11.02
4/15/2022 5:00:00 AM 7.83 46.094 0.09 7.04 4.49 11.05
4/15/2022 5:15:00 AM 7.74 45.932 0.09 7.04 4.35 11.08
4/15/2022 5:30:00 AM 7.64 45.752 0.09 7.04 4.36 11.11
4/15/2022 5:45:00 AM 7.54 45.572 0.09 7.04 4.41 11.14
4/15/2022 6:00:00 AM 7.44 45.392 0.09 7.04 4.32 11.17
4/15/2022 6:15:00 AM 7.35 45.23 0.09 7.04 4.35 11.19
4/15/2022 6:30:00 AM 7.26 45.068 0.09 7.04 4.33 11.22
4/15/2022 6:45:00 AM 7.17 44.906 0.09 7.05 4.33 11.26
4/15/2022 7:00:00 AM 7.1 44.78 0.09 7.05 4.16 11.31
4/15/2022 7:15:00 AM 7.02 44.636 0.09 7.06 4.19 11.37
4/15/2022 7:30:00 AM 6.96 44.528 0.09 7.07 4.11 11.42
4/15/2022 7:45:00 AM 6.91 44.438 0.09 7.08 4.11 11.48
4/15/2022 8:00:00 AM 6.87 44.366 0.09 7.09 4.39 11.53
4/15/2022 8:15:00 AM 6.84 44.312 0.09 7.1 4.4 11.57
4/15/2022 8:30:00 AM 6.82 44.276 0.09 7.11 4.87 11.62
4/15/2022 8:45:00 AM 6.83 44.294 0.09 7.12 4.1 11.65
4/15/2022 9:00:00 AM 6.86 44.348 0.09 7.13 3.9 11.68
4/15/2022 9:15:00 AM 6.91 44.438 0.09 7.13 4.21 11.7
4/15/2022 9:30:00 AM 7 44.6 0.09 7.15 3.9 11.72
4/15/2022 9:45:00 AM 7.1 44.78 0.09 7.15 4.1 11.72
4/15/2022 10:00:00 AM 7.23 45.014 0.09 7.16 3.92 11.71
4/15/2022 10:15:00 AM 7.4 45.32 0.09 7.17 3.97 11.7
4/15/2022 10:30:00 AM 7.58 45.644 0.09 7.18 4 11.67
4/15/2022 10:45:00 AM 7.78 46.004 0.09 7.18 4.02 11.64
4/15/2022 11:00:00 AM 8 46.4 0.09 7.19 3.9 11.61
4/15/2022 11:15:00 AM 8.25 46.85 0.09 7.2 3.85 11.56
4/15/2022 11:30:00 AM 8.53 47.354 0.09 7.21 3.95 11.51
4/15/2022 11:45:00 AM 8.82 47.876 0.09 7.22 3.92 11.46
4/15/2022 12:00:00 PM 9.13 48.434 0.09 7.23 3.87 11.4
4/15/2022 12:15:00 PM 9.46 49.028 0.09 7.23 3.92 11.33
4/15/2022 12:30:00 PM 9.76 49.568 0.09 7.24 3.81 11.26
4/15/2022 12:45:00 PM 10.09 50.162 0.089 7.24 3.67 11.19
4/15/2022 1:00:00 PM 10.42 50.756 0.089 7.25 3.85 11.13
4/15/2022 1:15:00 PM 10.66 51.188 0.089 7.25 3.94 11.05
4/15/2022 1:30:00 PM 10.95 51.71 0.089 7.26 3.8 10.99
4/15/2022 1:45:00 PM 11.27 52.286 0.089 7.27 3.7 10.93
4/15/2022 2:00:00 PM 11.52 52.736 0.089 7.27 3.84 10.87
4/15/2022 2:15:00 PM 11.74 53.132 0.089 7.27 3.75 10.81
4/15/2022 2:30:00 PM 11.86 53.348 0.089 7.28 3.65 10.76
4/15/2022 2:45:00 PM 11.91 53.438 0.089 7.29 4.03 10.72
4/15/2022 3:00:00 PM 12.02 53.636 0.089 7.29 3.92 10.69
4/15/2022 3:15:00 PM 12.11 53.798 0.089 7.29 3.93 10.65
4/15/2022 3:30:00 PM 12.15 53.87 0.089 7.29 3.81 10.62
4/15/2022 3:45:00 PM 12.28 54.104 0.088 7.29 3.84 10.6
4/15/2022 4:00:00 PM 12.37 54.266 0.088 7.29 3.68 10.57
4/15/2022 4:15:00 PM 12.3 54.14 0.088 7.29 3.9 10.54
4/15/2022 4:30:00 PM 12.19 53.942 0.088 7.28 3.75 10.53
4/15/2022 4:45:00 PM 12.05 53.69 0.088 7.28 3.78 10.51
4/15/2022 5:00:00 PM 11.91 53.438 0.089 7.27 3.76 10.48
4/15/2022 5:15:00 PM 11.77 53.186 0.089 7.25 3.7 10.44
4/15/2022 5:30:00 PM 11.65 52.97 0.089 7.24 3.76 10.41
4/15/2022 5:45:00 PM 11.54 52.772 0.089 7.22 3.97 10.37
4/15/2022 6:00:00 PM 11.46 52.628 0.089 7.22 3.92 10.38
4/15/2022 6:15:00 PM 11.42 52.556 0.09 7.22 3.95 10.44
4/15/2022 6:30:00 PM 11.35 52.43 0.09 7.22 3.97 10.47
4/15/2022 6:45:00 PM 11.26 52.268 0.09 7.21 3.88 10.49
4/15/2022 7:00:00 PM 11.13 52.034 0.09 7.21 3.86 10.48
4/15/2022 7:15:00 PM 11.02 51.836 0.091 7.2 3.94 10.45
4/15/2022 7:30:00 PM 10.93 51.674 0.091 7.17 4.1 10.4
4/15/2022 7:45:00 PM 10.83 51.494 0.091 7.16 3.96 10.36
4/15/2022 8:00:00 PM 10.72 51.296 0.091 7.14 4.01 10.34
4/15/2022 8:15:00 PM 10.62 51.116 0.09 7.13 4.05 10.33
4/15/2022 8:30:00 PM 10.5 50.9 0.09 7.12 4.13 10.32
4/15/2022 8:45:00 PM 10.4 50.72 0.09 7.11 4.07 10.33
4/15/2022 9:00:00 PM 10.31 50.558 0.09 7.1 4.19 10.34
4/15/2022 9:15:00 PM 10.23 50.414 0.09 7.1 4.36 10.36
4/15/2022 9:30:00 PM 10.14 50.252 0.09 7.1 4.35 10.37
4/15/2022 9:45:00 PM 10.06 50.108 0.09 7.09 4.28 10.39
4/15/2022 10:00:00 PM 9.99 49.982 0.09 7.09 4.24 10.41
4/15/2022 10:15:00 PM 9.91 49.838 0.09 7.09 4.23 10.43
4/15/2022 10:30:00 PM 9.82 49.676 0.09 7.09 4.33 10.45
4/15/2022 10:45:00 PM 9.73 49.514 0.09 7.1 4.36 10.47
4/15/2022 11:00:00 PM 9.66 49.388 0.09 7.1 4.54 10.49
4/15/2022 11:15:00 PM 9.59 49.262 0.09 7.1 4.25 10.51
4/15/2022 11:30:00 PM 9.53 49.154 0.09 7.1 4.18 10.53
4/15/2022 11:45:00 PM 9.47 49.046 0.09 7.09 4.11 10.54
4/16/2022 12:00:00 AM 9.42 48.956 0.09 7.09 4.07 10.56
4/16/2022 12:15:00 AM 9.36 48.848 0.091 7.09 4.1 10.57
4/16/2022 12:30:00 AM 9.3 48.74 0.091 7.09 4.13 10.59
4/16/2022 12:45:00 AM 9.24 48.632 0.091 7.09 4.14 10.6
4/16/2022 1:00:00 AM 9.18 48.524 0.091 7.1 4 10.61
4/16/2022 1:15:00 AM 9.12 48.416 0.091 7.09 3.88 10.62
4/16/2022 1:30:00 AM 9.07 48.326 0.091 7.09 4.03 10.64
4/16/2022 1:45:00 AM 9.01 48.218 0.091 7.09 4.02 10.65
4/16/2022 2:00:00 AM 8.96 48.128 0.091 7.09 3.87 10.67
4/16/2022 2:15:00 AM 8.9 48.02 0.091 7.09 3.83 10.68
4/16/2022 2:30:00 AM 8.85 47.93 0.091 7.08 3.85 10.69
4/16/2022 2:45:00 AM 8.81 47.858 0.091 7.08 3.93 10.71
4/16/2022 3:00:00 AM 8.77 47.786 0.091 7.08 3.79 10.72
4/16/2022 3:15:00 AM 8.73 47.714 0.091 7.08 3.95 10.73
4/16/2022 3:30:00 AM 8.7 47.66 0.091 7.08 3.83 10.74
4/16/2022 3:45:00 AM 8.68 47.624 0.091 7.08 3.78 10.75
4/16/2022 4:00:00 AM 8.65 47.57 0.091 7.07 3.83 10.76
4/16/2022 4:15:00 AM 8.62 47.516 0.091 7.07 3.8 10.77
4/16/2022 4:30:00 AM 8.59 47.462 0.091 7.06 3.77 10.78
4/16/2022 4:45:00 AM 8.56 47.408 0.091 7.06 3.83 10.78
4/16/2022 5:00:00 AM 8.53 47.354 0.091 7.06 3.67 10.8
4/16/2022 5:15:00 AM 8.51 47.318 0.091 7.06 3.63 10.81
4/16/2022 5:30:00 AM 8.48 47.264 0.091 7.06 3.87 10.81
4/16/2022 5:45:00 AM 8.44 47.192 0.091 7.06 3.63 10.82
4/16/2022 6:00:00 AM 8.42 47.156 0.091 7.06 3.7 10.83
4/16/2022 6:15:00 AM 8.39 47.102 0.091 7.06 3.72 10.84
4/16/2022 6:30:00 AM 8.36 47.048 0.091 7.05 3.69 10.85
4/16/2022 6:45:00 AM 8.34 47.012 0.091 7.05 3.64 10.87
4/16/2022 7:00:00 AM 8.32 46.976 0.091 7.06 3.63 10.89
4/16/2022 7:15:00 AM 8.3 46.94 0.091 7.07 3.62 10.91
4/16/2022 7:30:00 AM 8.29 46.922 0.091 7.07 3.55 10.94
4/16/2022 7:45:00 AM 8.28 46.904 0.091 7.07 3.77 10.96
4/16/2022 8:00:00 AM 8.27 46.886 0.091 7.08 3.74 10.99
4/16/2022 8:15:00 AM 8.27 46.886 0.091 7.1 3.57 11.04
4/16/2022 8:30:00 AM 8.27 46.886 0.091 7.1 3.54 11.08
4/16/2022 8:45:00 AM 8.28 46.904 0.091 7.12 3.64 11.13
4/16/2022 9:00:00 AM 8.33 46.994 0.09 7.13 3.59 11.18
4/16/2022 9:15:00 AM 8.38 47.084 0.09 7.15 3.66 11.24
4/16/2022 9:30:00 AM 8.43 47.174 0.09 7.17 3.62 11.28
4/16/2022 9:45:00 AM 8.5 47.3 0.09 7.18 3.53 11.3
4/16/2022 10:00:00 AM 8.59 47.462 0.09 7.19 3.52 11.33
4/16/2022 10:15:00 AM 8.71 47.678 0.09 7.21 3.36 11.35
4/16/2022 10:30:00 AM 8.92 48.056 0.09 7.22 3.64 11.35
4/16/2022 10:45:00 AM 9.05 48.29 0.09 7.23 3.44 11.34
4/16/2022 11:00:00 AM 9.09 48.362 0.09 7.24 3.49 11.32
4/16/2022 11:15:00 AM 9.19 48.542 0.09 7.24 3.49 11.29
4/16/2022 11:30:00 AM 9.29 48.722 0.09 7.25 3.87 11.24
4/16/2022 11:45:00 AM 9.33 48.794 0.09 7.25 3.43 11.2
4/16/2022 12:00:00 PM 9.32 48.776 0.09 7.25 3.4 11.15
4/16/2022 12:15:00 PM 9.33 48.794 0.09 7.24 3.34 11.09
4/16/2022 12:30:00 PM 9.35 48.83 0.09 7.23 3.35 11.04
4/16/2022 12:45:00 PM 9.37 48.866 0.09 7.22 3.38 10.99
4/16/2022 1:00:00 PM 9.34 48.812 0.09 7.22 3.31 10.98
4/16/2022 1:15:00 PM 9.29 48.722 0.09 7.21 3.48 10.97
4/16/2022 1:30:00 PM 9.25 48.65 0.09 7.21 3.45 10.99
4/16/2022 1:45:00 PM 9.2 48.56 0.089 7.21 4.02 11
4/16/2022 2:00:00 PM 9.18 48.524 0.089 7.21 4.96 11.02
4/16/2022 2:15:00 PM 9.15 48.47 0.089 7.21 5.07 11.02
4/16/2022 2:30:00 PM 9.13 48.434 0.089 7.22 5.3 11.03
4/16/2022 2:45:00 PM 9.09 48.362 0.089 7.21 5.83 11.02
4/16/2022 3:00:00 PM 9.03 48.254 0.089 7.21 6.09 10.99
4/16/2022 3:15:00 PM 8.96 48.128 0.089 7.2 6.01 11.01
4/16/2022 3:30:00 PM 8.88 47.984 0.089 7.2 6.15 11.03
4/16/2022 3:45:00 PM 8.81 47.858 0.089 7.2 6.93 11.05
4/16/2022 4:00:00 PM 8.76 47.768 0.089 7.2 8.76 11.07
4/16/2022 4:15:00 PM 8.69 47.642 0.09 7.2 8.92 11.08
4/16/2022 4:30:00 PM 8.64 47.552 0.09 7.2 10.86 11.09
4/16/2022 4:45:00 PM 8.59 47.462 0.089 7.2 10.72 11.11
4/16/2022 5:00:00 PM 8.53 47.354 0.089 7.19 11.38 11.11
4/16/2022 5:15:00 PM 8.47 47.246 0.089 7.2 12.39 11.11
4/16/2022 5:30:00 PM 8.43 47.174 0.088 7.2 11.9 11.13
4/16/2022 5:45:00 PM 8.37 47.066 0.087 7.2 12.07 11.13
4/16/2022 6:00:00 PM 8.32 46.976 0.087 7.19 13.68 11.12
4/16/2022 6:15:00 PM 8.26 46.868 0.086 7.2 14.02 11.13
4/16/2022 6:30:00 PM 8.22 46.796 0.085 7.19 14.06 11.14
4/16/2022 6:45:00 PM 8.18 46.724 0.085 7.2 14.59 11.16
4/16/2022 7:00:00 PM 8.13 46.634 0.084 7.19 15.75 11.15
4/16/2022 7:15:00 PM 8.08 46.544 0.084 7.18 15.6 11.16
4/16/2022 7:30:00 PM 8.04 46.472 0.083 7.18 15.76 11.15
4/16/2022 7:45:00 PM 7.99 46.382 0.083 7.17 14.76 11.15
4/16/2022 8:00:00 PM 7.93 46.274 0.083 7.16 14.34 11.14
4/16/2022 8:15:00 PM 7.88 46.184 0.083 7.19 15.56 11.14
4/16/2022 8:30:00 PM 7.83 46.094 0.083 7.18 14.36 11.14
4/16/2022 8:45:00 PM 7.78 46.004 0.082 7.17 13.78 11.15
4/16/2022 9:00:00 PM 7.73 45.914 0.082 7.16 13.27 11.16
4/16/2022 9:15:00 PM 7.68 45.824 0.082 7.16 13.11 11.17
4/16/2022 9:30:00 PM 7.64 45.752 0.082 7.15 12.37 11.18
4/16/2022 9:45:00 PM 7.59 45.662 0.082 7.15 11.6 11.19
4/16/2022 10:00:00 PM 7.53 45.554 0.082 7.14 11.76 11.2
4/16/2022 10:15:00 PM 7.49 45.482 0.082 7.14 11.36 11.21
4/16/2022 10:30:00 PM 7.45 45.41 0.083 7.14 11.38 11.22
4/16/2022 10:45:00 PM 7.41 45.338 0.083 7.13 10.1 11.23
4/16/2022 11:00:00 PM 7.37 45.266 0.083 7.13 9.79 11.25
4/16/2022 11:15:00 PM 7.32 45.176 0.083 7.13 9.16 11.26
4/16/2022 11:30:00 PM 7.25 45.05 0.083 7.14 9.08 11.27
4/16/2022 11:45:00 PM 7.18 44.924 0.083 7.14 8.89 11.29
4/17/2022 12:00:00 AM 7.11 44.798 0.083 7.14 8.53 11.31
4/17/2022 12:15:00 AM 7.03 44.654 0.083 7.14 8 11.33
4/17/2022 12:30:00 AM 6.96 44.528 0.083 7.05 7.88 11.34
4/17/2022 12:45:00 AM 6.9 44.42 0.083 7.09 8.01 11.36
4/17/2022 1:00:00 AM 6.84 44.312 0.083 7.09 7.7 11.38
4/17/2022 1:15:00 AM 6.77 44.186 0.083 7.09 7.23 11.4
4/17/2022 1:30:00 AM 6.72 44.096 0.083 7.1 6.91 11.41
4/17/2022 1:45:00 AM 6.67 44.006 0.084 7.1 6.84 11.43
4/17/2022 2:00:00 AM 6.61 43.898 0.084 7.1 6.76 11.45
4/17/2022 2:15:00 AM 6.54 43.772 0.084 7.1 6.95 11.47
4/17/2022 2:30:00 AM 6.48 43.664 0.084 7.1 6.4 11.48
4/17/2022 2:45:00 AM 6.41 43.538 0.084 7.1 6.26 11.5
4/17/2022 3:00:00 AM 6.35 43.43 0.084 7.11 6.3 11.52
4/17/2022 3:15:00 AM 6.3 43.34 0.084 7.11 6.29 11.54
4/17/2022 3:30:00 AM 6.23 43.214 0.084 7.11 5.82 11.56
4/17/2022 3:45:00 AM 6.18 43.124 0.084 7.11 5.95 11.58
4/17/2022 4:00:00 AM 6.12 43.016 0.084 7.11 5.52 11.59
4/17/2022 4:15:00 AM 6.06 42.908 0.084 7.11 5.57 11.61
4/17/2022 4:30:00 AM 6.01 42.818 0.084 7.11 5.56 11.63
4/17/2022 4:45:00 AM 5.94 42.692 0.084 7.11 5.48 11.65
4/17/2022 5:00:00 AM 5.88 42.584 0.084 7.11 5.13 11.67
4/17/2022 5:15:00 AM 5.83 42.494 0.085 7.11 5.07 11.69
4/17/2022 5:30:00 AM 5.77 42.386 0.085 7.11 5.06 11.71
4/17/2022 5:45:00 AM 5.72 42.296 0.085 7.11 5.24 11.73
4/17/2022 6:00:00 AM 5.68 42.224 0.085 7.11 5.07 11.74
4/17/2022 6:15:00 AM 5.65 42.17 0.085 7.11 5.04 11.76
4/17/2022 6:30:00 AM 5.61 42.098 0.085 7.11 4.87 11.77
4/17/2022 6:45:00 AM 5.56 42.008 0.085 7.11 4.88 11.8
4/17/2022 7:00:00 AM 5.53 41.954 0.085 7.12 4.83 11.84
4/17/2022 7:15:00 AM 5.51 41.918 0.085 7.13 4.89 11.88
4/17/2022 7:30:00 AM 5.49 41.882 0.085 7.14 4.8 11.94
4/17/2022 7:45:00 AM 5.46 41.828 0.085 7.15 4.62 12.01
4/17/2022 8:00:00 AM 5.45 41.81 0.085 7.17 4.62 12.07
4/17/2022 8:15:00 AM 5.46 41.828 0.085 7.18 4.51 12.12
4/17/2022 8:30:00 AM 5.46 41.828 0.085 7.19 4.53 12.17
4/17/2022 8:45:00 AM 5.47 41.846 0.085 7.2 4.33 12.19
4/17/2022 9:00:00 AM 5.49 41.882 0.085 7.21 4.74 12.2
4/17/2022 9:15:00 AM 5.5 41.9 0.085 7.21 4.4 12.23
4/17/2022 9:30:00 AM 5.53 41.954 0.085 7.22 4.29 12.26
4/17/2022 9:45:00 AM 5.58 42.044 0.085 7.23 4.23 12.27
4/17/2022 10:00:00 AM 5.61 42.098 0.085 7.24 4.17 12.28
4/17/2022 10:15:00 AM 5.66 42.188 0.085 7.24 4.12 12.29
4/17/2022 10:30:00 AM 5.78 42.404 0.085 7.25 3.9 12.29
4/17/2022 10:45:00 AM 5.85 42.53 0.085 7.25 4.07 12.29
4/17/2022 11:00:00 AM 5.91 42.638 0.085 7.26 3.86 12.28
4/17/2022 11:15:00 AM 6.05 42.89 0.085 7.27 3.96 12.27
4/17/2022 11:30:00 AM 6.13 43.034 0.085 7.27 3.95 12.25
4/17/2022 11:45:00 AM 6.26 43.268 0.085 7.27 3.93 12.23
4/17/2022 12:00:00 PM 6.37 43.466 0.085 7.28 3.83 12.21
4/17/2022 12:15:00 PM 6.52 43.736 0.085 7.28 3.79 12.18
4/17/2022 12:30:00 PM 6.7 44.06 0.085 7.28 4.03 12.15
4/17/2022 12:45:00 PM 6.81 44.258 0.085 7.28 3.86 12.1
4/17/2022 1:00:00 PM 7.12 44.816 0.085 7.29 3.66 12.05
4/17/2022 1:15:00 PM 7.32 45.176 0.085 7.29 3.77 11.99
4/17/2022 1:30:00 PM 7.41 45.338 0.085 7.29 3.69 11.95
4/17/2022 1:45:00 PM 7.59 45.662 0.085 7.29 3.83 11.92
4/17/2022 2:00:00 PM 7.82 46.076 0.085 7.3 3.68 11.89
4/17/2022 2:15:00 PM 7.92 46.256 0.085 7.3 3.56 11.86
4/17/2022 2:30:00 PM 8.05 46.49 0.085 7.3 3.69 11.83
4/17/2022 2:45:00 PM 8.25 46.85 0.085 7.31 3.57 11.8
4/17/2022 3:00:00 PM 8.25 46.85 0.085 7.31 3.7 11.76
4/17/2022 3:15:00 PM 8.16 46.688 0.085 7.31 3.61 11.73
4/17/2022 3:30:00 PM 8.24 46.832 0.085 7.31 3.63 11.71
4/17/2022 3:45:00 PM 8.32 46.976 0.084 7.31 3.6 11.69
4/17/2022 4:00:00 PM 8.43 47.174 0.084 7.32 3.74 11.68
4/17/2022 4:15:00 PM 8.56 47.408 0.084 7.32 3.64 11.66
4/17/2022 4:30:00 PM 8.64 47.552 0.084 7.32 3.69 11.64
4/17/2022 4:45:00 PM 8.57 47.426 0.084 7.32 3.67 11.61
4/17/2022 5:00:00 PM 8.46 47.228 0.084 7.31 3.71 11.6
4/17/2022 5:15:00 PM 8.42 47.156 0.084 7.31 3.73 11.61
4/17/2022 5:30:00 PM 8.38 47.084 0.083 7.3 4.03 11.6
4/17/2022 5:45:00 PM 8.23 46.814 0.083 7.29 4.02 11.6
4/17/2022 6:00:00 PM 8.07 46.526 0.083 7.28 3.74 11.59
4/17/2022 6:15:00 PM 7.97 46.346 0.083 7.27 3.72 11.59
4/17/2022 6:30:00 PM 7.9 46.22 0.083 7.27 3.94 11.6
4/17/2022 6:45:00 PM 7.79 46.022 0.083 7.26 3.98 11.6
4/17/2022 7:00:00 PM 7.63 45.734 0.083 7.25 3.87 11.58
4/17/2022 7:15:00 PM 7.48 45.464 0.083 7.23 3.83 11.55
4/17/2022 7:30:00 PM 7.37 45.266 0.083 7.21 3.87 11.53
4/17/2022 7:45:00 PM 7.24 45.032 0.083 7.19 3.89 11.51
4/17/2022 8:00:00 PM 7.11 44.798 0.083 7.18 3.87 11.49
4/17/2022 8:15:00 PM 6.99 44.582 0.083 7.16 4.04 11.48
4/17/2022 8:30:00 PM 6.86 44.348 0.083 7.14 4.02 11.48
4/17/2022 8:45:00 PM 6.73 44.114 0.083 7.13 3.98 11.5
4/17/2022 9:00:00 PM 6.61 43.898 0.083 7.12 3.89 11.53
4/17/2022 9:15:00 PM 6.49 43.682 0.083 7.11 4.05 11.55
4/17/2022 9:30:00 PM 6.37 43.466 0.083 7.11 4.02 11.58
4/17/2022 9:45:00 PM 6.25 43.25 0.083 7.1 3.94 11.61
4/17/2022 10:00:00 PM 6.12 43.016 0.083 7.1 3.94 11.66
4/17/2022 10:15:00 PM 6.01 42.818 0.083 7.1 4.08 11.69
4/17/2022 10:30:00 PM 5.9 42.62 0.083 7.09 3.97 11.72
4/17/2022 10:45:00 PM 5.79 42.422 0.083 7.09 4.03 11.76
4/17/2022 11:00:00 PM 5.69 42.242 0.083 7.05 3.53 11.78
4/17/2022 11:15:00 PM 5.59 42.062 0.083 7.06 3.93 11.82
4/17/2022 11:30:00 PM 5.49 41.882 0.083 7.06 3.96 11.85
4/17/2022 11:45:00 PM 5.4 41.72 0.083 7.06 3.84 11.88
4/18/2022 12:00:00 AM 5.31 41.558 0.083 7.06 3.86 11.91
4/18/2022 12:15:00 AM 5.23 41.414 0.083 7.05 3.88 11.93
4/18/2022 12:30:00 AM 5.15 41.27 0.083 7.05 3.62 11.96
4/18/2022 12:45:00 AM 5.06 41.108 0.083 7.05 3.97 11.99
4/18/2022 1:00:00 AM 4.98 40.964 0.083 7.05 3.69 12.02
4/18/2022 1:15:00 AM 4.9 40.82 0.083 7.05 3.74 12.04
4/18/2022 1:30:00 AM 4.82 40.676 0.083 7.05 3.73 12.07
4/18/2022 1:45:00 AM 4.74 40.532 0.083 7.05 3.58 12.1
4/18/2022 2:00:00 AM 4.66 40.388 0.083 7.05 3.69 12.12
4/18/2022 2:15:00 AM 4.59 40.262 0.083 7.05 3.57 12.15
4/18/2022 2:30:00 AM 4.52 40.136 0.083 7.05 3.42 12.18
4/18/2022 2:45:00 AM 4.44 39.992 0.083 7.05 3.51 12.2
4/18/2022 3:00:00 AM 4.37 39.866 0.083 7.05 3.55 12.23
4/18/2022 3:15:00 AM 4.3 39.74 0.083 7.05 3.32 12.25
4/18/2022 3:30:00 AM 4.24 39.632 0.083 7.05 3.43 12.27
4/18/2022 3:45:00 AM 4.17 39.506 0.083 7.05 3.43 12.29
4/18/2022 4:00:00 AM 4.1 39.38 0.083 7.05 3.37 12.32
4/18/2022 4:15:00 AM 4.03 39.254 0.083 7.05 3.44 12.34
4/18/2022 4:30:00 AM 3.97 39.146 0.083 7.05 3.37 12.36
4/18/2022 4:45:00 AM 3.91 39.038 0.083 7.05 3.25 12.38
4/18/2022 5:00:00 AM 3.85 38.93 0.083 7.05 3.35 12.4
4/18/2022 5:15:00 AM 3.79 38.822 0.083 7.05 3.23 12.43
4/18/2022 5:30:00 AM 3.73 38.714 0.083 7.05 3.27 12.45
4/18/2022 5:45:00 AM 3.67 38.606 0.083 7.05 3.23 12.47
4/18/2022 6:00:00 AM 3.61 38.498 0.083 7.05 3.33 12.49
4/18/2022 6:15:00 AM 3.55 38.39 0.083 7.05 3.17 12.51
4/18/2022 6:30:00 AM 3.5 38.3 0.083 7.05 3.47 12.53
4/18/2022 6:45:00 AM 3.45 38.21 0.083 7.06 3.3 12.57
4/18/2022 7:00:00 AM 3.4 38.12 0.083 7.06 3.06 12.61
4/18/2022 7:15:00 AM 3.36 38.048 0.083 7.07 3.1 12.67
4/18/2022 7:30:00 AM 3.33 37.994 0.084 7.08 3.23 12.72
4/18/2022 7:45:00 AM 3.3 37.94 0.084 7.09 3.13 12.77
4/18/2022 8:00:00 AM 3.28 37.904 0.084 7.1 3.12 12.82
4/18/2022 8:15:00 AM 3.29 37.922 0.084 7.11 3.17 12.86
4/18/2022 8:30:00 AM 3.3 37.94 0.084 7.12 3.15 12.9
4/18/2022 8:45:00 AM 3.34 38.012 0.084 7.13 3.15 12.93
4/18/2022 9:00:00 AM 3.42 38.156 0.084 7.14 3.16 12.96
4/18/2022 9:15:00 AM 3.51 38.318 0.083 7.15 3.21 12.96
4/18/2022 9:30:00 AM 3.62 38.516 0.083 7.16 3.11 12.95
4/18/2022 9:45:00 AM 3.76 38.768 0.083 7.17 3.31 12.94
4/18/2022 10:00:00 AM 3.94 39.092 0.083 7.18 3.08 12.92
4/18/2022 10:15:00 AM 4.13 39.434 0.083 7.19 3.22 12.88
4/18/2022 10:30:00 AM 4.34 39.812 0.083 7.2 3.13 12.84
4/18/2022 10:45:00 AM 4.54 40.172 0.083 7.2 3.05 12.81
4/18/2022 11:00:00 AM 4.79 40.622 0.083 7.21 3.07 12.76
4/18/2022 11:15:00 AM 5.04 41.072 0.083 7.22 3.29 12.7
4/18/2022 11:30:00 AM 5.28 41.504 0.083 7.23 3.19 12.64
4/18/2022 11:45:00 AM 5.51 41.918 0.083 7.24 3.2 12.57
4/18/2022 12:00:00 PM 5.73 42.314 0.082 7.25 3.05 12.51
4/18/2022 12:15:00 PM 5.9 42.62 0.082 7.25 3.05 12.45
4/18/2022 12:30:00 PM 6.06 42.908 0.082 7.26 3.37 12.39
4/18/2022 12:45:00 PM 6.21 43.178 0.082 7.26 3.11 12.34
4/18/2022 1:00:00 PM 6.33 43.394 0.082 7.27 3.02 12.29
4/18/2022 1:15:00 PM 6.46 43.628 0.082 7.28 3.13 12.25
4/18/2022 1:30:00 PM 6.61 43.898 0.082 7.28 3.09 12.21
4/18/2022 1:45:00 PM 6.71 44.078 0.082 7.29 2.94 12.18
4/18/2022 2:00:00 PM 6.78 44.204 0.082 7.29 3.1 12.14
4/18/2022 2:15:00 PM 6.85 44.33 0.082 7.29 2.99 12.11
4/18/2022 2:30:00 PM 6.9 44.42 0.082 7.29 3.13 12.09
4/18/2022 2:45:00 PM 6.92 44.456 0.082 7.29 3.01 12.06
4/18/2022 3:00:00 PM 6.93 44.474 0.082 7.29 2.87 12.03
4/18/2022 3:15:00 PM 6.92 44.456 0.081 7.29 3.16 12
4/18/2022 3:30:00 PM 6.92 44.456 0.081 7.28 3.08 11.99
4/18/2022 3:45:00 PM 6.92 44.456 0.081 7.28 3.11 11.97
4/18/2022 4:00:00 PM 6.91 44.438 0.081 7.28 3.23 11.97
4/18/2022 4:15:00 PM 6.87 44.366 0.081 7.28 3.33 11.96
4/18/2022 4:30:00 PM 6.82 44.276 0.081 7.27 3.11 11.95
4/18/2022 4:45:00 PM 6.76 44.168 0.081 7.26 3.2 11.93
4/18/2022 5:00:00 PM 6.7 44.06 0.081 7.26 3.05 11.91
4/18/2022 5:15:00 PM 6.62 43.916 0.081 7.25 3.08 11.89
4/18/2022 5:30:00 PM 6.55 43.79 0.081 7.24 3.3 11.86
4/18/2022 5:45:00 PM 6.49 43.682 0.081 7.22 3.21 11.83
4/18/2022 6:00:00 PM 6.41 43.538 0.081 7.21 3.06 11.81
4/18/2022 6:15:00 PM 6.32 43.376 0.081 7.2 3.31 11.8
4/18/2022 6:30:00 PM 6.21 43.178 0.081 7.19 3.38 11.78
4/18/2022 6:45:00 PM 6.12 43.016 0.081 7.18 3.45 11.77
4/18/2022 7:00:00 PM 6.02 42.836 0.081 7.17 3.37 11.78
4/18/2022 7:15:00 PM 5.93 42.674 0.081 7.16 3.54 11.76
4/18/2022 7:30:00 PM 5.83 42.494 0.081 7.15 3.75 11.76
4/18/2022 7:45:00 PM 5.72 42.296 0.081 7.14 3.77 11.76
4/18/2022 8:00:00 PM 5.64 42.152 0.081 7.13 3.71 11.76
4/18/2022 8:15:00 PM 5.56 42.008 0.081 7.12 3.92 11.77
4/18/2022 8:30:00 PM 5.5 41.9 0.081 7.12 4.09 11.78
4/18/2022 8:45:00 PM 5.44 41.792 0.081 7.11 4.13 11.8
4/18/2022 9:00:00 PM 5.38 41.684 0.081 7.11 4.52 11.81
4/18/2022 9:15:00 PM 5.31 41.558 0.081 7.11 4.24 11.83
4/18/2022 9:30:00 PM 5.25 41.45 0.081 7.11 4.37 11.84
4/18/2022 9:45:00 PM 5.18 41.324 0.081 7.1 4.28 11.86
4/18/2022 10:00:00 PM 5.08 41.144 0.081 7.1 4.31 11.88
4/18/2022 10:15:00 PM 4.95 40.91 0.081 7.1 4.64 11.9
4/18/2022 10:30:00 PM 4.77 40.586 0.081 7.1 4.78 11.92
4/18/2022 10:45:00 PM 4.62 40.316 0.081 7.1 5.09 11.95
4/18/2022 11:00:00 PM 4.44 39.992 0.081 7.1 5.38 11.99
4/18/2022 11:15:00 PM 4.26 39.668 0.082 7.09 6.13 12.04
4/18/2022 11:30:00 PM 4.08 39.344 0.082 7.09 6.26 12.09
4/18/2022 11:45:00 PM 3.86 38.948 0.081 7.09 6.15 12.14
4/19/2022 12:00:00 AM 3.65 38.57 0.081 7.09 5.74 12.19
4/19/2022 12:15:00 AM 3.4 38.12 0.082 7.03 5.71 12.25
4/19/2022 12:30:00 AM 3.06 37.508 0.082 7.03 5.33 12.3
4/19/2022 12:45:00 AM 2.61 36.698 0.081 7.01 5.25 12.37
4/19/2022 1:00:00 AM 2.21 35.978 0.081 6.99 4.9 12.45
4/19/2022 1:15:00 AM 1.8 35.24 0.081 6.98 4.88 12.56
4/19/2022 1:30:00 AM 1.4 34.52 0.081 6.96 5.25 12.69
4/19/2022 1:45:00 AM 1.04 33.872 0.081 6.95 5.55 12.84
4/19/2022 2:00:00 AM 0.76 33.368 0.082 6.95 6.87 12.97
4/19/2022 2:15:00 AM 0.5 32.9 0.082 6.95 6.2 13.11
4/19/2022 2:30:00 AM 0.32 32.576 0.082 6.96 6.15 13.22
4/19/2022 2:45:00 AM 0.23 32.414 0.081 6.98 5.9 13.32
4/19/2022 3:00:00 AM 0.1 32.18 0.08 6.98 6.3 13.4
4/19/2022 3:15:00 AM 0 32 0.08 6.99 5.57 13.47
4/19/2022 3:30:00 AM -0.06 31.892 0.079 7 6.02 13.52
4/19/2022 3:45:00 AM -0.1 31.82 0.079 7.01 6.37 13.57
4/19/2022 4:00:00 AM -0.11 31.802 0.079 7.02 6.74 13.6
4/19/2022 4:15:00 AM -0.11 31.802 0.078 7.03 6.92 13.64
4/19/2022 4:30:00 AM -0.11 31.802 0.078 7.03 7.58 13.65
4/19/2022 4:45:00 AM -0.09 31.838 0.078 7.03 7.26 13.66
4/19/2022 5:00:00 AM -0.08 31.856 0.078 7.04 7.84 13.66
4/19/2022 5:15:00 AM -0.07 31.874 0.078 7.04 8.18 13.65
4/19/2022 5:30:00 AM -0.03 31.946 0.077 7.04 6.62 13.64
4/19/2022 5:45:00 AM 0.01 32.018 0.077 7.05 6.5 13.63
4/19/2022 6:00:00 AM 0.09 32.162 0.077 7.05 7.22 13.61
4/19/2022 6:15:00 AM 0.12 32.216 0.077 7.05 7.06 13.59
4/19/2022 6:30:00 AM 0.16 32.288 0.077 7.05 6.37 13.57
4/19/2022 6:45:00 AM 0.21 32.378 0.076 7.06 6.69 13.56
4/19/2022 7:00:00 AM 0.29 32.522 0.076 7.07 6.31 13.55
4/19/2022 7:15:00 AM 0.35 32.63 0.076 7.08 6.02 13.55
4/19/2022 7:30:00 AM 0.38 32.684 0.076 7.09 6.15 13.56
4/19/2022 7:45:00 AM 0.42 32.756 0.076 7.1 6.26 13.56
4/19/2022 8:00:00 AM 0.5 32.9 0.076 7.11 6.11 13.58
4/19/2022 8:15:00 AM 0.55 32.99 0.076 7.12 6.15 13.6
4/19/2022 8:30:00 AM 0.68 33.224 0.076 7.13 5.58 13.61
4/19/2022 8:45:00 AM 0.75 33.35 0.076 7.14 5.68 13.62
4/19/2022 9:00:00 AM 0.84 33.512 0.076 7.15 5.44 13.62
4/19/2022 9:15:00 AM 0.92 33.656 0.076 7.15 5.66 13.61
4/19/2022 9:30:00 AM 1.04 33.872 0.076 7.16 5.85 13.6
4/19/2022 9:45:00 AM 1.21 34.178 0.076 7.17 6.04 13.57
4/19/2022 10:00:00 AM 1.37 34.466 0.076 7.18 5.27 13.54
4/19/2022 10:15:00 AM 1.49 34.682 0.077 7.18 5.63 13.51
4/19/2022 10:30:00 AM 1.66 34.988 0.077 7.18 5.7 13.47
4/19/2022 10:45:00 AM 1.79 35.222 0.078 7.19 5.44 13.43
4/19/2022 11:00:00 AM 1.93 35.474 0.078 7.2 5.7 13.39
4/19/2022 11:15:00 AM 2.06 35.708 0.077 7.2 5.81 13.34
4/19/2022 11:30:00 AM 2.15 35.87 0.077 7.2 5.72 13.3
4/19/2022 11:45:00 AM 2.23 36.014 0.077 7.21 6.22 13.26
4/19/2022 12:00:00 PM 2.36 36.248 0.077 7.21 6.59 13.23
4/19/2022 12:15:00 PM 2.5 36.5 0.077 7.21 6.9 13.2
4/19/2022 12:30:00 PM 2.62 36.716 0.077 7.22 7.09 13.17
4/19/2022 12:45:00 PM 2.72 36.896 0.077 7.22 6.66 13.13
4/19/2022 1:00:00 PM 2.83 37.094 0.077 7.22 7.18 13.1
4/19/2022 1:15:00 PM 2.96 37.328 0.078 7.22 6.8 13.07
4/19/2022 1:30:00 PM 3.08 37.544 0.078 7.22 6.91 13.04
4/19/2022 1:45:00 PM 3.23 37.814 0.078 7.22 6.86 13
4/19/2022 2:00:00 PM 3.4 38.12 0.078 7.22 6.84 12.97
4/19/2022 2:15:00 PM 3.55 38.39 0.079 7.23 7.68 12.93
4/19/2022 2:30:00 PM 3.71 38.678 0.079 7.23 8.17 12.89
4/19/2022 2:45:00 PM 3.87 38.966 0.079 7.23 8.33 12.84
4/19/2022 3:00:00 PM 3.98 39.164 0.079 7.23 9.06 12.8
4/19/2022 3:15:00 PM 4.06 39.308 0.079 7.24 8.81 12.76
4/19/2022 3:30:00 PM 4.12 39.416 0.08 7.24 9.22 12.73
4/19/2022 3:45:00 PM 4.17 39.506 0.08 7.24 9.89 12.7
4/19/2022 4:00:00 PM 4.27 39.686 0.08 7.24 10.16 12.67
4/19/2022 4:15:00 PM 4.33 39.794 0.08 7.24 9.46 12.65
4/19/2022 4:30:00 PM 4.41 39.938 0.081 7.25 8.94 12.63
4/19/2022 4:45:00 PM 4.44 39.992 0.081 7.25 10.89 12.6
4/19/2022 5:00:00 PM 4.42 39.956 0.081 7.24 11.66 12.58
4/19/2022 5:15:00 PM 4.42 39.956 0.081 7.24 11.11 12.55
4/19/2022 5:30:00 PM 4.42 39.956 0.082 7.24 11.35 12.54
4/19/2022 5:45:00 PM 4.38 39.884 0.082 7.23 10.56 12.51
4/19/2022 6:00:00 PM 4.35 39.83 0.082 7.23 11.88 12.49
4/19/2022 6:15:00 PM 4.32 39.776 0.082 7.22 11.32 12.49
4/19/2022 6:30:00 PM 4.27 39.686 0.083 7.22 11.34 12.48
4/19/2022 6:45:00 PM 4.23 39.614 0.083 7.21 10.38 12.47
4/19/2022 7:00:00 PM 4.18 39.524 0.083 7.21 10.47 12.47
4/19/2022 7:15:00 PM 4.13 39.434 0.083 7.2 10.02 12.45
4/19/2022 7:30:00 PM 4.07 39.326 0.083 7.19 9.58 12.42
4/19/2022 7:45:00 PM 4.01 39.218 0.084 7.18 9.44 12.4
4/19/2022 8:00:00 PM 3.95 39.11 0.084 7.17 8.73 12.38
4/19/2022 8:15:00 PM 3.88 38.984 0.084 7.16 8.91 12.38
4/19/2022 8:30:00 PM 3.82 38.876 0.084 7.15 9.15 12.38
4/19/2022 8:45:00 PM 3.77 38.786 0.084 7.14 8.93 12.39
4/19/2022 9:00:00 PM 3.72 38.696 0.085 7.14 9.04 12.4
4/19/2022 9:15:00 PM 3.68 38.624 0.085 7.14 8.73 12.41
4/19/2022 9:30:00 PM 3.64 38.552 0.085 7.13 8.06 12.42
4/19/2022 9:45:00 PM 3.59 38.462 0.085 7.13 8.59 12.44
4/19/2022 10:00:00 PM 3.56 38.408 0.085 7.13 8.26 12.45
4/19/2022 10:15:00 PM 3.53 38.354 0.086 7.13 8.79 12.47
4/19/2022 10:30:00 PM 3.5 38.3 0.086 7.13 7.68 12.48
4/19/2022 10:45:00 PM 3.47 38.246 0.086 7.13 7.31 12.49
4/19/2022 11:00:00 PM 3.45 38.21 0.086 7.12 7.37 12.5
4/19/2022 11:15:00 PM 3.42 38.156 0.086 7.12 7.41 12.51
4/19/2022 11:30:00 PM 3.39 38.102 0.086 7.12 6.88 12.52
4/19/2022 11:45:00 PM 3.38 38.084 0.086 7.12 7.28 12.53
4/20/2022 12:00:00 AM 3.36 38.048 0.086 7.12 7.19 12.54
4/20/2022 12:15:00 AM 3.34 38.012 0.086 7.12 6.67 12.55
4/20/2022 12:30:00 AM 3.33 37.994 0.086 7.12 6.76 12.55
4/20/2022 12:45:00 AM 3.31 37.958 0.086 7.12 6.75 12.56
4/20/2022 1:00:00 AM 3.3 37.94 0.086 7.12 6.78 12.57
4/20/2022 1:15:00 AM 3.29 37.922 0.086 7.12 6.34 12.58
4/20/2022 1:30:00 AM 3.28 37.904 0.086 7.11 6.46 12.58
4/20/2022 1:45:00 AM 3.28 37.904 0.086 7.11 6.19 12.59
4/20/2022 2:00:00 AM 3.27 37.886 0.086 7.11 6.5 12.6
4/20/2022 2:15:00 AM 3.26 37.868 0.086 7.11 6.04 12.6
4/20/2022 2:30:00 AM 3.26 37.868 0.086 7.11 5.94 12.6
4/20/2022 2:45:00 AM 3.25 37.85 0.086 7.11 6.12 12.61
4/20/2022 3:00:00 AM 3.25 37.85 0.086 7.11 5.87 12.61
4/20/2022 3:15:00 AM 3.24 37.832 0.086 7.11 5.72 12.62
4/20/2022 3:30:00 AM 3.23 37.814 0.086 7.11 5.7 12.62
4/20/2022 3:45:00 AM 3.23 37.814 0.086 7.11 5.54 12.63
4/20/2022 4:00:00 AM 3.23 37.814 0.086 7.11 5.38 12.63
4/20/2022 4:15:00 AM 3.22 37.796 0.086 7.1 5.51 12.64
4/20/2022 4:30:00 AM 3.21 37.778 0.086 7.1 5.33 12.64
4/20/2022 4:45:00 AM 3.19 37.742 0.086 7.1 5.32 12.65
4/20/2022 5:00:00 AM 3.17 37.706 0.086 7.1 5.39 12.65
4/20/2022 5:15:00 AM 3.15 37.67 0.086 7.1 5.12 12.66
4/20/2022 5:30:00 AM 3.13 37.634 0.086 7.1 4.77 12.67
4/20/2022 5:45:00 AM 3.12 37.616 0.086 7.1 5.36 12.68
4/20/2022 6:00:00 AM 3.12 37.616 0.086 7.1 5.31 12.68
4/20/2022 6:15:00 AM 3.12 37.616 0.086 7.1 4.82 12.69
4/20/2022 6:30:00 AM 3.11 37.598 0.086 7.1 5.17 12.71
4/20/2022 6:45:00 AM 3.12 37.616 0.086 7.1 4.84 12.73
4/20/2022 7:00:00 AM 3.11 37.598 0.086 7.11 5.03 12.77
4/20/2022 7:15:00 AM 3.1 37.58 0.086 7.11 5.16 12.8
4/20/2022 7:30:00 AM 3.1 37.58 0.086 7.12 4.9 12.85
4/20/2022 7:45:00 AM 3.12 37.616 0.086 7.13 4.73 12.89
4/20/2022 8:00:00 AM 3.15 37.67 0.086 7.14 4.64 12.94
4/20/2022 8:15:00 AM 3.16 37.688 0.085 7.15 4.49 12.98
4/20/2022 8:30:00 AM 3.19 37.742 0.085 7.16 4.61 13
4/20/2022 8:45:00 AM 3.24 37.832 0.085 7.17 4.75 13.03
4/20/2022 9:00:00 AM 3.28 37.904 0.085 7.18 4.58 13.04
4/20/2022 9:15:00 AM 3.38 38.084 0.085 7.18 4.46 13.05
4/20/2022 9:30:00 AM 3.52 38.336 0.085 7.19 4.69 13.06
4/20/2022 9:45:00 AM 3.61 38.498 0.085 7.2 4.73 13.05
4/20/2022 10:00:00 AM 3.8 38.84 0.085 7.21 4.59 13.03
4/20/2022 10:15:00 AM 3.9 39.02 0.085 7.21 4.73 13
4/20/2022 10:30:00 AM 4.06 39.308 0.085 7.21 4.91 12.98
4/20/2022 10:45:00 AM 4.26 39.668 0.085 7.22 5.03 12.94
4/20/2022 11:00:00 AM 4.34 39.812 0.085 7.22 4.95 12.9
4/20/2022 11:15:00 AM 4.58 40.244 0.085 7.22 4.91 12.85
4/20/2022 11:30:00 AM 4.97 40.946 0.085 7.23 5.59 12.77
4/20/2022 11:45:00 AM 5.35 41.63 0.084 7.24 5.72 12.69
4/20/2022 12:00:00 PM 5.72 42.296 0.084 7.24 5.94 12.6
4/20/2022 12:15:00 PM 6.09 42.962 0.084 7.25 6.73 12.51
4/20/2022 12:30:00 PM 6.46 43.628 0.084 7.26 7.13 12.43
4/20/2022 12:45:00 PM 6.82 44.276 0.084 7.27 6.95 12.34
4/20/2022 1:00:00 PM 7.13 44.834 0.084 7.28 7.79 12.27
4/20/2022 1:15:00 PM 7.39 45.302 0.085 7.28 8.16 12.2
4/20/2022 1:30:00 PM 7.65 45.77 0.085 7.29 9.05 12.14
4/20/2022 1:45:00 PM 7.86 46.148 0.085 7.3 9.68 12.08
4/20/2022 2:00:00 PM 8.06 46.508 0.085 7.3 11.72 12.03
4/20/2022 2:15:00 PM 8.25 46.85 0.085 7.31 12.37 11.97
4/20/2022 2:30:00 PM 8.42 47.156 0.085 7.31 14.76 11.92
4/20/2022 2:45:00 PM 8.55 47.39 0.085 7.32 16.1 11.87
4/20/2022 3:00:00 PM 8.65 47.57 0.085 7.33 18.07 11.82
4/20/2022 3:15:00 PM 8.72 47.696 0.085 7.33 16.93 11.77
4/20/2022 3:30:00 PM 8.78 47.804 0.084 7.33 20.89 11.72
4/20/2022 3:45:00 PM 8.79 47.822 0.084 7.33 21.13 11.68
4/20/2022 4:00:00 PM 8.75 47.75 0.083 7.32 24.17 11.65
4/20/2022 4:15:00 PM 8.68 47.624 0.083 7.31 26.8 11.63
4/20/2022 4:30:00 PM 8.58 47.444 0.082 7.3 29.44 11.61
4/20/2022 4:45:00 PM 8.45 47.21 0.081 7.27 30.46 11.59
4/20/2022 5:00:00 PM 8.3 46.94 0.08 7.26 34.61 11.58
4/20/2022 5:15:00 PM 8.15 46.67 0.079 7.26 36.33 11.58
4/20/2022 5:30:00 PM 7.99 46.382 0.079 7.23 36.77 11.6
4/20/2022 5:45:00 PM 7.81 46.058 0.078 7.21 38.25 11.62
4/20/2022 6:00:00 PM 7.63 45.734 0.077 7.22 35.54 11.65
4/20/2022 6:15:00 PM 7.44 45.392 0.076 7.19 34.65 11.68
4/20/2022 6:30:00 PM 7.24 45.032 0.075 7.19 34.87 11.71
4/20/2022 6:45:00 PM 7.05 44.69 0.075 7.19 41.9 11.74
4/20/2022 7:00:00 PM 6.85 44.33 0.074 7.17 39.84 11.77
4/20/2022 7:15:00 PM 6.65 43.97 0.074 7.15 36.1 11.8
4/20/2022 7:30:00 PM 6.47 43.646 0.073 7.14 35.95 11.84
4/20/2022 7:45:00 PM 6.3 43.34 0.073 7.12 34.84 11.88
4/20/2022 8:00:00 PM 6.13 43.034 0.073 7.12 33.86 11.92
4/20/2022 8:15:00 PM 5.96 42.728 0.073 7.11 32.35 11.96
4/20/2022 8:30:00 PM 5.8 42.44 0.073 7.11 35.77 12.01
4/20/2022 8:45:00 PM 5.65 42.17 0.073 7.1 27.1 12.05
4/20/2022 9:00:00 PM 5.51 41.918 0.073 7.1 27.4 12.09
4/20/2022 9:15:00 PM 5.38 41.684 0.073 7.09 22.91 12.13
4/20/2022 9:30:00 PM 5.26 41.468 0.073 7.09 22.72 12.17
4/20/2022 9:45:00 PM 5.14 41.252 0.073 7.09 22.42 12.2
4/20/2022 10:00:00 PM 5.03 41.054 0.073 7.08 23.28 12.23
4/20/2022 10:15:00 PM 4.93 40.874 0.073 7.08 20.03 12.26
4/20/2022 10:30:00 PM 4.84 40.712 0.073 7.07 18.76 12.29
4/20/2022 10:45:00 PM 4.75 40.55 0.073 7.07 18.4 12.32
4/20/2022 11:00:00 PM 4.68 40.424 0.073 7.07 17.42 12.34
4/20/2022 11:15:00 PM 4.6 40.28 0.073 7.07 17.86 12.36
4/20/2022 11:30:00 PM 4.53 40.154 0.074 7.06 16.28 12.38
4/20/2022 11:45:00 PM 4.46 40.028 0.074 7.06 15.44 12.4
4/21/2022 12:00:00 AM 4.4 39.92 0.074 7.06 15.14 12.41
4/21/2022 12:15:00 AM 4.34 39.812 0.074 7.06 13.78 12.43
4/21/2022 12:30:00 AM 4.28 39.704 0.075 7.05 14.42 12.44
4/21/2022 12:45:00 AM 4.23 39.614 0.075 7.05 12.88 12.46
4/21/2022 1:00:00 AM 4.19 39.542 0.075 7.05 12.94 12.47
4/21/2022 1:15:00 AM 4.14 39.452 0.075 7.05 13.02 12.48
4/21/2022 1:30:00 AM 4.1 39.38 0.075 7.05 11.7 12.49
4/21/2022 1:45:00 AM 4.06 39.308 0.076 7.05 11.97 12.51
4/21/2022 2:00:00 AM 4.04 39.272 0.076 7.05 11.23 12.52
4/21/2022 2:15:00 AM 4.02 39.236 0.076 7.05 10.79 12.52
4/21/2022 2:30:00 AM 4 39.2 0.076 7.05 10.6 12.53
4/21/2022 2:45:00 AM 3.99 39.182 0.077 7.05 10.56 12.53
4/21/2022 3:00:00 AM 3.97 39.146 0.077 7.05 10.66 12.54
4/21/2022 3:15:00 AM 3.94 39.092 0.077 7.05 10.91 12.54
4/21/2022 3:30:00 AM 3.93 39.074 0.077 7.04 10.07 12.54
4/21/2022 3:45:00 AM 3.91 39.038 0.078 7.04 9.63 12.54
4/21/2022 4:00:00 AM 3.91 39.038 0.078 7.04 9.72 12.54
4/21/2022 4:15:00 AM 3.9 39.02 0.078 7.04 9.06 12.54
4/21/2022 4:30:00 AM 3.89 39.002 0.078 7.04 8.98 12.54
4/21/2022 4:45:00 AM 3.89 39.002 0.079 7.04 9.29 12.54
4/21/2022 5:00:00 AM 3.88 38.984 0.079 7.04 8.54 12.54
4/21/2022 5:15:00 AM 3.89 39.002 0.079 7.04 8.75 12.54
4/21/2022 5:30:00 AM 3.89 39.002 0.079 7.04 8.64 12.54
4/21/2022 5:45:00 AM 3.89 39.002 0.079 7.04 8.55 12.54
4/21/2022 6:00:00 AM 3.89 39.002 0.08 7.04 8.54 12.54
4/21/2022 6:15:00 AM 3.89 39.002 0.08 7.04 8.51 12.54
4/21/2022 6:30:00 AM 3.89 39.002 0.08 7.04 7.54 12.54
4/21/2022 6:45:00 AM 3.9 39.02 0.08 7.05 8.15 12.55
4/21/2022 7:00:00 AM 3.9 39.02 0.08 7.05 7.76 12.57
4/21/2022 7:15:00 AM 3.91 39.038 0.08 7.06 7.4 12.59
4/21/2022 7:30:00 AM 3.93 39.074 0.08 7.06 7.78 12.62
4/21/2022 7:45:00 AM 3.96 39.128 0.08 7.07 7.26 12.65
4/21/2022 8:00:00 AM 4.01 39.218 0.08 7.08 7.34 12.67
4/21/2022 8:15:00 AM 4.06 39.308 0.08 7.09 7.14 12.69
4/21/2022 8:30:00 AM 4.14 39.452 0.08 7.1 6.74 12.71
4/21/2022 8:45:00 AM 4.23 39.614 0.08 7.11 7.08 12.72
4/21/2022 9:00:00 AM 4.37 39.866 0.08 7.12 7.14 12.72
4/21/2022 9:15:00 AM 4.49 40.082 0.08 7.13 6.98 12.71
4/21/2022 9:30:00 AM 4.62 40.316 0.08 7.14 6.89 12.69
4/21/2022 9:45:00 AM 4.72 40.496 0.08 7.14 6.73 12.66
4/21/2022 10:00:00 AM 4.83 40.694 0.08 7.15 6.22 12.64
4/21/2022 10:15:00 AM 4.98 40.964 0.08 7.15 6.42 12.6
4/21/2022 10:30:00 AM 5.08 41.144 0.08 7.16 6.25 12.56
4/21/2022 10:45:00 AM 5.14 41.252 0.08 7.16 6.25 12.51
4/21/2022 11:00:00 AM 5.24 41.432 0.08 7.16 6.26 12.48
4/21/2022 11:15:00 AM 5.38 41.684 0.079 7.17 6.3 12.47
4/21/2022 11:30:00 AM 5.55 41.99 0.079 7.17 6.78 12.45
4/21/2022 11:45:00 AM 5.69 42.242 0.079 7.18 7 12.42
4/21/2022 12:00:00 PM 5.85 42.53 0.079 7.19 7.26 12.39
4/21/2022 12:15:00 PM 5.98 42.764 0.079 7.19 6.7 12.36
4/21/2022 12:30:00 PM 6.11 42.998 0.079 7.2 7.51 12.31
4/21/2022 12:45:00 PM 6.21 43.178 0.078 7.2 7.21 12.26
4/21/2022 1:00:00 PM 6.29 43.322 0.078 7.2 8.14 12.21
4/21/2022 1:15:00 PM 6.37 43.466 0.077 7.21 8.31 12.16
4/21/2022 1:30:00 PM 6.43 43.574 0.077 7.21 9.16 12.12
4/21/2022 1:45:00 PM 6.48 43.664 0.076 7.21 10.28 12.08
4/21/2022 2:00:00 PM 6.51 43.718 0.076 7.2 11.01 12.02
4/21/2022 2:15:00 PM 6.52 43.736 0.075 7.19 12.2 11.95
4/21/2022 2:30:00 PM 6.51 43.718 0.074 7.18 13.6 11.93
4/21/2022 2:45:00 PM 6.47 43.646 0.074 7.17 15.15 11.92
4/21/2022 3:00:00 PM 6.43 43.574 0.073 7.16 15.79 11.91
4/21/2022 3:15:00 PM 6.39 43.502 0.072 7.16 17.73 11.92
4/21/2022 3:30:00 PM 6.35 43.43 0.071 7.15 19.39 11.93
4/21/2022 3:45:00 PM 6.32 43.376 0.071 7.15 23.19 11.95
4/21/2022 4:00:00 PM 6.28 43.304 0.07 7.15 24.46 11.96
4/21/2022 4:15:00 PM 6.24 43.232 0.07 7.14 28.04 11.95
4/21/2022 4:30:00 PM 6.19 43.142 0.07 7.14 30.83 11.95
4/21/2022 4:45:00 PM 6.13 43.034 0.069 7.13 33.33 11.95
4/21/2022 5:00:00 PM 6.08 42.944 0.069 7.13 33.94 11.96
4/21/2022 5:15:00 PM 6.03 42.854 0.068 7.12 39.03 11.96
4/21/2022 5:30:00 PM 5.97 42.746 0.067 7.11 39.05 11.98
4/21/2022 5:45:00 PM 5.92 42.656 0.066 7.11 38.57 11.99
4/21/2022 6:00:00 PM 5.87 42.566 0.066 7.1 41.96 12.01
4/21/2022 6:15:00 PM 5.83 42.494 0.065 7.09 38.25 12.02
4/21/2022 6:30:00 PM 5.79 42.422 0.064 7.09 41.68 12.04
4/21/2022 6:45:00 PM 5.76 42.368 0.064 7.09 38.56 12.05
4/21/2022 7:00:00 PM 5.72 42.296 0.063 7.09 38.86 12.06
4/21/2022 7:15:00 PM 5.7 42.26 0.063 7.09 37.08 12.07
4/21/2022 7:30:00 PM 5.67 42.206 0.063 7.08 35.13 12.07
4/21/2022 7:45:00 PM 5.65 42.17 0.063 7.08 32.43 12.07
4/21/2022 8:00:00 PM 5.63 42.134 0.063 7.08 32.7 12.08
4/21/2022 8:15:00 PM 5.6 42.08 0.062 7.07 28.05 12.08
4/21/2022 8:30:00 PM 5.57 42.026 0.062 7.07 27.58 12.08
4/21/2022 8:45:00 PM 5.53 41.954 0.062 7.06 27.06 12.08
4/21/2022 9:00:00 PM 5.5 41.9 0.062 7.06 26.41 12.09
4/21/2022 9:15:00 PM 5.46 41.828 0.062 7.06 23.37 12.1
4/21/2022 9:30:00 PM 5.41 41.738 0.062 7.06 24.21 12.11
4/21/2022 9:45:00 PM 5.37 41.666 0.063 7.05 21.56 12.13
4/21/2022 10:00:00 PM 5.32 41.576 0.063 7.05 22.26 12.14
4/21/2022 10:15:00 PM 5.28 41.504 0.063 7.05 19.29 12.15
4/21/2022 10:30:00 PM 5.24 41.432 0.063 7.04 21.95 12.16
4/21/2022 10:45:00 PM 5.2 41.36 0.064 7.04 20.86 12.17
4/21/2022 11:00:00 PM 5.16 41.288 0.064 7.03 20.15 12.19
4/21/2022 11:15:00 PM 5.11 41.198 0.064 7.03 18.86 12.2
4/21/2022 11:30:00 PM 5.07 41.126 0.064 7.03 19.06 12.21
4/21/2022 11:45:00 PM 5.03 41.054 0.064 7.02 18.06 12.22
4/22/2022 12:00:00 AM 4.99 40.982 0.065 7.02 26.22 12.23
4/22/2022 12:15:00 AM 4.96 40.928 0.065 7.02 15.43 12.24
4/22/2022 12:30:00 AM 4.92 40.856 0.066 7.02 15.93 12.25
4/22/2022 12:45:00 AM 4.89 40.802 0.066 7.02 16.22 12.26
4/22/2022 1:00:00 AM 4.86 40.748 0.066 7.02 18.34 12.27
4/22/2022 1:15:00 AM 4.83 40.694 0.066 7.02 15.07 12.28
4/22/2022 1:30:00 AM 4.8 40.64 0.067 7.02 12.89 12.29
4/22/2022 1:45:00 AM 4.77 40.586 0.067 7.01 13.89 12.29
4/22/2022 2:00:00 AM 4.75 40.55 0.068 7.01 14.5 12.3
4/22/2022 2:15:00 AM 4.72 40.496 0.068 7.01 13.73 12.3
4/22/2022 2:30:00 AM 4.7 40.46 0.068 7.01 13.65 12.31
4/22/2022 2:45:00 AM 4.68 40.424 0.068 7.01 12.96 12.32
4/22/2022 3:00:00 AM 4.65 40.37 0.068 7.01 13.09 12.32
4/22/2022 3:15:00 AM 4.63 40.334 0.069 7.01 12.25 12.33
4/22/2022 3:30:00 AM 4.61 40.298 0.069 7.01 11.68 12.33
4/22/2022 3:45:00 AM 4.59 40.262 0.069 7.01 11.58 12.34
4/22/2022 4:00:00 AM 4.56 40.208 0.069 7 11.28 12.35
4/22/2022 4:15:00 AM 4.54 40.172 0.069 7.01 11.53 12.36
4/22/2022 4:30:00 AM 4.52 40.136 0.069 7.01 10.88 12.37
4/22/2022 4:45:00 AM 4.52 40.136 0.069 7.01 11.04 12.37
4/22/2022 5:00:00 AM 4.51 40.118 0.07 7 10.93 12.38
4/22/2022 5:15:00 AM 4.52 40.136 0.07 7.01 10.93 12.38
4/22/2022 5:30:00 AM 4.54 40.172 0.07 7.01 10.26 12.39
4/22/2022 5:45:00 AM 4.55 40.19 0.07 7.01 10.58 12.39
4/22/2022 6:00:00 AM 4.56 40.208 0.07 7.01 10.21 12.38
4/22/2022 6:15:00 AM 4.57 40.226 0.07 7.01 9.31 12.39
4/22/2022 6:30:00 AM 4.58 40.244 0.07 7.01 9.34 12.39
4/22/2022 6:45:00 AM 4.58 40.244 0.07 7.02 9.37 12.39
4/22/2022 7:00:00 AM 4.6 40.28 0.07 7.02 9.4 12.41
4/22/2022 7:15:00 AM 4.61 40.298 0.07 7.03 9.11 12.42
4/22/2022 7:30:00 AM 4.62 40.316 0.07 7.03 8.88 12.44
4/22/2022 7:45:00 AM 4.63 40.334 0.07 7.04 9.3 12.46
4/22/2022 8:00:00 AM 4.64 40.352 0.07 7.05 9.21 12.47
4/22/2022 8:15:00 AM 4.68 40.424 0.07 7.06 9.34 12.49
4/22/2022 8:30:00 AM 4.72 40.496 0.069 7.06 9.14 12.5
4/22/2022 8:45:00 AM 4.78 40.604 0.069 7.07 8.87 12.51
4/22/2022 9:00:00 AM 4.86 40.748 0.069 7.08 8.59 12.51
4/22/2022 9:15:00 AM 4.95 40.91 0.069 7.08 8.98 12.5
4/22/2022 9:30:00 AM 5.07 41.126 0.069 7.09 8.64 12.49
4/22/2022 9:45:00 AM 5.21 41.378 0.069 7.1 8.25 12.47
4/22/2022 10:00:00 AM 5.37 41.666 0.069 7.1 8.03 12.44
4/22/2022 10:15:00 AM 5.54 41.972 0.069 7.11 8.37 12.41
4/22/2022 10:30:00 AM 5.73 42.314 0.069 7.11 8.49 12.37
4/22/2022 10:45:00 AM 5.94 42.692 0.068 7.12 8.93 12.33
4/22/2022 11:00:00 AM 6.16 43.088 0.068 7.13 8.81 12.28
4/22/2022 11:15:00 AM 6.4 43.52 0.068 7.14 9.33 12.23
4/22/2022 11:30:00 AM 6.65 43.97 0.068 7.14 9.52 12.18
4/22/2022 11:45:00 AM 6.91 44.438 0.068 7.15 8.66 12.12
4/22/2022 12:00:00 PM 7.17 44.906 0.068 7.15 8.71 12.06
4/22/2022 12:15:00 PM 7.43 45.374 0.067 7.16 8.08 12
4/22/2022 12:30:00 PM 7.7 45.86 0.067 7.16 7.95 11.94
4/22/2022 12:45:00 PM 7.96 46.328 0.067 7.17 8.39 11.88
4/22/2022 1:00:00 PM 8.22 46.796 0.067 7.18 8.46 11.81
4/22/2022 1:15:00 PM 8.46 47.228 0.067 7.18 8.41 11.75
4/22/2022 1:30:00 PM 8.7 47.66 0.067 7.18 8.59 11.69
4/22/2022 1:45:00 PM 8.93 48.074 0.067 7.19 8.96 11.62
4/22/2022 2:00:00 PM 9.14 48.452 0.066 7.2 9.25 11.57
4/22/2022 2:15:00 PM 9.34 48.812 0.066 7.2 9.12 11.51
4/22/2022 2:30:00 PM 9.52 49.136 0.066 7.2 9.2 11.46
4/22/2022 2:45:00 PM 9.68 49.424 0.066 7.21 9.22 11.41
4/22/2022 3:00:00 PM 9.82 49.676 0.066 7.2 9.71 11.36
4/22/2022 3:15:00 PM 9.94 49.892 0.066 7.2 9.44 11.32
4/22/2022 3:30:00 PM 10.04 50.072 0.066 7.2 9.37 11.28
4/22/2022 3:45:00 PM 10.12 50.216 0.065 7.21 9.65 11.25
4/22/2022 4:00:00 PM 10.19 50.342 0.065 7.21 9.91 11.22
4/22/2022 4:15:00 PM 10.24 50.432 0.065 7.2 9.72 11.19
4/22/2022 4:30:00 PM 10.25 50.45 0.065 7.2 10.27 11.17
4/22/2022 4:45:00 PM 10.26 50.468 0.065 7.2 9.7 11.15
4/22/2022 5:00:00 PM 10.23 50.414 0.065 7.19 10.02 11.13
4/22/2022 5:15:00 PM 10.17 50.306 0.064 7.19 10.2 11.13
4/22/2022 5:30:00 PM 10.11 50.198 0.064 7.19 9.87 11.12
4/22/2022 5:45:00 PM 10.01 50.018 0.064 7.18 9.69 11.12
4/22/2022 6:00:00 PM 9.9 49.82 0.064 7.17 9.69 11.12
4/22/2022 6:15:00 PM 9.78 49.604 0.064 7.16 9.96 11.12
4/22/2022 6:30:00 PM 9.65 49.37 0.064 7.15 9.7 11.12
4/22/2022 6:45:00 PM 9.5 49.1 0.064 7.14 9.67 11.12
4/22/2022 7:00:00 PM 9.36 48.848 0.064 7.13 12.37 11.11
4/22/2022 7:15:00 PM 9.22 48.596 0.064 7.12 13.07 11.12
4/22/2022 7:30:00 PM 9.08 48.344 0.064 7.1 12.62 11.13
4/22/2022 7:45:00 PM 8.95 48.11 0.064 7.09 12.47 11.14
4/22/2022 8:00:00 PM 8.82 47.876 0.064 7.07 12.91 11.15
4/22/2022 8:15:00 PM 8.7 47.66 0.063 7.06 14.08 11.16
4/22/2022 8:30:00 PM 8.57 47.426 0.063 7.05 14.57 11.19
4/22/2022 8:45:00 PM 8.44 47.192 0.063 7.04 15.72 11.21
4/22/2022 9:00:00 PM 8.31 46.958 0.064 7.03 15.65 11.24
4/22/2022 9:15:00 PM 8.18 46.724 0.064 7.03 15.54 11.28
4/22/2022 9:30:00 PM 8.06 46.508 0.065 7.02 14.73 11.31
4/22/2022 9:45:00 PM 7.94 46.292 0.065 7.02 14.13 11.34
4/22/2022 10:00:00 PM 7.82 46.076 0.065 7.02 14.65 11.37
4/22/2022 10:15:00 PM 7.71 45.878 0.065 7.01 13.59 11.4
4/22/2022 10:30:00 PM 7.61 45.698 0.065 7.01 13.43 11.43
4/22/2022 10:45:00 PM 7.5 45.5 0.065 7.01 12.85 11.47
4/22/2022 11:00:00 PM 7.4 45.32 0.066 7.01 12.71 11.49
4/22/2022 11:15:00 PM 7.3 45.14 0.066 7.01 12.33 11.52
4/22/2022 11:30:00 PM 7.21 44.978 0.066 7.01 11.52 11.55
4/22/2022 11:45:00 PM 7.11 44.798 0.066 7.01 11.54 11.58
4/23/2022 12:00:00 AM 7.02 44.636 0.066 7.01 11.44 11.6
4/23/2022 12:15:00 AM 6.93 44.474 0.066 7.01 11.03 11.63
4/23/2022 12:30:00 AM 6.84 44.312 0.066 7 10.74 11.66
4/23/2022 12:45:00 AM 6.75 44.15 0.066 7 10.52 11.68
4/23/2022 1:00:00 AM 6.66 43.988 0.066 7 10.4 11.71
4/23/2022 1:15:00 AM 6.58 43.844 0.066 7 9.77 11.73
4/23/2022 1:30:00 AM 6.5 43.7 0.066 7 10.17 11.76
4/23/2022 1:45:00 AM 6.42 43.556 0.066 7 10.02 11.78
4/23/2022 2:00:00 AM 6.36 43.448 0.067 7 9.42 11.8
4/23/2022 2:15:00 AM 6.29 43.322 0.067 7 9.29 11.82
4/23/2022 2:30:00 AM 6.24 43.232 0.067 6.99 9.7 11.84
4/23/2022 2:45:00 AM 6.18 43.124 0.067 7 9.18 11.85
4/23/2022 3:00:00 AM 6.12 43.016 0.067 6.99 9.05 11.86
4/23/2022 3:15:00 AM 6.08 42.944 0.067 7 9.4 11.88
4/23/2022 3:30:00 AM 6.05 42.89 0.067 7 9.22 11.89
4/23/2022 3:45:00 AM 6.02 42.836 0.067 6.99 8.71 11.9
4/23/2022 4:00:00 AM 5.99 42.782 0.067 7 8.58 11.91
4/23/2022 4:15:00 AM 5.96 42.728 0.067 6.99 8.66 11.92
4/23/2022 4:30:00 AM 5.94 42.692 0.067 6.99 8.29 11.92
4/23/2022 4:45:00 AM 5.93 42.674 0.067 6.99 8.18 11.93
4/23/2022 5:00:00 AM 5.91 42.638 0.067 6.99 8.53 11.94
4/23/2022 5:15:00 AM 5.9 42.62 0.067 6.99 7.9 11.94
4/23/2022 5:30:00 AM 5.89 42.602 0.067 7 8.31 11.95
4/23/2022 5:45:00 AM 5.88 42.584 0.067 6.99 7.83 11.95
4/23/2022 6:00:00 AM 5.87 42.566 0.067 7 8.02 11.95
4/23/2022 6:15:00 AM 5.86 42.548 0.068 7 7.37 11.96
4/23/2022 6:30:00 AM 5.86 42.548 0.068 7 7.43 11.96
4/23/2022 6:45:00 AM 5.86 42.548 0.068 7 7.8 11.98
4/23/2022 7:00:00 AM 5.87 42.566 0.068 7.01 7.38 12
4/23/2022 7:15:00 AM 5.88 42.584 0.068 7.02 7.24 12.02
4/23/2022 7:30:00 AM 5.89 42.602 0.068 7.02 7.18 12.05
4/23/2022 7:45:00 AM 5.92 42.656 0.067 7.03 7.05 12.08
4/23/2022 8:00:00 AM 5.95 42.71 0.067 7.04 6.97 12.1
4/23/2022 8:15:00 AM 5.99 42.782 0.067 7.05 6.96 12.13
4/23/2022 8:30:00 AM 6.03 42.854 0.067 7.06 7.23 12.13
4/23/2022 8:45:00 AM 6.06 42.908 0.067 7.07 6.9 12.12
4/23/2022 9:00:00 AM 6.11 42.998 0.067 7.08 6.95 12.13
4/23/2022 9:15:00 AM 6.15 43.07 0.067 7.08 6.28 12.13
4/23/2022 9:30:00 AM 6.19 43.142 0.067 7.09 6.22 12.13
4/23/2022 9:45:00 AM 6.28 43.304 0.067 7.1 6.17 12.14
4/23/2022 10:00:00 AM 6.37 43.466 0.067 7.11 6.55 12.14
4/23/2022 10:15:00 AM 6.51 43.718 0.067 7.12 6.54 12.14
4/23/2022 10:30:00 AM 6.64 43.952 0.067 7.13 6.54 12.12
4/23/2022 10:45:00 AM 6.85 44.33 0.067 7.14 7.34 12.09
4/23/2022 11:00:00 AM 7.04 44.672 0.066 7.15 6.69 12.05
4/23/2022 11:15:00 AM 7.23 45.014 0.066 7.16 6.33 12.01
4/23/2022 11:30:00 AM 7.4 45.32 0.066 7.16 6.25 11.96
4/23/2022 11:45:00 AM 7.61 45.698 0.066 7.17 6.28 11.91
4/23/2022 12:00:00 PM 7.75 45.95 0.066 7.17 6.71 11.86
4/23/2022 12:15:00 PM 7.87 46.166 0.066 7.18 6.53 11.81
4/23/2022 12:30:00 PM 8.12 46.616 0.066 7.18 6.62 11.78
4/23/2022 12:45:00 PM 8.47 47.246 0.066 7.19 6.73 11.72
4/23/2022 1:00:00 PM 8.86 47.948 0.065 7.2 7.35 11.65
4/23/2022 1:15:00 PM 9.17 48.506 0.065 7.2 7.15 11.57
4/23/2022 1:30:00 PM 9.43 48.974 0.065 7.21 6.86 11.5
4/23/2022 1:45:00 PM 9.63 49.334 0.065 7.21 6.61 11.45
4/23/2022 2:00:00 PM 9.84 49.712 0.065 7.22 6.65 11.4
4/23/2022 2:15:00 PM 9.9 49.82 0.066 7.22 6.19 11.34
4/23/2022 2:30:00 PM 9.92 49.856 0.066 7.22 6.42 11.29
4/23/2022 2:45:00 PM 9.91 49.838 0.066 7.22 6.46 11.27
4/23/2022 3:00:00 PM 9.97 49.946 0.066 7.22 6.4 11.25
4/23/2022 3:15:00 PM 10.05 50.09 0.066 7.23 7.23 11.22
4/23/2022 3:30:00 PM 10.12 50.216 0.066 7.22 6.56 11.18
4/23/2022 3:45:00 PM 10.14 50.252 0.066 7.21 6.6 11.11
4/23/2022 4:00:00 PM 10.13 50.234 0.066 7.21 6.37 11.08
4/23/2022 4:15:00 PM 10.12 50.216 0.066 7.2 6.49 11.08
4/23/2022 4:30:00 PM 10.09 50.162 0.066 7.2 6.67 11.09
4/23/2022 4:45:00 PM 10.06 50.108 0.066 7.2 6.66 11.08
4/23/2022 5:00:00 PM 10.03 50.054 0.066 7.19 6.66 11.06
4/23/2022 5:15:00 PM 10.02 50.036 0.066 7.19 6.43 11.06
4/23/2022 5:30:00 PM 10 50 0.066 7.19 6.47 11.06
4/23/2022 5:45:00 PM 9.99 49.982 0.067 7.19 6.71 11.07
4/23/2022 6:00:00 PM 10.01 50.018 0.067 7.2 6.37 11.09
4/23/2022 6:15:00 PM 9.98 49.964 0.067 7.2 6.72 11.09
4/23/2022 6:30:00 PM 9.93 49.874 0.067 7.19 6.69 11.06
4/23/2022 6:45:00 PM 9.87 49.766 0.067 7.18 6.53 11.03
4/23/2022 7:00:00 PM 9.82 49.676 0.067 7.16 6.82 10.98
4/23/2022 7:15:00 PM 9.76 49.568 0.067 7.14 6.76 10.95
4/23/2022 7:30:00 PM 9.71 49.478 0.067 7.13 6.77 10.91
4/23/2022 7:45:00 PM 9.66 49.388 0.067 7.11 7.01 10.88
4/23/2022 8:00:00 PM 9.61 49.298 0.067 7.09 7.42 10.85
4/23/2022 8:15:00 PM 9.54 49.172 0.067 7.08 6.93 10.84
4/23/2022 8:30:00 PM 9.48 49.064 0.067 7.06 7 10.84
4/23/2022 8:45:00 PM 9.42 48.956 0.067 7.06 6.78 10.84
4/23/2022 9:00:00 PM 9.37 48.866 0.067 7.05 7.16 10.85
4/23/2022 9:15:00 PM 9.31 48.758 0.068 7.05 7 10.86
4/23/2022 9:30:00 PM 9.24 48.632 0.068 7.04 6.93 10.87
4/23/2022 9:45:00 PM 9.17 48.506 0.068 7.04 6.79 10.88
4/23/2022 10:00:00 PM 9.11 48.398 0.068 7.03 6.69 10.9
4/23/2022 10:15:00 PM 9.04 48.272 0.068 7.03 6.92 10.91
4/23/2022 10:30:00 PM 8.97 48.146 0.068 7.03 7.05 10.93
4/23/2022 10:45:00 PM 8.9 48.02 0.068 7.02 7.42 10.95
4/23/2022 11:00:00 PM 8.84 47.912 0.068 7.02 7.26 10.97
4/23/2022 11:15:00 PM 8.78 47.804 0.068 7.03 6.92 10.98
4/23/2022 11:30:00 PM 8.71 47.678 0.069 7.02 6.91 11
4/23/2022 11:45:00 PM 8.64 47.552 0.069 7.02 6.72 11.02
4/24/2022 12:00:00 AM 8.58 47.444 0.069 7.02 6.57 11.04
4/24/2022 12:15:00 AM 8.51 47.318 0.069 7.01 6.54 11.05
4/24/2022 12:30:00 AM 8.44 47.192 0.069 7.01 6.74 11.07
4/24/2022 12:45:00 AM 8.37 47.066 0.069 7.02 6.63 11.08
4/24/2022 1:00:00 AM 8.31 46.958 0.069 7.01 6.4 11.1
4/24/2022 1:15:00 AM 8.24 46.832 0.069 7.01 6.77 11.12
4/24/2022 1:30:00 AM 8.17 46.706 0.069 7.01 6.44 11.13
4/24/2022 1:45:00 AM 8.1 46.58 0.069 7.01 6.46 11.15
4/24/2022 2:00:00 AM 8.03 46.454 0.069 7.01 6.88 11.17
4/24/2022 2:15:00 AM 7.96 46.328 0.069 7.01 6.79 11.19
4/24/2022 2:30:00 AM 7.89 46.202 0.069 7.01 6.04 11.21
4/24/2022 2:45:00 AM 7.83 46.094 0.07 7.01 6.25 11.23
4/24/2022 3:00:00 AM 7.76 45.968 0.07 7.01 6.32 11.24
4/24/2022 3:15:00 AM 7.7 45.86 0.07 7.01 6.07 11.26
4/24/2022 3:30:00 AM 7.64 45.752 0.07 7.01 6.26 11.27
4/24/2022 3:45:00 AM 7.58 45.644 0.07 7.01 6.19 11.29
4/24/2022 4:00:00 AM 7.52 45.536 0.07 7.01 5.95 11.31
4/24/2022 4:15:00 AM 7.46 45.428 0.07 7 5.92 11.32
4/24/2022 4:30:00 AM 7.4 45.32 0.07 7 5.96 11.34
4/24/2022 4:45:00 AM 7.35 45.23 0.07 7.01 5.43 11.35
4/24/2022 5:00:00 AM 7.3 45.14 0.07 7 6.05 11.37
4/24/2022 5:15:00 AM 7.25 45.05 0.07 7 6.12 11.38
4/24/2022 5:30:00 AM 7.21 44.978 0.07 7 5.61 11.39
4/24/2022 5:45:00 AM 7.17 44.906 0.07 7 5.53 11.41
4/24/2022 6:00:00 AM 7.13 44.834 0.071 7 6.22 11.42
4/24/2022 6:15:00 AM 7.09 44.762 0.071 7 5.49 11.43
4/24/2022 6:30:00 AM 7.06 44.708 0.071 7 5.13 11.45
4/24/2022 6:45:00 AM 7.03 44.654 0.071 7.01 5.52 11.49
4/24/2022 7:00:00 AM 7 44.6 0.071 7.02 5.65 11.53
4/24/2022 7:15:00 AM 6.99 44.582 0.071 7.03 5.61 11.59
4/24/2022 7:30:00 AM 7 44.6 0.071 7.05 5.32 11.64
4/24/2022 7:45:00 AM 7.03 44.654 0.071 7.06 4.97 11.7
4/24/2022 8:00:00 AM 7.06 44.708 0.071 7.08 5.11 11.74
4/24/2022 8:15:00 AM 7.11 44.798 0.071 7.09 5.11 11.77
4/24/2022 8:30:00 AM 7.16 44.888 0.071 7.1 5.01 11.78
4/24/2022 8:45:00 AM 7.25 45.05 0.071 7.12 4.93 11.79
4/24/2022 9:00:00 AM 7.36 45.248 0.071 7.14 4.92 11.8
4/24/2022 9:15:00 AM 7.5 45.5 0.071 7.15 4.92 11.81
4/24/2022 9:30:00 AM 7.59 45.662 0.071 7.17 4.56 11.8
4/24/2022 9:45:00 AM 7.71 45.878 0.071 7.18 4.58 11.78
4/24/2022 10:00:00 AM 7.87 46.166 0.071 7.2 4.74 11.76
4/24/2022 10:15:00 AM 8.02 46.436 0.071 7.2 4.59 11.74
4/24/2022 10:30:00 AM 8.15 46.67 0.07 7.21 5.11 11.71
4/24/2022 10:45:00 AM 8.32 46.976 0.07 7.22 4.49 11.68
4/24/2022 11:00:00 AM 8.49 47.282 0.07 7.23 4.6 11.66
4/24/2022 11:15:00 AM 8.77 47.786 0.07 7.23 4.46 11.62
4/24/2022 11:30:00 AM 9.07 48.326 0.07 7.24 4.46 11.57
4/24/2022 11:45:00 AM 9.39 48.902 0.07 7.25 4.51 11.51
4/24/2022 12:00:00 PM 9.71 49.478 0.07 7.25 4.54 11.45
4/24/2022 12:15:00 PM 10.02 50.036 0.07 7.26 4.51 11.38
4/24/2022 12:30:00 PM 10.33 50.594 0.07 7.27 4.5 11.31
4/24/2022 12:45:00 PM 10.65 51.17 0.07 7.27 4.46 11.24
4/24/2022 1:00:00 PM 10.97 51.746 0.07 7.28 4.65 11.18
4/24/2022 1:15:00 PM 11.3 52.34 0.07 7.29 4.34 11.1
4/24/2022 1:30:00 PM 11.62 52.916 0.07 7.3 4.49 11.03
4/24/2022 1:45:00 PM 11.94 53.492 0.07 7.31 4.29 10.96
4/24/2022 2:00:00 PM 12.22 53.996 0.07 7.31 4.38 10.9
4/24/2022 2:15:00 PM 12.5 54.5 0.07 7.32 4.51 10.83
4/24/2022 2:30:00 PM 12.76 54.968 0.07 7.33 4.61 10.77
4/24/2022 2:45:00 PM 13 55.4 0.071 7.33 4.63 10.7
4/24/2022 3:00:00 PM 13.23 55.814 0.071 7.34 4.72 10.65
4/24/2022 3:15:00 PM 13.42 56.156 0.071 7.34 4.6 10.6
4/24/2022 3:30:00 PM 13.58 56.444 0.071 7.35 4.65 10.55
4/24/2022 3:45:00 PM 13.71 56.678 0.071 7.35 4.63 10.5
4/24/2022 4:00:00 PM 13.8 56.84 0.071 7.34 4.83 10.46
4/24/2022 4:15:00 PM 13.88 56.984 0.071 7.34 4.7 10.43
4/24/2022 4:30:00 PM 13.94 57.092 0.071 7.34 4.61 10.4
4/24/2022 4:45:00 PM 13.94 57.092 0.071 7.33 4.82 10.36
4/24/2022 5:00:00 PM 13.93 57.074 0.071 7.33 4.62 10.33
4/24/2022 5:15:00 PM 13.88 56.984 0.071 7.32 5.08 10.3
4/24/2022 5:30:00 PM 13.83 56.894 0.071 7.31 4.76 10.29
4/24/2022 5:45:00 PM 13.8 56.84 0.071 7.31 4.91 10.28
4/24/2022 6:00:00 PM 13.74 56.732 0.071 7.31 5.04 10.27
4/24/2022 6:15:00 PM 13.66 56.588 0.071 7.3 4.82 10.25
4/24/2022 6:30:00 PM 13.56 56.408 0.072 7.28 4.82 10.23
4/24/2022 6:45:00 PM 13.44 56.192 0.072 7.26 4.86 10.19
4/24/2022 7:00:00 PM 13.31 55.958 0.072 7.24 5.06 10.14
4/24/2022 7:15:00 PM 13.17 55.706 0.072 7.21 5.14 10.1
4/24/2022 7:30:00 PM 13.04 55.472 0.072 7.19 4.95 10.05
4/24/2022 7:45:00 PM 12.9 55.22 0.073 7.16 5.01 10.01
4/24/2022 8:00:00 PM 12.77 54.986 0.073 7.14 5.22 9.98
4/24/2022 8:15:00 PM 12.64 54.752 0.073 7.13 5.25 9.96
4/24/2022 8:30:00 PM 12.52 54.536 0.073 7.11 5.53 9.96
4/24/2022 8:45:00 PM 12.39 54.302 0.073 7.1 5.18 9.97
4/24/2022 9:00:00 PM 12.27 54.086 0.073 7.09 5.17 9.98
4/24/2022 9:15:00 PM 12.15 53.87 0.073 7.08 5.17 10.01
4/24/2022 9:30:00 PM 12.03 53.654 0.073 7.08 5.22 10.03
4/24/2022 9:45:00 PM 11.92 53.456 0.073 7.08 5.27 10.05
4/24/2022 10:00:00 PM 11.81 53.258 0.073 7.08 5.44 10.08
4/24/2022 10:15:00 PM 11.71 53.078 0.073 7.07 5.12 10.1
4/24/2022 10:30:00 PM 11.6 52.88 0.073 7.07 5.19 10.13
4/24/2022 10:45:00 PM 11.5 52.7 0.073 7.08 5.23 10.15
4/24/2022 11:00:00 PM 11.41 52.538 0.073 7.07 5.37 10.17
4/24/2022 11:15:00 PM 11.32 52.376 0.073 7.07 5.36 10.19
4/24/2022 11:30:00 PM 11.24 52.232 0.073 7.07 5.13 10.21
4/24/2022 11:45:00 PM 11.15 52.07 0.073 7.07 5.56 10.23
4/25/2022 12:00:00 AM 11.07 51.926 0.073 7.07 5.34 10.26
4/25/2022 12:15:00 AM 10.99 51.782 0.073 7.07 5.24 10.27
4/25/2022 12:30:00 AM 10.91 51.638 0.073 7.07 5.19 10.3
4/25/2022 12:45:00 AM 10.83 51.494 0.073 7.07 5.44 10.32
4/25/2022 1:00:00 AM 10.75 51.35 0.073 7.07 5.14 10.34
4/25/2022 1:15:00 AM 10.68 51.224 0.073 7.07 5.24 10.36
4/25/2022 1:30:00 AM 10.6 51.08 0.073 7.07 5.43 10.38
4/25/2022 1:45:00 AM 10.53 50.954 0.073 7.07 5.24 10.4
4/25/2022 2:00:00 AM 10.46 50.828 0.073 7.07 5.02 10.41
4/25/2022 2:15:00 AM 10.39 50.702 0.073 7.07 5.17 10.43
4/25/2022 2:30:00 AM 10.32 50.576 0.073 7.07 5.21 10.45
4/25/2022 2:45:00 AM 10.24 50.432 0.073 7.07 5.4 10.46
4/25/2022 3:00:00 AM 10.17 50.306 0.073 7.07 5.23 10.48
4/25/2022 3:15:00 AM 10.09 50.162 0.073 7.07 5.04 10.5
4/25/2022 3:30:00 AM 10.02 50.036 0.073 7.07 5.27 10.52
4/25/2022 3:45:00 AM 9.95 49.91 0.073 7.07 5 10.54
4/25/2022 4:00:00 AM 9.88 49.784 0.073 7.07 5.32 10.55
4/25/2022 4:15:00 AM 9.81 49.658 0.073 7.07 5.12 10.57
4/25/2022 4:30:00 AM 9.74 49.532 0.073 7.07 5.28 10.59
4/25/2022 4:45:00 AM 9.68 49.424 0.074 7.07 4.83 10.61
4/25/2022 5:00:00 AM 9.61 49.298 0.074 7.07 5.05 10.63
4/25/2022 5:15:00 AM 9.55 49.19 0.074 7.07 4.94 10.65
4/25/2022 5:30:00 AM 9.48 49.064 0.074 7.06 5.11 10.67
4/25/2022 5:45:00 AM 9.42 48.956 0.074 7.06 5.07 10.68
4/25/2022 6:00:00 AM 9.35 48.83 0.074 7.06 5.09 10.71
4/25/2022 6:15:00 AM 9.29 48.722 0.074 7.06 4.77 10.73
4/25/2022 6:30:00 AM 9.24 48.632 0.074 7.07 4.67 10.76
4/25/2022 6:45:00 AM 9.18 48.524 0.074 7.08 5.01 10.81
4/25/2022 7:00:00 AM 9.14 48.452 0.074 7.09 4.91 10.87
4/25/2022 7:15:00 AM 9.1 48.38 0.075 7.1 4.7 10.95
4/25/2022 7:30:00 AM 9.08 48.344 0.074 7.12 4.55 11.03
4/25/2022 7:45:00 AM 9.05 48.29 0.075 7.14 4.87 11.11
4/25/2022 8:00:00 AM 9.05 48.29 0.075 7.16 4.69 11.16
4/25/2022 8:15:00 AM 9.05 48.29 0.075 7.18 4.61 11.22
4/25/2022 8:30:00 AM 9.09 48.362 0.075 7.19 4.31 11.27
4/25/2022 8:45:00 AM 9.15 48.47 0.075 7.21 4.46 11.32
4/25/2022 9:00:00 AM 9.22 48.596 0.074 7.23 4.39 11.36
4/25/2022 9:15:00 AM 9.29 48.722 0.075 7.24 4.36 11.38
4/25/2022 9:30:00 AM 9.39 48.902 0.075 7.26 4.46 11.39
4/25/2022 9:45:00 AM 9.49 49.082 0.075 7.27 4.4 11.39
4/25/2022 10:00:00 AM 9.62 49.316 0.075 7.28 4.24 11.39
4/25/2022 10:15:00 AM 9.75 49.55 0.075 7.29 4.26 11.38
4/25/2022 10:30:00 AM 9.87 49.766 0.075 7.3 4.2 11.36
4/25/2022 10:45:00 AM 10.02 50.036 0.075 7.31 4.22 11.34
4/25/2022 11:00:00 AM 10.21 50.378 0.075 7.32 4.18 11.31
4/25/2022 11:15:00 AM 10.42 50.756 0.075 7.32 4.29 11.27
4/25/2022 11:30:00 AM 10.65 51.17 0.075 7.33 4.3 11.24
4/25/2022 11:45:00 AM 10.91 51.638 0.075 7.34 4.25 11.2
4/25/2022 12:00:00 PM 11.19 52.142 0.075 7.35 4.3 11.15
4/25/2022 12:15:00 PM 11.47 52.646 0.075 7.36 4.25 11.11
4/25/2022 12:30:00 PM 11.76 53.168 0.075 7.37 4.07 11.06
4/25/2022 12:45:00 PM 12.05 53.69 0.075 7.38 4.1 11.01
4/25/2022 1:00:00 PM 12.33 54.194 0.075 7.38 4.12 10.95
4/25/2022 1:15:00 PM 12.62 54.716 0.075 7.4 4.14 10.91
4/25/2022 1:30:00 PM 12.89 55.202 0.075 7.4 4.13 10.85
4/25/2022 1:45:00 PM 13.16 55.688 0.075 7.41 4 10.8
4/25/2022 2:00:00 PM 13.41 56.138 0.075 7.42 4.13 10.74
4/25/2022 2:15:00 PM 13.66 56.588 0.075 7.43 4.03 10.69
4/25/2022 2:30:00 PM 13.89 57.002 0.075 7.43 4.18 10.63
4/25/2022 2:45:00 PM 14.08 57.344 0.075 7.44 4.14 10.59
4/25/2022 3:00:00 PM 14.25 57.65 0.075 7.45 4.25 10.54
4/25/2022 3:15:00 PM 14.42 57.956 0.075 7.45 4.32 10.5
4/25/2022 3:30:00 PM 14.57 58.226 0.075 7.45 4.36 10.46
4/25/2022 3:45:00 PM 14.69 58.442 0.075 7.45 4.3 10.42
4/25/2022 4:00:00 PM 14.78 58.604 0.075 7.45 4.26 10.39
4/25/2022 4:15:00 PM 14.82 58.676 0.075 7.45 4.05 10.36
4/25/2022 4:30:00 PM 14.84 58.712 0.075 7.45 4.43 10.33
4/25/2022 4:45:00 PM 14.85 58.73 0.075 7.44 4.13 10.3
4/25/2022 5:00:00 PM 14.83 58.694 0.075 7.43 4.37 10.28
4/25/2022 5:15:00 PM 14.77 58.586 0.075 7.42 4.41 10.25
4/25/2022 5:30:00 PM 14.7 58.46 0.075 7.41 4.35 10.24
4/25/2022 5:45:00 PM 14.62 58.316 0.075 7.41 4.25 10.22
4/25/2022 6:00:00 PM 14.52 58.136 0.076 7.39 4.32 10.2
4/25/2022 6:15:00 PM 14.4 57.92 0.076 7.38 4.16 10.18
4/25/2022 6:30:00 PM 14.27 57.686 0.076 7.36 4.48 10.16
4/25/2022 6:45:00 PM 14.1 57.38 0.076 7.33 4.18 10.12
4/25/2022 7:00:00 PM 13.9 57.02 0.076 7.3 4.26 10.03
4/25/2022 7:15:00 PM 13.72 56.696 0.076 7.26 4.43 9.95
4/25/2022 7:30:00 PM 13.55 56.39 0.076 7.23 4.54 9.91
4/25/2022 7:45:00 PM 13.37 56.066 0.077 7.2 4.51 9.88
4/25/2022 8:00:00 PM 13.21 55.778 0.077 7.18 4.5 9.84
4/25/2022 8:15:00 PM 13.05 55.49 0.077 7.16 4.73 9.82
4/25/2022 8:30:00 PM 12.91 55.238 0.077 7.15 4.79 9.81
4/25/2022 8:45:00 PM 12.75 54.95 0.077 7.14 4.57 9.82
4/25/2022 9:00:00 PM 12.61 54.698 0.077 7.13 4.82 9.83
4/25/2022 9:15:00 PM 12.46 54.428 0.078 7.12 5.03 9.85
4/25/2022 9:30:00 PM 12.32 54.176 0.078 7.11 5.21 9.88
4/25/2022 9:45:00 PM 12.19 53.942 0.078 7.11 5.03 9.91
4/25/2022 10:00:00 PM 12.07 53.726 0.079 7.11 5.13 9.93
4/25/2022 10:15:00 PM 11.97 53.546 0.079 7.1 5.13 9.96
4/25/2022 10:30:00 PM 11.87 53.366 0.079 7.1 5.07 9.99
4/25/2022 10:45:00 PM 11.77 53.186 0.079 7.1 4.9 10.01
4/25/2022 11:00:00 PM 11.69 53.042 0.079 7.1 4.94 10.03
4/25/2022 11:15:00 PM 11.61 52.898 0.078 7.1 4.84 10.05
4/25/2022 11:30:00 PM 11.53 52.754 0.078 7.1 5.18 10.07
4/25/2022 11:45:00 PM 11.46 52.628 0.078 7.1 4.87 10.09
4/26/2022 12:00:00 AM 11.39 52.502 0.077 7.09 4.78 10.11
4/26/2022 12:15:00 AM 11.33 52.394 0.077 7.09 5.15 10.12
4/26/2022 12:30:00 AM 11.26 52.268 0.077 7.09 4.79 10.14
4/26/2022 12:45:00 AM 11.2 52.16 0.077 7.09 4.81 10.16
4/26/2022 1:00:00 AM 11.14 52.052 0.077 7.09 4.85 10.17
4/26/2022 1:15:00 AM 11.09 51.962 0.077 7.09 4.79 10.18
4/26/2022 1:30:00 AM 11.04 51.872 0.076 7.09 4.55 10.2
4/26/2022 1:45:00 AM 10.99 51.782 0.076 7.09 4.75 10.21
4/26/2022 2:00:00 AM 10.95 51.71 0.076 7.09 4.85 10.22
4/26/2022 2:15:00 AM 10.9 51.62 0.076 7.09 4.83 10.23
4/26/2022 2:30:00 AM 10.86 51.548 0.076 7.08 4.85 10.25
4/26/2022 2:45:00 AM 10.81 51.458 0.076 7.08 4.9 10.25
4/26/2022 3:00:00 AM 10.78 51.404 0.076 7.08 4.51 10.26
4/26/2022 3:15:00 AM 10.74 51.332 0.076 7.08 66.35 10.27
4/26/2022 3:30:00 AM 10.7 51.26 0.076 7.09 5.97 10.28
4/26/2022 3:45:00 AM 10.66 51.188 0.076 7.08 4.53 10.29
4/26/2022 4:00:00 AM 10.62 51.116 0.076 7.08 4.79 10.3
4/26/2022 4:15:00 AM 10.59 51.062 0.076 7.08 4.55 10.31
4/26/2022 4:30:00 AM 10.56 51.008 0.076 7.08 6.01 10.32
4/26/2022 4:45:00 AM 10.52 50.936 0.076 7.08 4.18 10.33
4/26/2022 5:00:00 AM 10.49 50.882 0.076 7.08 4.28 10.33
4/26/2022 5:15:00 AM 10.46 50.828 0.076 7.08 4.38 10.34
4/26/2022 5:30:00 AM 10.43 50.774 0.075 7.08 4.44 10.35
4/26/2022 5:45:00 AM 10.4 50.72 0.075 7.08 4.37 10.36
4/26/2022 6:00:00 AM 10.38 50.684 0.075 7.08 4.19 10.36
4/26/2022 6:15:00 AM 10.35 50.63 0.075 7.08 4.13 10.37
4/26/2022 6:30:00 AM 10.33 50.594 0.075 7.08 4.31 10.38
4/26/2022 6:45:00 AM 10.31 50.558 0.075 7.08 4.25 10.41
4/26/2022 7:00:00 AM 10.29 50.522 0.075 7.09 4.17 10.43
4/26/2022 7:15:00 AM 10.27 50.486 0.075 7.09 4.02 10.45
4/26/2022 7:30:00 AM 10.26 50.468 0.075 7.09 3.91 10.48
4/26/2022 7:45:00 AM 10.25 50.45 0.075 7.1 4.12 10.52
4/26/2022 8:00:00 AM 10.24 50.432 0.075 7.11 4.07 10.57
4/26/2022 8:15:00 AM 10.23 50.414 0.075 7.12 4.09 10.62
4/26/2022 8:30:00 AM 10.23 50.414 0.075 7.14 3.85 10.68
4/26/2022 8:45:00 AM 10.23 50.414 0.075 7.15 4.07 10.72
4/26/2022 9:00:00 AM 10.24 50.432 0.075 7.16 4.09 10.79
4/26/2022 9:15:00 AM 10.27 50.486 0.074 7.19 3.99 10.88
4/26/2022 9:30:00 AM 10.28 50.504 0.074 7.2 3.95 10.91
4/26/2022 9:45:00 AM 10.29 50.522 0.074 7.21 4.25 10.92
4/26/2022 10:00:00 AM 10.3 50.54 0.074 7.21 4.01 10.91
4/26/2022 10:15:00 AM 10.32 50.576 0.074 7.22 4 10.94
4/26/2022 10:30:00 AM 10.39 50.702 0.074 7.25 4 11.02
4/26/2022 10:45:00 AM 10.43 50.774 0.074 7.27 4.17 11.07
4/26/2022 11:00:00 AM 10.47 50.846 0.074 7.29 4.25 11.08
4/26/2022 11:15:00 AM 10.5 50.9 0.074 7.29 4.15 11.08
4/26/2022 11:30:00 AM 10.53 50.954 0.074 7.31 4.27 11.09
4/26/2022 11:45:00 AM 10.58 51.044 0.074 7.32 4.04 11.1
4/26/2022 12:00:00 PM 10.63 51.134 0.074 7.33 3.94 11.1
4/26/2022 12:15:00 PM 10.65 51.17 0.074 7.33 4.02 11.06
4/26/2022 12:30:00 PM 10.68 51.224 0.074 7.33 4.1 11.04
4/26/2022 12:45:00 PM 10.7 51.26 0.074 7.33 4.04 11.03
4/26/2022 1:00:00 PM 10.72 51.296 0.074 7.32 4 11
4/26/2022 1:15:00 PM 10.75 51.35 0.074 7.32 4.07 10.99
4/26/2022 1:30:00 PM 10.8 51.44 0.074 7.33 4.03 11.01
4/26/2022 1:45:00 PM 10.84 51.512 0.073 7.34 4.05 11.02
4/26/2022 2:00:00 PM 10.86 51.548 0.073 7.34 4.07 11
4/26/2022 2:15:00 PM 10.9 51.62 0.073 7.35 4.06 11
4/26/2022 2:30:00 PM 10.91 51.638 0.073 7.34 4.17 10.98
4/26/2022 2:45:00 PM 10.91 51.638 0.073 7.33 4.13 10.94
4/26/2022 3:00:00 PM 10.91 51.638 0.073 7.32 4.13 10.89
4/26/2022 3:15:00 PM 10.93 51.674 0.073 7.31 4.23 10.88
4/26/2022 3:30:00 PM 10.94 51.692 0.073 7.3 4.06 10.85
4/26/2022 3:45:00 PM 10.96 51.728 0.074 7.3 4.21 10.83
4/26/2022 4:00:00 PM 10.99 51.782 0.074 7.3 4.14 10.83
4/26/2022 4:15:00 PM 10.99 51.782 0.074 7.29 4.12 10.8
4/26/2022 4:30:00 PM 10.98 51.764 0.074 7.28 4.01 10.75
4/26/2022 4:45:00 PM 10.97 51.746 0.074 7.27 3.9 10.75
4/26/2022 5:00:00 PM 10.96 51.728 0.074 7.26 4.01 10.71
4/26/2022 5:15:00 PM 10.95 51.71 0.074 7.25 3.84 10.68
4/26/2022 5:30:00 PM 10.93 51.674 0.074 7.24 3.99 10.66
4/26/2022 5:45:00 PM 10.92 51.656 0.074 7.23 4.2 10.66
4/26/2022 6:00:00 PM 10.9 51.62 0.074 7.22 4.13 10.64
4/26/2022 6:15:00 PM 10.88 51.584 0.074 7.22 4 10.64
4/26/2022 6:30:00 PM 10.87 51.566 0.074 7.22 3.99 10.64
4/26/2022 6:45:00 PM 10.83 51.494 0.074 7.2 4.23 10.56
4/26/2022 7:00:00 PM 10.8 51.44 0.074 7.18 4.32 10.49
4/26/2022 7:15:00 PM 10.76 51.368 0.074 7.16 4.49 10.43
4/26/2022 7:30:00 PM 10.7 51.26 0.074 7.14 4.7 10.39
4/26/2022 7:45:00 PM 10.66 51.188 0.074 7.13 6.96 10.37
4/26/2022 8:00:00 PM 10.61 51.098 0.074 7.12 7.81 10.35
4/26/2022 8:15:00 PM 10.55 50.99 0.074 7.11 9.64 10.35
4/26/2022 8:30:00 PM 10.5 50.9 0.074 7.11 11.93 10.35
4/26/2022 8:45:00 PM 10.45 50.81 0.074 7.11 10.01 10.36
4/26/2022 9:00:00 PM 10.39 50.702 0.074 7.11 10.53 10.38
4/26/2022 9:15:00 PM 10.32 50.576 0.074 7.11 11.27 10.4
4/26/2022 9:30:00 PM 10.26 50.468 0.074 7.11 11.59 10.42
4/26/2022 9:45:00 PM 10.2 50.36 0.074 7.12 10.15 10.44
4/26/2022 10:00:00 PM 10.13 50.234 0.074 7.12 11.23 10.47
4/26/2022 10:15:00 PM 10.06 50.108 0.073 7.11 13.52 10.49
4/26/2022 10:30:00 PM 10 50 0.073 7.12 21.27 10.51
4/26/2022 10:45:00 PM 9.94 49.892 0.073 7.12 23.72 10.53
4/26/2022 11:00:00 PM 9.88 49.784 0.073 7.11 22.6 10.55
4/26/2022 11:15:00 PM 9.82 49.676 0.073 7.11 17.7 10.57
4/26/2022 11:30:00 PM 9.76 49.568 0.073 7.11 15.42 10.58
4/26/2022 11:45:00 PM 9.7 49.46 0.073 7.11 12.67 10.6
4/27/2022 12:00:00 AM 9.64 49.352 0.073 7.11 11.76 10.62
4/27/2022 12:15:00 AM 9.58 49.244 0.073 7.11 11.27 10.63
4/27/2022 12:30:00 AM 9.51 49.118 0.073 7.11 10.42 10.64
4/27/2022 12:45:00 AM 9.43 48.974 0.073 7.11 9.4 10.66
4/27/2022 1:00:00 AM 9.36 48.848 0.073 7.11 8.95 10.67
4/27/2022 1:15:00 AM 9.29 48.722 0.073 7.11 8.47 10.69
4/27/2022 1:30:00 AM 9.21 48.578 0.073 7.11 8.16 10.71
4/27/2022 1:45:00 AM 9.12 48.416 0.073 7.1 7.49 10.72
4/27/2022 2:00:00 AM 9.04 48.272 0.073 7.1 7.37 10.74
4/27/2022 2:15:00 AM 8.94 48.092 0.073 7.09 7.07 10.76
4/27/2022 2:30:00 AM 8.86 47.948 0.073 7.09 7.35 10.78
4/27/2022 2:45:00 AM 8.77 47.786 0.073 7.08 6.6 10.79
4/27/2022 3:00:00 AM 8.68 47.624 0.074 7.08 6.27 10.82
4/27/2022 3:15:00 AM 8.59 47.462 0.074 7.08 6.04 10.84
4/27/2022 3:30:00 AM 8.51 47.318 0.074 7.07 6.24 10.86
4/27/2022 3:45:00 AM 8.42 47.156 0.074 7.04 5.83 10.88
4/27/2022 4:00:00 AM 8.32 46.976 0.074 7 5.69 10.91
4/27/2022 4:15:00 AM 8.23 46.814 0.074 7.03 5.65 10.93
4/27/2022 4:30:00 AM 8.14 46.652 0.074 7.04 5.51 10.95
4/27/2022 4:45:00 AM 8.06 46.508 0.075 7.05 5.12 10.98
4/27/2022 5:00:00 AM 7.99 46.382 0.075 7.04 5.35 11
4/27/2022 5:15:00 AM 7.91 46.238 0.075 7.05 5.01 11.02
4/27/2022 5:30:00 AM 7.83 46.094 0.075 7.05 5.04 11.04
4/27/2022 5:45:00 AM 7.75 45.95 0.075 7.05 5.12 11.06
4/27/2022 6:00:00 AM 7.67 45.806 0.075 7.05 4.84 11.08
4/27/2022 6:15:00 AM 7.6 45.68 0.075 7.05 4.55 11.11
4/27/2022 6:30:00 AM 7.54 45.572 0.075 7.06 4.53 11.15
4/27/2022 6:45:00 AM 7.46 45.428 0.076 7.07 4.51 11.21
4/27/2022 7:00:00 AM 7.4 45.32 0.076 7.08 4.47 11.27
4/27/2022 7:15:00 AM 7.38 45.284 0.076 7.1 4.44 11.36
4/27/2022 7:30:00 AM 7.36 45.248 0.076 7.13 4.36 11.47
4/27/2022 7:45:00 AM 7.34 45.212 0.076 7.15 4.4 11.55
4/27/2022 8:00:00 AM 7.32 45.176 0.076 7.17 4.51 11.6
4/27/2022 8:15:00 AM 7.32 45.176 0.076 7.19 4.44 11.65
4/27/2022 8:30:00 AM 7.31 45.158 0.075 7.21 4.36 11.7
4/27/2022 8:45:00 AM 7.37 45.266 0.075 7.23 4.38 11.77
4/27/2022 9:00:00 AM 7.43 45.374 0.075 7.25 3.98 11.81
4/27/2022 9:15:00 AM 7.5 45.5 0.075 7.27 4.23 11.84
4/27/2022 9:30:00 AM 7.53 45.554 0.075 7.28 4.09 11.85
4/27/2022 9:45:00 AM 7.55 45.59 0.075 7.3 4.08 11.88
4/27/2022 10:00:00 AM 7.6 45.68 0.075 7.31 4.17 11.9
4/27/2022 10:15:00 AM 7.62 45.716 0.075 7.33 3.73 11.91
4/27/2022 10:30:00 AM 7.72 45.896 0.075 7.35 3.94 11.92
4/27/2022 10:45:00 AM 7.81 46.058 0.075 7.35 3.81 11.91
4/27/2022 11:00:00 AM 7.92 46.256 0.075 7.37 3.86 11.91
4/27/2022 11:15:00 AM 8.06 46.508 0.075 7.38 3.77 11.9
4/27/2022 11:30:00 AM 8.16 46.688 0.075 7.39 3.88 11.88
4/27/2022 11:45:00 AM 8.3 46.94 0.075 7.4 3.77 11.87
4/27/2022 12:00:00 PM 8.39 47.102 0.075 7.4 3.75 11.85
4/27/2022 12:15:00 PM 8.4 47.12 0.075 7.4 3.59 11.81
4/27/2022 12:30:00 PM 8.43 47.174 0.075 7.4 3.62 11.78
4/27/2022 12:45:00 PM 8.5 47.3 0.075 7.41 3.7 11.77
4/27/2022 1:00:00 PM 8.51 47.318 0.075 7.4 3.73 11.76
4/27/2022 1:15:00 PM 8.46 47.228 0.075 7.4 3.73 11.76
4/27/2022 1:30:00 PM 8.47 47.246 0.075 7.41 3.69 11.79
4/27/2022 1:45:00 PM 8.45 47.21 0.075 7.42 3.71 11.81
4/27/2022 2:00:00 PM 8.56 47.408 0.075 7.44 3.65 11.83
4/27/2022 2:15:00 PM 8.93 48.074 0.075 7.45 3.7 11.82
4/27/2022 2:30:00 PM 9.12 48.416 0.075 7.45 3.6 11.77
4/27/2022 2:45:00 PM 9.25 48.65 0.075 7.45 3.66 11.7
4/27/2022 3:00:00 PM 9.17 48.506 0.075 7.43 3.53 11.62
4/27/2022 3:15:00 PM 9.06 48.308 0.075 7.41 3.79 11.57
4/27/2022 3:30:00 PM 9 48.2 0.075 7.41 3.67 11.59
4/27/2022 3:45:00 PM 8.95 48.11 0.075 7.41 3.79 11.59
4/27/2022 4:00:00 PM 8.82 47.876 0.075 7.4 3.64 11.56
4/27/2022 4:15:00 PM 8.71 47.678 0.075 7.37 3.81 11.51
4/27/2022 4:30:00 PM 8.66 47.588 0.075 7.36 3.6 11.51
4/27/2022 4:45:00 PM 8.59 47.462 0.075 7.35 3.94 11.51
4/27/2022 5:00:00 PM 8.51 47.318 0.075 7.34 4.19 11.52
4/27/2022 5:15:00 PM 8.45 47.21 0.075 7.34 4.07 11.54
4/27/2022 5:30:00 PM 8.4 47.12 0.075 7.34 4.2 11.55
4/27/2022 5:45:00 PM 8.33 46.994 0.076 7.32 4.18 11.5
4/27/2022 6:00:00 PM 8.25 46.85 0.076 7.29 4.19 11.45
4/27/2022 6:15:00 PM 8.16 46.688 0.076 7.27 4.08 11.42
4/27/2022 6:30:00 PM 8.06 46.508 0.076 7.26 4.04 11.41
4/27/2022 6:45:00 PM 7.95 46.31 0.076 7.24 4.11 11.39
4/27/2022 7:00:00 PM 7.85 46.13 0.076 7.22 4.06 11.33
4/27/2022 7:15:00 PM 7.77 45.986 0.076 7.2 4.17 11.3
4/27/2022 7:30:00 PM 7.67 45.806 0.076 7.19 4.17 11.3
4/27/2022 7:45:00 PM 7.58 45.644 0.077 7.17 4.16 11.28
4/27/2022 8:00:00 PM 7.48 45.464 0.077 7.16 4.03 11.26
4/27/2022 8:15:00 PM 7.38 45.284 0.077 7.14 4.72 11.26
4/27/2022 8:30:00 PM 7.28 45.104 0.077 7.13 4.21 11.26
4/27/2022 8:45:00 PM 7.18 44.924 0.077 7.13 4.07 11.26
4/27/2022 9:00:00 PM 7.11 44.798 0.077 7.12 3.71 11.28
4/27/2022 9:15:00 PM 7.02 44.636 0.077 7.11 4.17 11.3
4/27/2022 9:30:00 PM 6.94 44.492 0.077 7.11 3.99 11.32
4/27/2022 9:45:00 PM 6.86 44.348 0.077 7.05 4.09 11.34
4/27/2022 10:00:00 PM 6.8 44.24 0.077 7.07 3.97 11.36
4/27/2022 10:15:00 PM 6.73 44.114 0.077 7.07 4.02 11.39
4/27/2022 10:30:00 PM 6.65 43.97 0.077 7.07 4.61 11.41
4/27/2022 10:45:00 PM 6.58 43.844 0.077 7.07 4.14 11.43
4/27/2022 11:00:00 PM 6.51 43.718 0.077 7.07 3.99 11.45
4/27/2022 11:15:00 PM 6.45 43.61 0.077 7.07 4.03 11.47
4/27/2022 11:30:00 PM 6.39 43.502 0.078 7.07 4.16 11.49
4/27/2022 11:45:00 PM 6.33 43.394 0.078 7.07 4.06 11.51
4/28/2022 12:00:00 AM 6.27 43.286 0.078 7.07 4.12 11.52
4/28/2022 12:15:00 AM 6.21 43.178 0.078 7.07 3.99 11.54
4/28/2022 12:30:00 AM 6.15 43.07 0.078 7.07 3.79 11.56
4/28/2022 12:45:00 AM 6.09 42.962 0.078 7.07 3.67 11.57
4/28/2022 1:00:00 AM 6.04 42.872 0.078 7.07 3.76 11.59
4/28/2022 1:15:00 AM 5.98 42.764 0.078 7.07 4.61 11.6
4/28/2022 1:30:00 AM 5.92 42.656 0.078 7.07 3.71 11.63
4/28/2022 1:45:00 AM 5.87 42.566 0.078 7.07 3.78 11.64
4/28/2022 2:00:00 AM 5.82 42.476 0.078 7.07 3.63 11.66
4/28/2022 2:15:00 AM 5.77 42.386 0.078 7.07 3.71 11.67
4/28/2022 2:30:00 AM 5.71 42.278 0.078 7.07 3.64 11.69
4/28/2022 2:45:00 AM 5.67 42.206 0.078 7.07 3.46 11.7
4/28/2022 3:00:00 AM 5.62 42.116 0.079 7.07 3.64 11.72
4/28/2022 3:15:00 AM 5.57 42.026 0.079 7.07 3.62 11.73
4/28/2022 3:30:00 AM 5.53 41.954 0.079 7.07 3.46 11.75
4/28/2022 3:45:00 AM 5.49 41.882 0.079 7.07 3.65 11.76
4/28/2022 4:00:00 AM 5.44 41.792 0.079 7.07 3.4 11.77
4/28/2022 4:15:00 AM 5.4 41.72 0.079 7.07 3.37 11.79
4/28/2022 4:30:00 AM 5.36 41.648 0.079 7.07 3.48 11.8
4/28/2022 4:45:00 AM 5.33 41.594 0.079 7.07 3.48 11.81
4/28/2022 5:00:00 AM 5.29 41.522 0.079 7.07 3.51 11.83
4/28/2022 5:15:00 AM 5.26 41.468 0.079 7.07 3.39 11.83
4/28/2022 5:30:00 AM 5.23 41.414 0.079 7.07 3.44 11.84
4/28/2022 5:45:00 AM 5.2 41.36 0.079 7.07 3.37 11.86
4/28/2022 6:00:00 AM 5.17 41.306 0.079 7.07 3.39 11.87
4/28/2022 6:15:00 AM 5.13 41.234 0.079 7.07 3.25 11.89
4/28/2022 6:30:00 AM 5.11 41.198 0.079 7.07 3.24 11.91
4/28/2022 6:45:00 AM 5.08 41.144 0.079 7.08 4 11.93
4/28/2022 7:00:00 AM 5.05 41.09 0.079 7.09 4.14 12
4/28/2022 7:15:00 AM 5.01 41.018 0.079 7.1 4.12 12.08
4/28/2022 7:30:00 AM 5 41 0.079 7.12 3.62 12.18
4/28/2022 7:45:00 AM 4.98 40.964 0.079 7.14 8.08 12.28
4/28/2022 8:00:00 AM 4.97 40.946 0.079 7.16 3.79 12.36
4/28/2022 8:15:00 AM 4.95 40.91 0.079 7.18 3.39 12.41
4/28/2022 8:30:00 AM 4.96 40.928 0.079 7.19 3.2 12.46
4/28/2022 8:45:00 AM 4.93 40.874 0.078 7.2 3.36 12.48
4/28/2022 9:00:00 AM 4.94 40.892 0.078 7.21 3.39 12.51
4/28/2022 9:15:00 AM 5 41 0.078 7.22 4.23 12.54
4/28/2022 9:30:00 AM 5.07 41.126 0.078 7.23 3.37 12.56
4/28/2022 9:45:00 AM 5.17 41.306 0.078 7.24 3.11 12.58
4/28/2022 10:00:00 AM 5.31 41.558 0.078 7.26 3.11 12.58
4/28/2022 10:15:00 AM 5.47 41.846 0.078 7.27 3.21 12.57
4/28/2022 10:30:00 AM 5.64 42.152 0.078 7.28 3.12 12.56
4/28/2022 10:45:00 AM 5.87 42.566 0.078 7.29 3.05 12.53
4/28/2022 11:00:00 AM 6.11 42.998 0.078 7.3 3.15 12.5
4/28/2022 11:15:00 AM 6.36 43.448 0.078 7.31 3.06 12.45
4/28/2022 11:30:00 AM 6.62 43.916 0.078 7.32 3.08 12.41
4/28/2022 11:45:00 AM 6.89 44.402 0.077 7.33 2.96 12.36
4/28/2022 12:00:00 PM 7.2 44.96 0.077 7.35 3 12.3
4/28/2022 12:15:00 PM 7.53 45.554 0.077 7.36 3.05 12.24
4/28/2022 12:30:00 PM 7.86 46.148 0.077 7.36 2.94 12.18
4/28/2022 12:45:00 PM 8.18 46.724 0.077 7.38 2.93 12.12
4/28/2022 1:00:00 PM 8.51 47.318 0.077 7.39 2.92 12.05
4/28/2022 1:15:00 PM 8.82 47.876 0.077 7.4 2.87 11.98
4/28/2022 1:30:00 PM 9.11 48.398 0.077 7.4 3 11.92
4/28/2022 1:45:00 PM 9.38 48.884 0.077 7.42 2.88 11.86
4/28/2022 2:00:00 PM 9.63 49.334 0.077 7.43 2.86 11.8
4/28/2022 2:15:00 PM 9.86 49.748 0.077 7.44 3.07 11.74
4/28/2022 2:30:00 PM 10.1 50.18 0.077 7.45 2.93 11.68
4/28/2022 2:45:00 PM 10.3 50.54 0.077 7.45 2.89 11.63
4/28/2022 3:00:00 PM 10.47 50.846 0.077 7.46 2.97 11.58
4/28/2022 3:15:00 PM 10.62 51.116 0.077 7.47 3.06 11.54
4/28/2022 3:30:00 PM 10.75 51.35 0.077 7.48 2.97 11.49
4/28/2022 3:45:00 PM 10.83 51.494 0.077 7.48 3.07 11.45
4/28/2022 4:00:00 PM 10.87 51.566 0.077 7.48 3.08 11.42
4/28/2022 4:15:00 PM 10.89 51.602 0.077 7.48 3.06 11.4
4/28/2022 4:30:00 PM 10.89 51.602 0.077 7.48 2.96 11.37
4/28/2022 4:45:00 PM 10.85 51.53 0.077 7.47 3.15 11.36
4/28/2022 5:00:00 PM 10.79 51.422 0.077 7.47 3.11 11.34
4/28/2022 5:15:00 PM 10.7 51.26 0.077 7.46 3.04 11.33
4/28/2022 5:30:00 PM 10.57 51.026 0.077 7.46 3.13 11.32
4/28/2022 5:45:00 PM 10.4 50.72 0.077 7.45 3.19 11.32
4/28/2022 6:00:00 PM 10.24 50.432 0.077 7.44 3.25 11.32
4/28/2022 6:15:00 PM 10.05 50.09 0.077 7.42 3.12 11.32
4/28/2022 6:30:00 PM 9.83 49.694 0.077 7.41 3.21 11.31
4/28/2022 6:45:00 PM 9.62 49.316 0.078 7.38 3.16 11.28
4/28/2022 7:00:00 PM 9.38 48.884 0.078 7.36 3.07 11.26
4/28/2022 7:15:00 PM 9.14 48.452 0.078 7.33 3.26 11.21
4/28/2022 7:30:00 PM 8.91 48.038 0.078 7.29 3.49 11.17
4/28/2022 7:45:00 PM 8.71 47.678 0.078 7.26 3.22 11.12
4/28/2022 8:00:00 PM 8.53 47.354 0.078 7.23 3.14 11.08
4/28/2022 8:15:00 PM 8.36 47.048 0.079 7.2 3.28 11.05
4/28/2022 8:30:00 PM 8.22 46.796 0.079 7.18 3.41 11.02
4/28/2022 8:45:00 PM 8.07 46.526 0.079 7.16 3.56 11.01
4/28/2022 9:00:00 PM 7.94 46.292 0.079 7.14 3.32 11.01
4/28/2022 9:15:00 PM 7.8 46.04 0.079 7.13 3.26 11.03
4/28/2022 9:30:00 PM 7.67 45.806 0.079 7.12 3.54 11.06
4/28/2022 9:45:00 PM 7.54 45.572 0.079 7.11 3.33 11.09
4/28/2022 10:00:00 PM 7.4 45.32 0.079 7.1 3.78 11.12
4/28/2022 10:15:00 PM 7.26 45.068 0.08 7.1 3.4 11.16
4/28/2022 10:30:00 PM 7.12 44.816 0.08 7.09 3.21 11.2
4/28/2022 10:45:00 PM 6.98 44.564 0.08 7.09 3.34 11.24
4/28/2022 11:00:00 PM 6.85 44.33 0.08 7.08 5.53 11.27
4/28/2022 11:15:00 PM 6.71 44.078 0.08 7.08 5.16 11.31
4/28/2022 11:30:00 PM 6.58 43.844 0.08 7.08 3.58 11.36
4/28/2022 11:45:00 PM 6.47 43.646 0.08 7.08 3.34 11.39
4/29/2022 12:00:00 AM 6.35 43.43 0.08 7.08 3.23 11.43
4/29/2022 12:15:00 AM 6.24 43.232 0.08 7.08 3.3 11.46
4/29/2022 12:30:00 AM 6.14 43.052 0.08 7.08 3.21 11.5
4/29/2022 12:45:00 AM 6.06 42.908 0.08 7.08 3.32 11.53
4/29/2022 1:00:00 AM 5.97 42.746 0.081 7.07 3.39 11.56
4/29/2022 1:15:00 AM 5.88 42.584 0.081 7.07 3.38 11.59
4/29/2022 1:30:00 AM 5.79 42.422 0.081 7.07 3.41 11.62
4/29/2022 1:45:00 AM 5.7 42.26 0.081 7.05 3.35 11.65
4/29/2022 2:00:00 AM 5.61 42.098 0.081 7.03 3.28 11.67
4/29/2022 2:15:00 AM 5.52 41.936 0.081 7.02 3.31 11.7
4/29/2022 2:30:00 AM 5.43 41.774 0.081 7.03 3.15 11.73
4/29/2022 2:45:00 AM 5.36 41.648 0.081 7.03 3.14 11.76
4/29/2022 3:00:00 AM 5.29 41.522 0.081 7.04 3.14 11.78
4/29/2022 3:15:00 AM 5.22 41.396 0.081 7.04 3.02 11.8
4/29/2022 3:30:00 AM 5.15 41.27 0.081 7.04 3.05 11.83
4/29/2022 3:45:00 AM 5.07 41.126 0.081 7.04 3.02 11.85
4/29/2022 4:00:00 AM 5.01 41.018 0.081 7.04 2.95 11.87
4/29/2022 4:15:00 AM 4.94 40.892 0.081 7.04 2.98 11.9
4/29/2022 4:30:00 AM 4.88 40.784 0.081 7.05 3.11 11.92
4/29/2022 4:45:00 AM 4.82 40.676 0.081 7.05 2.99 11.94
4/29/2022 5:00:00 AM 4.76 40.568 0.081 7.04 2.85 11.95
4/29/2022 5:15:00 AM 4.7 40.46 0.081 7.04 2.92 11.98
4/29/2022 5:30:00 AM 4.64 40.352 0.081 7.04 2.91 12
4/29/2022 5:45:00 AM 4.59 40.262 0.081 7.04 2.99 12.02
4/29/2022 6:00:00 AM 4.53 40.154 0.081 7.04 3.03 12.04
4/29/2022 6:15:00 AM 4.47 40.046 0.081 7.04 2.84 12.07
4/29/2022 6:30:00 AM 4.42 39.956 0.081 7.05 2.8 12.11
4/29/2022 6:45:00 AM 4.38 39.884 0.081 7.06 2.92 12.17
4/29/2022 7:00:00 AM 4.35 39.83 0.081 7.07 2.97 12.26
4/29/2022 7:15:00 AM 4.32 39.776 0.081 7.09 2.72 12.33
4/29/2022 7:30:00 AM 4.3 39.74 0.081 7.1 3.04 12.41
4/29/2022 7:45:00 AM 4.28 39.704 0.081 7.12 2.94 12.49
4/29/2022 8:00:00 AM 4.28 39.704 0.081 7.13 2.86 12.56
4/29/2022 8:15:00 AM 4.28 39.704 0.081 7.15 2.83 12.62
4/29/2022 8:30:00 AM 4.3 39.74 0.08 7.16 2.8 12.67
4/29/2022 8:45:00 AM 4.35 39.83 0.08 7.18 2.86 12.71
4/29/2022 9:00:00 AM 4.43 39.974 0.08 7.19 2.77 12.74
4/29/2022 9:15:00 AM 4.52 40.136 0.08 7.21 2.85 12.77
4/29/2022 9:30:00 AM 4.63 40.334 0.08 7.22 2.78 12.77
4/29/2022 9:45:00 AM 4.78 40.604 0.08 7.23 2.8 12.77
4/29/2022 10:00:00 AM 4.96 40.928 0.08 7.24 3.59 12.76
4/29/2022 10:15:00 AM 5.15 41.27 0.08 7.25 7.43 12.74
4/29/2022 10:30:00 AM 5.35 41.63 0.08 7.26 6.21 12.71
4/29/2022 10:45:00 AM 5.58 42.044 0.08 7.27 5.7 12.68
4/29/2022 11:00:00 AM 5.86 42.548 0.08 7.3 2.79 12.65
4/29/2022 11:15:00 AM 6.13 43.034 0.08 7.31 2.76 12.6
4/29/2022 11:30:00 AM 6.44 43.592 0.079 7.32 2.81 12.55
4/29/2022 11:45:00 AM 6.78 44.204 0.079 7.33 2.76 12.49
4/29/2022 12:00:00 PM 7.14 44.852 0.079 7.35 2.68 12.42
4/29/2022 12:15:00 PM 7.48 45.464 0.079 7.36 2.61 12.35
4/29/2022 12:30:00 PM 7.85 46.13 0.079 7.37 2.58 12.28
4/29/2022 12:45:00 PM 8.22 46.796 0.079 7.38 2.8 12.2
4/29/2022 1:00:00 PM 8.58 47.444 0.079 7.39 2.6 12.13
4/29/2022 1:15:00 PM 8.93 48.074 0.079 7.41 2.6 12.06
4/29/2022 1:30:00 PM 9.25 48.65 0.079 7.42 2.68 11.99
4/29/2022 1:45:00 PM 9.58 49.244 0.079 7.43 2.47 11.91
4/29/2022 2:00:00 PM 9.89 49.802 0.079 7.44 2.53 11.84
4/29/2022 2:15:00 PM 10.18 50.324 0.079 7.45 2.5 11.78
4/29/2022 2:30:00 PM 10.45 50.81 0.079 7.47 2.69 11.71
4/29/2022 2:45:00 PM 10.68 51.224 0.079 7.47 2.73 11.65
4/29/2022 3:00:00 PM 10.9 51.62 0.079 7.48 2.58 11.58
4/29/2022 3:15:00 PM 11.09 51.962 0.079 7.49 2.68 11.53
4/29/2022 3:30:00 PM 11.24 52.232 0.079 7.5 2.73 11.48
4/29/2022 3:45:00 PM 11.37 52.466 0.079 7.5 2.63 11.43
4/29/2022 4:00:00 PM 11.47 52.646 0.079 7.51 2.72 11.39
4/29/2022 4:15:00 PM 11.53 52.754 0.079 7.51 2.74 11.35
4/29/2022 4:30:00 PM 11.54 52.772 0.079 7.51 2.68 11.32
4/29/2022 4:45:00 PM 11.51 52.718 0.079 7.5 2.68 11.3
4/29/2022 5:00:00 PM 11.46 52.628 0.079 7.5 2.85 11.27
4/29/2022 5:15:00 PM 11.34 52.412 0.079 7.5 2.75 11.26
4/29/2022 5:30:00 PM 11.22 52.196 0.079 7.49 2.75 11.25
4/29/2022 5:45:00 PM 11.1 51.98 0.079 7.48 2.79 11.24
4/29/2022 6:00:00 PM 10.97 51.746 0.079 7.46 2.79 11.23
4/29/2022 6:15:00 PM 10.8 51.44 0.079 7.45 2.72 11.22
4/29/2022 6:30:00 PM 10.62 51.116 0.079 7.43 2.81 11.2
4/29/2022 6:45:00 PM 10.41 50.738 0.08 7.4 2.73 11.17
4/29/2022 7:00:00 PM 10.18 50.324 0.08 7.38 2.82 11.13
4/29/2022 7:15:00 PM 9.95 49.91 0.08 7.34 2.93 11.09
4/29/2022 7:30:00 PM 9.72 49.496 0.08 7.31 2.82 11.04
4/29/2022 7:45:00 PM 9.51 49.118 0.08 7.27 2.85 10.97
4/29/2022 8:00:00 PM 9.32 48.776 0.08 7.24 2.97 10.91
4/29/2022 8:15:00 PM 9.14 48.452 0.081 7.21 3.02 10.86
4/29/2022 8:30:00 PM 8.99 48.182 0.081 7.18 3.5 10.82
4/29/2022 8:45:00 PM 8.84 47.912 0.081 7.16 3.01 10.79
4/29/2022 9:00:00 PM 8.69 47.642 0.081 7.15 3.97 10.79
4/29/2022 9:15:00 PM 8.56 47.408 0.081 7.13 3.08 10.8
4/29/2022 9:30:00 PM 8.43 47.174 0.081 7.12 3.19 10.82
4/29/2022 9:45:00 PM 8.29 46.922 0.081 7.11 3.04 10.85
4/29/2022 10:00:00 PM 8.15 46.67 0.082 7.1 3.21 10.87
4/29/2022 10:15:00 PM 8.01 46.418 0.082 7.1 3.04 10.91
4/29/2022 10:30:00 PM 7.87 46.166 0.082 7.09 3.12 10.94
4/29/2022 10:45:00 PM 7.73 45.914 0.082 7.09 3.12 10.99
4/29/2022 11:00:00 PM 7.6 45.68 0.082 7.08 3.08 11.02
4/29/2022 11:15:00 PM 7.47 45.446 0.082 7.08 2.94 11.06
4/29/2022 11:30:00 PM 7.34 45.212 0.082 7.08 2.97 11.1
4/29/2022 11:45:00 PM 7.21 44.978 0.082 7.08 2.99 11.13
4/30/2022 12:00:00 AM 7.08 44.744 0.082 7.07 3 11.17
4/30/2022 12:15:00 AM 6.95 44.51 0.083 7.07 2.94 11.22
4/30/2022 12:30:00 AM 6.83 44.294 0.083 7.07 2.97 11.25
4/30/2022 12:45:00 AM 6.72 44.096 0.083 7.07 2.93 11.29
4/30/2022 1:00:00 AM 6.6 43.88 0.083 7.07 2.8 11.33
4/30/2022 1:15:00 AM 6.48 43.664 0.083 7.06 2.72 11.36
4/30/2022 1:30:00 AM 6.37 43.466 0.083 7.06 2.83 11.39
4/30/2022 1:45:00 AM 6.26 43.268 0.083 7.06 2.92 11.43
4/30/2022 2:00:00 AM 6.16 43.088 0.083 7.06 3.01 11.46
4/30/2022 2:15:00 AM 6.06 42.908 0.083 7.06 2.75 11.49
4/30/2022 2:30:00 AM 5.96 42.728 0.083 7.05 2.79 11.52
4/30/2022 2:45:00 AM 5.87 42.566 0.083 7.05 2.85 11.55
4/30/2022 3:00:00 AM 5.78 42.404 0.083 7.05 2.82 11.58
4/30/2022 3:15:00 AM 5.69 42.242 0.084 7.05 2.78 11.61
4/30/2022 3:30:00 AM 5.6 42.08 0.084 7.02 2.79 11.64
4/30/2022 3:45:00 AM 5.51 41.918 0.084 7.03 2.8 11.67
4/30/2022 4:00:00 AM 5.43 41.774 0.084 7.03 2.65 11.69
4/30/2022 4:15:00 AM 5.34 41.612 0.084 7.02 2.59 11.72
4/30/2022 4:30:00 AM 5.26 41.468 0.084 7.02 2.66 11.76
4/30/2022 4:45:00 AM 5.18 41.324 0.084 7.02 2.65 11.78
4/30/2022 5:00:00 AM 5.1 41.18 0.084 7.02 2.61 11.81
4/30/2022 5:15:00 AM 5.03 41.054 0.084 7.02 2.54 11.83
4/30/2022 5:30:00 AM 4.95 40.91 0.084 7.02 2.83 11.85
4/30/2022 5:45:00 AM 4.87 40.766 0.084 7.02 2.64 11.88
4/30/2022 6:00:00 AM 4.8 40.64 0.084 7.02 2.89 11.91
4/30/2022 6:15:00 AM 4.73 40.514 0.084 7.02 2.57 11.95
4/30/2022 6:30:00 AM 4.66 40.388 0.084 7.03 2.62 12
4/30/2022 6:45:00 AM 4.61 40.298 0.084 7.04 2.6 12.07
4/30/2022 7:00:00 AM 4.56 40.208 0.084 7.05 2.66 12.17
4/30/2022 7:15:00 AM 4.51 40.118 0.084 7.06 2.74 12.25
4/30/2022 7:30:00 AM 4.48 40.064 0.084 7.08 2.99 12.35
4/30/2022 7:45:00 AM 4.46 40.028 0.084 7.09 3.07 12.43
4/30/2022 8:00:00 AM 4.45 40.01 0.083 7.11 2.85 12.51
4/30/2022 8:15:00 AM 4.44 39.992 0.083 7.13 2.55 12.59
4/30/2022 8:30:00 AM 4.46 40.028 0.083 7.14 2.6 12.64
4/30/2022 8:45:00 AM 4.51 40.118 0.083 7.16 2.54 12.69
4/30/2022 9:00:00 AM 4.58 40.244 0.083 7.17 3.73 12.71
4/30/2022 9:15:00 AM 4.68 40.424 0.083 7.19 2.94 12.75
4/30/2022 9:30:00 AM 4.82 40.676 0.083 7.22 2.73 12.77
4/30/2022 9:45:00 AM 4.98 40.964 0.083 7.22 2.55 12.77
4/30/2022 10:00:00 AM 5.17 41.306 0.083 7.23 2.5 12.76
4/30/2022 10:15:00 AM 5.39 41.702 0.083 7.25 2.55 12.74
4/30/2022 10:30:00 AM 5.62 42.116 0.082 7.26 2.64 12.71
4/30/2022 10:45:00 AM 5.9 42.62 0.082 7.28 2.42 12.68
4/30/2022 11:00:00 AM 6.2 43.16 0.082 7.29 2.4 12.64
4/30/2022 11:15:00 AM 6.5 43.7 0.082 7.3 2.36 12.58
4/30/2022 11:30:00 AM 6.85 44.33 0.082 7.32 2.35 12.52
4/30/2022 11:45:00 AM 7.22 44.996 0.082 7.33 2.41 12.46
4/30/2022 12:00:00 PM 7.6 45.68 0.082 7.35 2.36 12.38
4/30/2022 12:15:00 PM 8 46.4 0.082 7.36 2.33 12.31
4/30/2022 12:30:00 PM 8.42 47.156 0.082 7.38 2.33 12.23
4/30/2022 12:45:00 PM 8.83 47.894 0.082 7.39 2.33 12.15
4/30/2022 1:00:00 PM 9.23 48.614 0.082 7.4 4.98 12.07
4/30/2022 1:15:00 PM 9.64 49.352 0.082 7.42 3.38 11.99
4/30/2022 1:30:00 PM 10.04 50.072 0.082 7.44 2.62 11.91
4/30/2022 1:45:00 PM 10.41 50.738 0.081 7.46 2.45 11.84
4/30/2022 2:00:00 PM 10.77 51.386 0.081 7.48 2.67 11.76
4/30/2022 2:15:00 PM 11.08 51.944 0.081 7.49 2.45 11.69
4/30/2022 2:30:00 PM 11.38 52.484 0.081 7.5 2.89 11.61
4/30/2022 2:45:00 PM 11.66 52.988 0.081 7.51 2.48 11.54
4/30/2022 3:00:00 PM 11.91 53.438 0.081 7.53 2.42 11.48
4/30/2022 3:15:00 PM 12.12 53.816 0.081 7.54 2.34 11.42
4/30/2022 3:30:00 PM 12.31 54.158 0.081 7.55 2.45 11.36
4/30/2022 3:45:00 PM 12.47 54.446 0.081 7.56 2.29 11.3
4/30/2022 4:00:00 PM 12.59 54.662 0.081 7.57 2.45 11.26
4/30/2022 4:15:00 PM 12.67 54.806 0.081 7.57 2.42 11.22
4/30/2022 4:30:00 PM 12.7 54.86 0.081 7.57 2.36 11.18
4/30/2022 4:45:00 PM 12.71 54.878 0.081 7.57 2.43 11.14
4/30/2022 5:00:00 PM 12.68 54.824 0.081 7.56 2.48 11.12
4/30/2022 5:15:00 PM 12.6 54.68 0.081 7.56 2.4 11.09
4/30/2022 5:30:00 PM 12.49 54.482 0.082 7.54 2.42 11.07
4/30/2022 5:45:00 PM 12.35 54.23 0.082 7.53 2.45 11.05
4/30/2022 6:00:00 PM 12.18 53.924 0.082 7.51 2.52 11.02
4/30/2022 6:15:00 PM 12.01 53.618 0.082 7.49 2.6 11
4/30/2022 6:30:00 PM 11.83 53.294 0.082 7.47 2.47 10.98
4/30/2022 6:45:00 PM 11.65 52.97 0.082 7.44 2.58 10.94
4/30/2022 7:00:00 PM 11.45 52.61 0.082 7.41 2.86 10.89
4/30/2022 7:15:00 PM 11.25 52.25 0.082 7.37 2.95 10.82
4/30/2022 7:30:00 PM 11.06 51.908 0.082 7.32 3.74 10.74
4/30/2022 7:45:00 PM 10.88 51.584 0.083 7.29 2.59 10.66
4/30/2022 8:00:00 PM 10.71 51.278 0.083 7.25 2.63 10.58
4/30/2022 8:15:00 PM 10.54 50.972 0.083 7.21 2.5 10.51
4/30/2022 8:30:00 PM 10.38 50.684 0.083 7.18 2.71 10.44
4/30/2022 8:45:00 PM 10.22 50.396 0.083 7.15 2.91 10.4
4/30/2022 9:00:00 PM 10.07 50.126 0.084 7.13 3.05 10.38
4/30/2022 9:15:00 PM 9.92 49.856 0.084 7.11 2.93 10.38
4/30/2022 9:30:00 PM 9.77 49.586 0.084 7.1 2.83 10.39
4/30/2022 9:45:00 PM 9.61 49.298 0.084 7.09 2.89 10.41
4/30/2022 10:00:00 PM 9.46 49.028 0.084 7.09 2.89 10.44
4/30/2022 10:15:00 PM 9.31 48.758 0.084 7.08 3 10.48
4/30/2022 10:30:00 PM 9.16 48.488 0.084 7.07 3.04 10.51
4/30/2022 10:45:00 PM 9 48.2 0.085 7.07 2.93 10.55
4/30/2022 11:00:00 PM 8.84 47.912 0.085 7.07 2.93 10.59
4/30/2022 11:15:00 PM 8.69 47.642 0.085 7.07 2.92 10.64
4/30/2022 11:30:00 PM 8.54 47.372 0.085 7.07 2.93 10.68
4/30/2022 11:45:00 PM 8.4 47.12 0.085 7.06 2.9 10.72
5/1/2022 12:00:00 AM 8.25 46.85 0.085 7.07 2.91 10.77
5/1/2022 12:15:00 AM 8.12 46.616 0.085 7.06 2.85 10.81
5/1/2022 12:30:00 AM 8 46.4 0.085 7.06 3.09 10.84
5/1/2022 12:45:00 AM 7.88 46.184 0.085 7.06 2.82 10.87
5/1/2022 1:00:00 AM 7.75 45.95 0.085 7.06 2.8 10.91
5/1/2022 1:15:00 AM 7.63 45.734 0.085 7.06 2.91 10.95
5/1/2022 1:30:00 AM 7.52 45.536 0.085 7.06 2.78 10.98
5/1/2022 1:45:00 AM 7.4 45.32 0.085 7.06 2.75 11.03
5/1/2022 2:00:00 AM 7.28 45.104 0.085 7.07 2.92 11.08
5/1/2022 2:15:00 AM 7.18 44.924 0.086 7.08 2.94 11.12
5/1/2022 2:30:00 AM 7.08 44.744 0.087 7.09 3.12 11.16
5/1/2022 2:45:00 AM 6.99 44.582 0.088 7.1 2.82 11.19
5/1/2022 3:00:00 AM 6.9 44.42 0.089 7.1 2.95 11.22
5/1/2022 3:15:00 AM 6.8 44.24 0.089 7.1 3.07 11.25
5/1/2022 3:30:00 AM 6.71 44.078 0.09 7.1 3.05 11.28
5/1/2022 3:45:00 AM 6.62 43.916 0.091 7.1 3.18 11.31
5/1/2022 4:00:00 AM 6.52 43.736 0.092 7.1 3.09 11.33
5/1/2022 4:15:00 AM 6.44 43.592 0.093 7.1 2.97 11.36
5/1/2022 4:30:00 AM 6.35 43.43 0.096 7.1 3.09 11.39
5/1/2022 4:45:00 AM 6.27 43.286 0.1 7.11 3.11 11.42
5/1/2022 5:00:00 AM 6.19 43.142 0.105 7.11 3.31 11.44
5/1/2022 5:15:00 AM 6.12 43.016 0.112 7.11 3.12 11.46
5/1/2022 5:30:00 AM 6.04 42.872 0.119 7.11 3.02 11.48
5/1/2022 5:45:00 AM 5.96 42.728 0.126 7.1 3.02 11.51
5/1/2022 6:00:00 AM 5.89 42.602 0.132 7.1 2.95 11.53
5/1/2022 6:15:00 AM 5.81 42.458 0.137 7.1 2.92 11.57
5/1/2022 6:30:00 AM 5.75 42.35 0.14 7.11 2.92 11.63
5/1/2022 6:45:00 AM 5.69 42.242 0.143 7.12 2.89 11.72
5/1/2022 7:00:00 AM 5.64 42.152 0.145 7.14 2.76 11.82
5/1/2022 7:15:00 AM 5.6 42.08 0.146 7.16 2.75 11.93
5/1/2022 7:30:00 AM 5.57 42.026 0.148 7.18 2.77 12.02
5/1/2022 7:45:00 AM 5.55 41.99 0.148 7.19 2.82 12.11
5/1/2022 8:00:00 AM 5.54 41.972 0.149 7.21 2.76 12.19
5/1/2022 8:15:00 AM 5.55 41.99 0.15 7.23 2.62 12.27
5/1/2022 8:30:00 AM 5.58 42.044 0.15 7.25 2.75 12.35
5/1/2022 8:45:00 AM 5.63 42.134 0.15 7.27 2.7 12.41
5/1/2022 9:00:00 AM 5.7 42.26 0.15 7.29 2.69 12.47
5/1/2022 9:15:00 AM 5.81 42.458 0.151 7.31 2.57 12.5
5/1/2022 9:30:00 AM 5.95 42.71 0.151 7.33 2.53 12.51
5/1/2022 9:45:00 AM 6.11 42.998 0.151 7.35 2.53 12.52
5/1/2022 10:00:00 AM 6.31 43.358 0.151 7.36 2.58 12.5
5/1/2022 10:15:00 AM 6.53 43.754 0.151 7.38 2.49 12.49
5/1/2022 10:30:00 AM 6.79 44.222 0.151 7.39 2.45 12.46
5/1/2022 10:45:00 AM 7.08 44.744 0.151 7.41 2.49 12.43
5/1/2022 11:00:00 AM 7.4 45.32 0.151 7.43 2.47 12.4
5/1/2022 11:15:00 AM 7.7 45.86 0.15 7.45 2.45 12.37
5/1/2022 11:30:00 AM 8.03 46.454 0.15 7.47 2.47 12.32
5/1/2022 11:45:00 AM 8.39 47.102 0.15 7.5 2.41 12.27
5/1/2022 12:00:00 PM 8.71 47.678 0.15 7.52 2.39 12.21
5/1/2022 12:15:00 PM 9.08 48.344 0.149 7.54 2.37 12.15
5/1/2022 12:30:00 PM 9.5 49.1 0.149 7.56 2.38 12.08
5/1/2022 12:45:00 PM 9.93 49.874 0.149 7.58 2.35 12
5/1/2022 1:00:00 PM 10.37 50.666 0.148 7.6 2.39 11.92
5/1/2022 1:15:00 PM 10.8 51.44 0.148 7.62 2.4 11.84
5/1/2022 1:30:00 PM 11.21 52.178 0.148 7.64 2.3 11.76
5/1/2022 1:45:00 PM 11.59 52.862 0.148 7.66 2.34 11.68
5/1/2022 2:00:00 PM 11.92 53.456 0.148 7.69 2.35 11.61
5/1/2022 2:15:00 PM 12.08 53.744 0.147 7.7 2.33 11.52
5/1/2022 2:30:00 PM 12.13 53.834 0.147 7.71 2.35 11.44
5/1/2022 2:45:00 PM 12.17 53.906 0.147 7.72 2.42 11.39
5/1/2022 3:00:00 PM 12.25 54.05 0.147 7.73 2.37 11.36
5/1/2022 3:15:00 PM 12.35 54.23 0.146 7.75 2.2 11.35
5/1/2022 3:30:00 PM 12.44 54.392 0.146 7.76 2.33 11.34
5/1/2022 3:45:00 PM 12.49 54.482 0.146 7.78 2.33 11.32
5/1/2022 4:00:00 PM 12.56 54.608 0.145 7.79 2.28 11.3
5/1/2022 4:15:00 PM 12.59 54.662 0.145 7.79 2.35 11.27
5/1/2022 4:30:00 PM 12.58 54.644 0.145 7.78 2.45 11.22
5/1/2022 4:45:00 PM 12.52 54.536 0.145 7.76 2.45 11.17
5/1/2022 5:00:00 PM 12.45 54.41 0.145 7.73 2.42 11.12
5/1/2022 5:15:00 PM 12.38 54.284 0.145 7.69 2.37 11.06
5/1/2022 5:30:00 PM 12.32 54.176 0.145 7.65 2.49 10.99
5/1/2022 5:45:00 PM 12.24 54.032 0.145 7.61 2.38 10.92
5/1/2022 6:00:00 PM 12.16 53.888 0.145 7.57 2.43 10.85
5/1/2022 6:15:00 PM 12.07 53.726 0.145 7.53 2.47 10.79
5/1/2022 6:30:00 PM 11.99 53.582 0.144 7.49 2.53 10.72
5/1/2022 6:45:00 PM 11.89 53.402 0.144 7.45 2.54 10.65
5/1/2022 7:00:00 PM 11.81 53.258 0.143 7.42 2.47 10.58
5/1/2022 7:15:00 PM 11.72 53.096 0.143 7.39 2.59 10.52
5/1/2022 7:30:00 PM 11.62 52.916 0.142 7.35 2.57 10.45
5/1/2022 7:45:00 PM 11.51 52.718 0.142 7.32 2.62 10.37
5/1/2022 8:00:00 PM 11.41 52.538 0.142 7.29 2.55 10.28
5/1/2022 8:15:00 PM 11.32 52.376 0.142 7.26 2.64 10.21
5/1/2022 8:30:00 PM 11.23 52.214 0.142 7.23 2.66 10.15
5/1/2022 8:45:00 PM 11.15 52.07 0.142 7.21 2.63 10.1
5/1/2022 9:00:00 PM 11.07 51.926 0.142 7.2 2.56 10.08
5/1/2022 9:15:00 PM 10.99 51.782 0.142 7.18 2.58 10.07
5/1/2022 9:30:00 PM 10.91 51.638 0.141 7.17 2.65 10.07
5/1/2022 9:45:00 PM 10.84 51.512 0.141 7.16 2.67 10.07
5/1/2022 10:00:00 PM 10.76 51.368 0.141 7.16 2.72 10.09
5/1/2022 10:15:00 PM 10.69 51.242 0.141 7.15 2.71 10.1
5/1/2022 10:30:00 PM 10.63 51.134 0.141 7.15 2.59 10.11
5/1/2022 10:45:00 PM 10.57 51.026 0.141 7.15 2.78 10.12
5/1/2022 11:00:00 PM 10.51 50.918 0.141 7.15 2.69 10.13
5/1/2022 11:15:00 PM 10.44 50.792 0.141 7.14 2.66 10.15
5/1/2022 11:30:00 PM 10.38 50.684 0.141 7.14 2.85 10.17
5/1/2022 11:45:00 PM 10.33 50.594 0.141 7.14 2.67 10.18
5/2/2022 12:00:00 AM 10.28 50.504 0.141 7.14 2.75 10.19
5/2/2022 12:15:00 AM 10.23 50.414 0.141 7.14 2.57 10.2
5/2/2022 12:30:00 AM 10.19 50.342 0.141 7.14 2.7 10.21
5/2/2022 12:45:00 AM 10.14 50.252 0.141 7.14 2.6 10.23
5/2/2022 1:00:00 AM 10.11 50.198 0.141 7.14 2.6 10.24
5/2/2022 1:15:00 AM 10.07 50.126 0.14 7.14 2.54 10.24
5/2/2022 1:30:00 AM 10.04 50.072 0.14 7.14 2.65 10.26
5/2/2022 1:45:00 AM 10.01 50.018 0.14 7.14 2.66 10.26
5/2/2022 2:00:00 AM 9.98 49.964 0.14 7.13 2.71 10.27
5/2/2022 2:15:00 AM 9.95 49.91 0.14 7.13 2.7 10.28
5/2/2022 2:30:00 AM 9.92 49.856 0.139 7.13 2.79 10.29
5/2/2022 2:45:00 AM 9.89 49.802 0.139 7.13 2.75 10.29
5/2/2022 3:00:00 AM 9.87 49.766 0.139 7.13 2.71 10.3
5/2/2022 3:15:00 AM 9.84 49.712 0.139 7.13 2.7 10.31
5/2/2022 3:30:00 AM 9.81 49.658 0.138 7.13 2.75 10.31
5/2/2022 3:45:00 AM 9.79 49.622 0.138 7.13 2.79 10.32
5/2/2022 4:00:00 AM 9.76 49.568 0.138 7.13 2.81 10.33
5/2/2022 4:15:00 AM 9.74 49.532 0.137 7.12 3 10.33
5/2/2022 4:30:00 AM 9.72 49.496 0.137 7.12 2.72 10.34
5/2/2022 4:45:00 AM 9.69 49.442 0.137 7.12 2.91 10.34
5/2/2022 5:00:00 AM 9.67 49.406 0.137 7.12 2.79 10.34
5/2/2022 5:15:00 AM 9.65 49.37 0.136 7.12 2.88 10.35
5/2/2022 5:30:00 AM 9.63 49.334 0.136 7.11 2.74 10.35
5/2/2022 5:45:00 AM 9.6 49.28 0.136 7.11 2.93 10.35
5/2/2022 6:00:00 AM 9.58 49.244 0.135 7.11 2.77 10.37
5/2/2022 6:15:00 AM 9.56 49.208 0.135 7.11 2.7 10.38
5/2/2022 6:30:00 AM 9.54 49.172 0.134 7.11 2.66 10.4
5/2/2022 6:45:00 AM 9.53 49.154 0.134 7.12 2.62 10.43
5/2/2022 7:00:00 AM 9.51 49.118 0.134 7.12 2.8 10.47
5/2/2022 7:15:00 AM 9.5 49.1 0.133 7.13 2.52 10.53
5/2/2022 7:30:00 AM 9.49 49.082 0.133 7.14 2.61 10.58
5/2/2022 7:45:00 AM 9.49 49.082 0.132 7.15 2.7 10.65
5/2/2022 8:00:00 AM 9.5 49.1 0.132 7.17 2.6 10.76
5/2/2022 8:15:00 AM 9.51 49.118 0.131 7.2 2.68 10.87
5/2/2022 8:30:00 AM 9.52 49.136 0.131 7.22 2.53 10.98
5/2/2022 8:45:00 AM 9.54 49.172 0.13 7.25 2.47 11.07
5/2/2022 9:00:00 AM 9.56 49.208 0.13 7.27 2.48 11.13
5/2/2022 9:15:00 AM 9.59 49.262 0.129 7.3 2.5 11.2
5/2/2022 9:30:00 AM 9.65 49.37 0.129 7.32 2.51 11.3
5/2/2022 9:45:00 AM 9.73 49.514 0.128 7.36 2.54 11.42
5/2/2022 10:00:00 AM 9.8 49.64 0.128 7.4 2.47 11.51
5/2/2022 10:15:00 AM 9.88 49.784 0.128 7.44 2.45 11.58
5/2/2022 10:30:00 AM 9.96 49.928 0.127 7.48 2.5 11.63
5/2/2022 10:45:00 AM 10.08 50.144 0.127 7.52 2.41 11.66
5/2/2022 11:00:00 AM 10.24 50.432 0.127 7.55 2.53 11.69
5/2/2022 11:15:00 AM 10.38 50.684 0.127 7.58 2.5 11.72
5/2/2022 11:30:00 AM 10.53 50.954 0.127 7.62 2.42 11.75
5/2/2022 11:45:00 AM 10.66 51.188 0.126 7.65 2.49 11.74
5/2/2022 12:00:00 PM 10.75 51.35 0.126 7.67 2.5 11.7
5/2/2022 12:15:00 PM 10.81 51.458 0.126 7.66 2.47 11.62
5/2/2022 12:30:00 PM 10.87 51.566 0.126 7.65 2.54 11.55
5/2/2022 12:45:00 PM 10.9 51.62 0.125 7.63 2.41 11.47
5/2/2022 1:00:00 PM 10.9 51.62 0.125 7.6 2.51 11.37
5/2/2022 1:15:00 PM 10.94 51.692 0.125 7.58 2.45 11.34
5/2/2022 1:30:00 PM 11.06 51.908 0.125 7.59 2.46 11.38
5/2/2022 1:45:00 PM 11.22 52.196 0.125 7.63 2.51 11.44
5/2/2022 2:00:00 PM 11.32 52.376 0.124 7.67 2.49 11.47
5/2/2022 2:15:00 PM 11.44 52.592 0.124 7.72 2.43 11.53
5/2/2022 2:30:00 PM 11.67 53.006 0.124 7.77 2.45 11.56
5/2/2022 2:45:00 PM 11.82 53.276 0.123 7.79 2.36 11.55
5/2/2022 3:00:00 PM 11.94 53.492 0.123 7.82 2.43 11.54
5/2/2022 3:15:00 PM 12.02 53.636 0.123 7.82 2.41 11.48
5/2/2022 3:30:00 PM 12.05 53.69 0.123 7.8 2.5 11.37
5/2/2022 3:45:00 PM 12.03 53.654 0.123 7.75 2.5 11.26
5/2/2022 4:00:00 PM 12 53.6 0.122 7.67 2.83 11.08
5/2/2022 4:15:00 PM 11.97 53.546 0.122 7.61 3.49 10.99
5/2/2022 4:30:00 PM 11.94 53.492 0.122 7.58 2.53 10.96
5/2/2022 4:45:00 PM 11.91 53.438 0.121 7.58 2.53 10.98
5/2/2022 5:00:00 PM 11.88 53.384 0.121 7.57 3.29 10.97
5/2/2022 5:15:00 PM 11.83 53.294 0.121 7.55 4.01 10.92
5/2/2022 5:30:00 PM 11.76 53.168 0.121 7.5 3.86 10.81
5/2/2022 5:45:00 PM 11.72 53.096 0.12 7.46 4.33 10.77
5/2/2022 6:00:00 PM 11.71 53.078 0.119 7.47 5.46 10.81
5/2/2022 6:15:00 PM 11.69 53.042 0.119 7.48 5.13 10.88
5/2/2022 6:30:00 PM 11.66 52.988 0.118 7.48 4.59 10.88
5/2/2022 6:45:00 PM 11.61 52.898 0.118 7.46 4.2 10.83
5/2/2022 7:00:00 PM 11.58 52.844 0.119 7.44 3.61 10.74
5/2/2022 7:15:00 PM 11.54 52.772 0.119 7.4 3.75 10.65
5/2/2022 7:30:00 PM 11.49 52.682 0.119 7.37 3.48 10.55
5/2/2022 7:45:00 PM 11.43 52.574 0.119 7.33 3.62 10.45
5/2/2022 8:00:00 PM 11.37 52.466 0.119 7.3 3.81 10.37
5/2/2022 8:15:00 PM 11.29 52.322 0.119 7.27 3.6 10.29
5/2/2022 8:30:00 PM 11.21 52.178 0.119 7.24 5.87 10.22
5/2/2022 8:45:00 PM 11.13 52.034 0.119 7.22 3.46 10.17
5/2/2022 9:00:00 PM 11.06 51.908 0.119 7.21 3.4 10.15
5/2/2022 9:15:00 PM 10.99 51.782 0.12 7.19 3.52 10.13
5/2/2022 9:30:00 PM 10.94 51.692 0.12 7.18 3.42 10.12
5/2/2022 9:45:00 PM 10.88 51.584 0.121 7.17 3.41 10.12
5/2/2022 10:00:00 PM 10.83 51.494 0.121 7.16 3.5 10.12
5/2/2022 10:15:00 PM 10.77 51.386 0.121 7.16 3.44 10.14
5/2/2022 10:30:00 PM 10.73 51.314 0.122 7.15 3.51 10.15
5/2/2022 10:45:00 PM 10.68 51.224 0.122 7.15 3.69 10.16
5/2/2022 11:00:00 PM 10.64 51.152 0.123 7.14 3.85 10.16
5/2/2022 11:15:00 PM 10.6 51.08 0.124 7.14 3.72 10.18
5/2/2022 11:30:00 PM 10.56 51.008 0.125 7.14 3.89 10.19
5/2/2022 11:45:00 PM 10.52 50.936 0.126 7.14 3.76 10.2
5/3/2022 12:00:00 AM 10.48 50.864 0.127 7.14 3.6 10.21
5/3/2022 12:15:00 AM 10.43 50.774 0.127 7.14 3.58 10.22
5/3/2022 12:30:00 AM 10.39 50.702 0.128 7.14 3.31 10.23
5/3/2022 12:45:00 AM 10.35 50.63 0.129 7.13 3.22 10.23
5/3/2022 1:00:00 AM 10.32 50.576 0.129 7.14 3.31 10.24
5/3/2022 1:15:00 AM 10.28 50.504 0.128 7.13 3.36 10.25
5/3/2022 1:30:00 AM 10.25 50.45 0.127 7.13 3.27 10.26
5/3/2022 1:45:00 AM 10.21 50.378 0.125 7.13 3.17 10.27
5/3/2022 2:00:00 AM 10.18 50.324 0.124 7.13 3.23 10.28
5/3/2022 2:15:00 AM 10.15 50.27 0.122 7.13 3.13 10.29
5/3/2022 2:30:00 AM 10.11 50.198 0.121 7.13 3.15 10.29
5/3/2022 2:45:00 AM 10.08 50.144 0.119 7.13 3.1 10.3
5/3/2022 3:00:00 AM 10.05 50.09 0.119 7.13 3.17 10.31
5/3/2022 3:15:00 AM 10.01 50.018 0.118 7.13 2.9 10.32
5/3/2022 3:30:00 AM 9.98 49.964 0.117 7.12 2.93 10.32
5/3/2022 3:45:00 AM 9.94 49.892 0.116 7.12 2.99 10.33
5/3/2022 4:00:00 AM 9.9 49.82 0.116 7.12 3.04 10.33
5/3/2022 4:15:00 AM 9.84 49.712 0.116 7.11 2.99 10.35
5/3/2022 4:30:00 AM 9.78 49.604 0.115 7.11 3.04 10.36
5/3/2022 4:45:00 AM 9.72 49.496 0.115 7.1 3.21 10.36
5/3/2022 5:00:00 AM 9.68 49.424 0.115 7.1 2.94 10.38
5/3/2022 5:15:00 AM 9.63 49.334 0.114 7.1 2.92 10.39
5/3/2022 5:30:00 AM 9.6 49.28 0.114 7.1 2.82 10.4
5/3/2022 5:45:00 AM 9.57 49.226 0.114 7.1 2.92 10.41
5/3/2022 6:00:00 AM 9.54 49.172 0.114 7.11 2.95 10.43
5/3/2022 6:15:00 AM 9.51 49.118 0.114 7.11 2.91 10.44
5/3/2022 6:30:00 AM 9.48 49.064 0.113 7.12 2.8 10.49
5/3/2022 6:45:00 AM 9.46 49.028 0.113 7.13 2.72 10.56
5/3/2022 7:00:00 AM 9.44 48.992 0.113 7.14 2.67 10.67
5/3/2022 7:15:00 AM 9.43 48.974 0.112 7.17 2.71 10.81
5/3/2022 7:30:00 AM 9.41 48.938 0.112 7.19 2.74 10.93
5/3/2022 7:45:00 AM 9.41 48.938 0.112 7.22 2.62 11.09
5/3/2022 8:00:00 AM 9.43 48.974 0.112 7.26 2.58 11.24
5/3/2022 8:15:00 AM 9.44 48.992 0.111 7.28 2.61 11.35
5/3/2022 8:30:00 AM 9.46 49.028 0.111 7.31 2.54 11.45
5/3/2022 8:45:00 AM 9.5 49.1 0.111 7.34 2.65 11.52
5/3/2022 9:00:00 AM 9.57 49.226 0.111 7.37 2.69 11.58
5/3/2022 9:15:00 AM 9.64 49.352 0.111 7.4 2.54 11.62
5/3/2022 9:30:00 AM 9.73 49.514 0.111 7.42 2.61 11.67
5/3/2022 9:45:00 AM 9.82 49.676 0.111 7.45 2.61 11.7
5/3/2022 10:00:00 AM 9.98 49.964 0.111 7.49 2.63 11.75
5/3/2022 10:15:00 AM 10.14 50.252 0.11 7.52 2.73 11.76
5/3/2022 10:30:00 AM 10.36 50.648 0.11 7.55 2.61 11.77
5/3/2022 10:45:00 AM 10.6 51.08 0.11 7.59 2.45 11.78
5/3/2022 11:00:00 AM 10.79 51.422 0.11 7.61 2.57 11.77
5/3/2022 11:15:00 AM 11.08 51.944 0.109 7.65 2.52 11.76
5/3/2022 11:30:00 AM 11.38 52.484 0.109 7.68 2.45 11.72
5/3/2022 11:45:00 AM 11.69 53.042 0.109 7.71 2.5 11.69
5/3/2022 12:00:00 PM 12.02 53.636 0.109 7.76 2.49 11.66
5/3/2022 12:15:00 PM 12.35 54.23 0.109 7.8 2.47 11.62
5/3/2022 12:30:00 PM 12.69 54.842 0.109 7.86 2.41 11.59
5/3/2022 12:45:00 PM 12.99 55.382 0.108 7.89 2.45 11.55
5/3/2022 1:00:00 PM 13.3 55.94 0.108 7.94 2.46 11.5
5/3/2022 1:15:00 PM 13.6 56.48 0.108 7.99 2.42 11.46
5/3/2022 1:30:00 PM 13.81 56.858 0.108 8.03 2.49 11.4
5/3/2022 1:45:00 PM 13.96 57.128 0.108 8.07 3.08 11.34
5/3/2022 2:00:00 PM 14.06 57.308 0.108 8.12 2.62 11.3
5/3/2022 2:15:00 PM 14.12 57.416 0.108 8.13 2.39 11.25
5/3/2022 2:30:00 PM 14.18 57.524 0.108 8.17 2.33 11.21
5/3/2022 2:45:00 PM 14.21 57.578 0.108 8.16 2.38 11.17
5/3/2022 3:00:00 PM 14.24 57.632 0.108 8.18 2.33 11.15
5/3/2022 3:15:00 PM 14.28 57.704 0.108 8.19 2.4 11.12
5/3/2022 3:30:00 PM 14.3 57.74 0.108 8.19 2.39 11.1
5/3/2022 3:45:00 PM 14.32 57.776 0.108 8.19 2.28 11.07
5/3/2022 4:00:00 PM 14.33 57.794 0.108 8.18 2.36 11.05
5/3/2022 4:15:00 PM 14.3 57.74 0.108 8.15 2.31 11.02
5/3/2022 4:30:00 PM 14.28 57.704 0.108 8.13 2.3 10.99
5/3/2022 4:45:00 PM 14.24 57.632 0.108 8.09 2.36 10.94
5/3/2022 5:00:00 PM 14.18 57.524 0.108 8.01 2.42 10.88
5/3/2022 5:15:00 PM 14.12 57.416 0.108 7.94 2.39 10.81
5/3/2022 5:30:00 PM 14.07 57.326 0.108 7.86 2.49 10.74
5/3/2022 5:45:00 PM 14.02 57.236 0.108 7.78 2.5 10.67
5/3/2022 6:00:00 PM 13.96 57.128 0.108 7.72 2.44 10.61
5/3/2022 6:15:00 PM 13.91 57.038 0.108 7.66 2.42 10.55
5/3/2022 6:30:00 PM 13.86 56.948 0.108 7.62 2.35 10.52
5/3/2022 6:45:00 PM 13.8 56.84 0.108 7.59 2.45 10.48
5/3/2022 7:00:00 PM 13.74 56.732 0.108 7.56 2.45 10.45
5/3/2022 7:15:00 PM 13.67 56.606 0.108 7.52 2.6 10.39
5/3/2022 7:30:00 PM 13.57 56.426 0.108 7.48 2.56 10.28
5/3/2022 7:45:00 PM 13.47 56.246 0.108 7.42 2.57 10.13
5/3/2022 8:00:00 PM 13.38 56.084 0.108 7.36 2.65 9.98
5/3/2022 8:15:00 PM 13.28 55.904 0.109 7.31 2.71 9.83
5/3/2022 8:30:00 PM 13.18 55.724 0.109 7.27 2.91 9.71
5/3/2022 8:45:00 PM 13.08 55.544 0.109 7.23 2.8 9.62
5/3/2022 9:00:00 PM 12.98 55.364 0.109 7.21 2.76 9.57
5/3/2022 9:15:00 PM 12.9 55.22 0.109 7.19 2.79 9.52
5/3/2022 9:30:00 PM 12.81 55.058 0.109 7.17 2.87 9.5
5/3/2022 9:45:00 PM 12.73 54.914 0.11 7.16 2.77 9.49
5/3/2022 10:00:00 PM 12.66 54.788 0.11 7.15 2.79 9.49
5/3/2022 10:15:00 PM 12.59 54.662 0.11 7.15 3.02 9.52
5/3/2022 10:30:00 PM 12.52 54.536 0.109 7.14 2.67 9.52
5/3/2022 10:45:00 PM 12.46 54.428 0.109 7.14 2.82 9.54
5/3/2022 11:00:00 PM 12.4 54.32 0.109 7.13 2.97 9.54
5/3/2022 11:15:00 PM 12.33 54.194 0.109 7.13 2.81 9.56
5/3/2022 11:30:00 PM 12.27 54.086 0.109 7.13 2.75 9.57
5/3/2022 11:45:00 PM 12.21 53.978 0.109 7.12 2.92 9.58
5/4/2022 12:00:00 AM 12.14 53.852 0.109 7.12 3.4 9.61
5/4/2022 12:15:00 AM 12.09 53.762 0.109 7.12 2.84 9.61
5/4/2022 12:30:00 AM 12.03 53.654 0.109 7.12 2.83 9.63
5/4/2022 12:45:00 AM 11.97 53.546 0.109 7.12 2.82 9.64
5/4/2022 1:00:00 AM 11.91 53.438 0.109 7.12 2.88 9.66
5/4/2022 1:15:00 AM 11.86 53.348 0.109 7.11 2.76 9.66
5/4/2022 1:30:00 AM 11.79 53.222 0.109 7.12 2.87 9.68
5/4/2022 1:45:00 AM 11.74 53.132 0.109 7.11 2.69 9.68
5/4/2022 2:00:00 AM 11.67 53.006 0.109 7.12 2.73 9.7
5/4/2022 2:15:00 AM 11.62 52.916 0.109 7.12 2.69 9.72
5/4/2022 2:30:00 AM 11.56 52.808 0.109 7.12 2.69 9.73
5/4/2022 2:45:00 AM 11.51 52.718 0.109 7.12 2.85 9.74
5/4/2022 3:00:00 AM 11.45 52.61 0.109 7.12 2.78 9.75
5/4/2022 3:15:00 AM 11.4 52.52 0.109 7.12 2.64 9.76
5/4/2022 3:30:00 AM 11.35 52.43 0.109 7.11 2.7 9.78
5/4/2022 3:45:00 AM 11.3 52.34 0.109 7.11 2.79 9.79
5/4/2022 4:00:00 AM 11.25 52.25 0.109 7.11 2.71 9.81
5/4/2022 4:15:00 AM 11.2 52.16 0.109 7.1 2.64 9.81
5/4/2022 4:30:00 AM 11.15 52.07 0.109 7.11 2.68 9.84
5/4/2022 4:45:00 AM 11.1 51.98 0.109 7.11 2.83 9.84
5/4/2022 5:00:00 AM 11.06 51.908 0.109 7.1 2.6 9.85
5/4/2022 5:15:00 AM 11.02 51.836 0.109 7.1 5.87 9.86
5/4/2022 5:30:00 AM 10.98 51.764 0.109 7.1 2.55 9.88
5/4/2022 5:45:00 AM 10.93 51.674 0.109 7.11 2.64 9.9
5/4/2022 6:00:00 AM 10.9 51.62 0.109 7.11 2.51 9.9
5/4/2022 6:15:00 AM 10.86 51.548 0.109 7.12 2.46 9.94
5/4/2022 6:30:00 AM 10.83 51.494 0.109 7.12 2.45 9.95
5/4/2022 6:45:00 AM 10.8 51.44 0.109 7.12 2.43 9.98
5/4/2022 7:00:00 AM 10.77 51.386 0.108 7.13 2.48 10.02
5/4/2022 7:15:00 AM 10.74 51.332 0.108 7.13 2.38 10.06
5/4/2022 7:30:00 AM 10.71 51.278 0.108 7.14 2.49 10.11
5/4/2022 7:45:00 AM 10.69 51.242 0.108 7.16 2.4 10.2
5/4/2022 8:00:00 AM 10.68 51.224 0.108 7.17 2.38 10.29
5/4/2022 8:15:00 AM 10.67 51.206 0.108 7.19 2.38 10.4
5/4/2022 8:30:00 AM 10.67 51.206 0.108 7.21 2.45 10.49
5/4/2022 8:45:00 AM 10.65 51.17 0.108 7.23 2.49 10.55
5/4/2022 9:00:00 AM 10.65 51.17 0.107 7.24 2.35 10.61
5/4/2022 9:15:00 AM 10.65 51.17 0.107 7.26 2.28 10.69
5/4/2022 9:30:00 AM 10.66 51.188 0.107 7.29 2.37 10.79
5/4/2022 9:45:00 AM 10.68 51.224 0.107 7.32 2.37 10.9
5/4/2022 10:00:00 AM 10.7 51.26 0.107 7.35 2.3 11.01
5/4/2022 10:15:00 AM 10.72 51.296 0.107 7.38 2.33 11.09
5/4/2022 10:30:00 AM 10.74 51.332 0.106 7.41 2.32 11.15
5/4/2022 10:45:00 AM 10.76 51.368 0.106 7.44 2.33 11.19
5/4/2022 11:00:00 AM 10.78 51.404 0.106 7.46 2.27 11.23
5/4/2022 11:15:00 AM 10.81 51.458 0.106 7.48 2.36 11.26
5/4/2022 11:30:00 AM 10.84 51.512 0.106 7.52 2.17 11.32
5/4/2022 11:45:00 AM 10.9 51.62 0.106 7.54 2.24 11.36
5/4/2022 12:00:00 PM 10.99 51.782 0.106 7.58 2.23 11.42
5/4/2022 12:15:00 PM 11.08 51.944 0.106 7.62 2.39 11.47
5/4/2022 12:30:00 PM 11.16 52.088 0.106 7.66 2.4 11.49
5/4/2022 12:45:00 PM 11.24 52.232 0.106 7.69 2.32 11.51
5/4/2022 1:00:00 PM 11.34 52.412 0.105 7.74 2.31 11.54
5/4/2022 1:15:00 PM 11.43 52.574 0.105 7.77 2.41 11.54
5/4/2022 1:30:00 PM 11.53 52.754 0.105 7.81 2.38 11.55
5/4/2022 1:45:00 PM 11.65 52.97 0.105 7.85 2.37 11.55
5/4/2022 2:00:00 PM 11.76 53.168 0.105 7.88 2.45 11.53
5/4/2022 2:15:00 PM 11.87 53.366 0.105 7.9 2.36 11.52
5/4/2022 2:30:00 PM 12.03 53.654 0.104 7.93 2.42 11.51
5/4/2022 2:45:00 PM 12.17 53.906 0.104 7.99 2.5 11.51
5/4/2022 3:00:00 PM 12.31 54.158 0.104 8.02 2.33 11.49
5/4/2022 3:15:00 PM 12.4 54.32 0.104 8.04 2.39 11.45
5/4/2022 3:30:00 PM 12.48 54.464 0.104 8.05 2.36 11.41
5/4/2022 3:45:00 PM 12.54 54.572 0.103 8.05 2.45 11.37
5/4/2022 4:00:00 PM 12.56 54.608 0.103 8 2.44 11.25
5/4/2022 4:15:00 PM 12.56 54.608 0.103 7.9 2.37 11.1
5/4/2022 4:30:00 PM 12.54 54.572 0.103 7.75 2.44 10.89
5/4/2022 4:45:00 PM 12.52 54.536 0.103 7.62 2.43 10.68
5/4/2022 5:00:00 PM 12.5 54.5 0.104 7.53 2.71 10.52
5/4/2022 5:15:00 PM 12.48 54.464 0.104 7.47 2.48 10.42
5/4/2022 5:30:00 PM 12.46 54.428 0.104 7.43 2.42 10.37
5/4/2022 5:45:00 PM 12.44 54.392 0.104 7.41 2.45 10.33
5/4/2022 6:00:00 PM 12.41 54.338 0.104 7.39 2.57 10.34
5/4/2022 6:15:00 PM 12.38 54.284 0.104 7.38 2.51 10.34
5/4/2022 6:30:00 PM 12.35 54.23 0.104 7.38 2.55 10.36
5/4/2022 6:45:00 PM 12.32 54.176 0.103 7.37 2.62 10.36
5/4/2022 7:00:00 PM 12.28 54.104 0.103 7.36 2.46 10.31
5/4/2022 7:15:00 PM 12.24 54.032 0.103 7.33 2.56 10.24
5/4/2022 7:30:00 PM 12.21 53.978 0.103 7.31 2.45 10.17
5/4/2022 7:45:00 PM 12.17 53.906 0.104 7.29 2.57 10.09
5/4/2022 8:00:00 PM 12.14 53.852 0.104 7.26 2.58 10.01
5/4/2022 8:15:00 PM 12.1 53.78 0.104 7.24 2.6 9.93
5/4/2022 8:30:00 PM 12.06 53.708 0.104 7.22 2.66 9.87
5/4/2022 8:45:00 PM 12.01 53.618 0.104 7.2 2.75 9.82
5/4/2022 9:00:00 PM 11.96 53.528 0.104 7.19 2.56 9.81
5/4/2022 9:15:00 PM 11.9 53.42 0.104 7.18 2.83 9.79
5/4/2022 9:30:00 PM 11.84 53.312 0.104 7.17 2.86 9.78
5/4/2022 9:45:00 PM 11.78 53.204 0.104 7.16 2.77 9.79
5/4/2022 10:00:00 PM 11.73 53.114 0.104 7.16 2.86 9.79
5/4/2022 10:15:00 PM 11.68 53.024 0.104 7.15 2.92 9.8
5/4/2022 10:30:00 PM 11.63 52.934 0.105 7.15 2.86 9.82
5/4/2022 10:45:00 PM 11.58 52.844 0.105 7.15 3 9.83
5/4/2022 11:00:00 PM 11.53 52.754 0.105 7.15 2.8 9.84
5/4/2022 11:15:00 PM 11.49 52.682 0.105 7.15 2.84 9.85
5/4/2022 11:30:00 PM 11.45 52.61 0.105 7.15 2.71 9.86
5/4/2022 11:45:00 PM 11.4 52.52 0.105 7.15 2.77 9.87
5/5/2022 12:00:00 AM 11.36 52.448 0.106 7.15 2.75 9.88
5/5/2022 12:15:00 AM 11.32 52.376 0.106 7.14 2.77 9.89
5/5/2022 12:30:00 AM 11.28 52.304 0.106 7.14 2.57 9.9
5/5/2022 12:45:00 AM 11.24 52.232 0.106 7.14 2.62 9.91
5/5/2022 1:00:00 AM 11.2 52.16 0.106 7.13 2.6 9.92
5/5/2022 1:15:00 AM 11.17 52.106 0.106 7.13 2.63 9.93
5/5/2022 1:30:00 AM 11.13 52.034 0.106 7.13 2.55 9.94
5/5/2022 1:45:00 AM 11.1 51.98 0.106 7.13 2.6 9.94
5/5/2022 2:00:00 AM 11.06 51.908 0.106 7.13 2.58 9.96
5/5/2022 2:15:00 AM 11.01 51.818 0.106 7.13 2.5 9.97
5/5/2022 2:30:00 AM 10.95 51.71 0.106 7.13 2.52 9.97
5/5/2022 2:45:00 AM 10.89 51.602 0.106 7.13 2.52 9.98
5/5/2022 3:00:00 AM 10.84 51.512 0.106 7.13 2.5 10
5/5/2022 3:15:00 AM 10.8 51.44 0.106 7.12 2.51 10.01
5/5/2022 3:30:00 AM 10.77 51.386 0.106 7.12 2.76 10.01
5/5/2022 3:45:00 AM 10.71 51.278 0.106 7.13 2.5 10.03
5/5/2022 4:00:00 AM 10.66 51.188 0.106 7.12 2.53 10.04
5/5/2022 4:15:00 AM 10.6 51.08 0.106 7.13 3.25 10.05
5/5/2022 4:30:00 AM 10.53 50.954 0.106 7.12 2.7 10.07
5/5/2022 4:45:00 AM 10.47 50.846 0.105 7.12 2.5 10.08
5/5/2022 5:00:00 AM 10.4 50.72 0.105 7.12 2.52 10.09
5/5/2022 5:15:00 AM 10.32 50.576 0.105 7.12 2.53 10.11
5/5/2022 5:30:00 AM 10.24 50.432 0.105 7.11 2.37 10.13
5/5/2022 5:45:00 AM 10.16 50.288 0.105 7.11 2.37 10.14
5/5/2022 6:00:00 AM 10.09 50.162 0.105 7.11 2.36 10.17
5/5/2022 6:15:00 AM 10.02 50.036 0.105 7.11 2.3 10.21
5/5/2022 6:30:00 AM 9.96 49.928 0.105 7.11 2.31 10.26
5/5/2022 6:45:00 AM 9.9 49.82 0.105 7.13 2.28 10.38
5/5/2022 7:00:00 AM 9.85 49.73 0.104 7.14 2.34 10.48
5/5/2022 7:15:00 AM 9.8 49.64 0.104 7.17 2.21 10.61
5/5/2022 7:30:00 AM 9.77 49.586 0.104 7.19 2.36 10.74
5/5/2022 7:45:00 AM 9.75 49.55 0.104 7.22 2.36 10.88
5/5/2022 8:00:00 AM 9.75 49.55 0.104 7.25 2.48 10.99
5/5/2022 8:15:00 AM 9.74 49.532 0.103 7.27 2.4 11.09
5/5/2022 8:30:00 AM 9.74 49.532 0.103 7.29 3.72 11.17
5/5/2022 8:45:00 AM 9.78 49.604 0.103 7.32 3.74 11.26
5/5/2022 9:00:00 AM 9.83 49.694 0.103 7.36 2.81 11.36
5/5/2022 9:15:00 AM 9.91 49.838 0.103 7.39 2.64 11.44
5/5/2022 9:30:00 AM 10 50 0.102 7.42 2.49 11.5
5/5/2022 9:45:00 AM 10.14 50.252 0.102 7.46 2.47 11.55
5/5/2022 10:00:00 AM 10.29 50.522 0.102 7.49 2.41 11.59
5/5/2022 10:15:00 AM 10.45 50.81 0.102 7.52 2.44 11.63
5/5/2022 10:30:00 AM 10.61 51.098 0.102 7.55 2.34 11.64
5/5/2022 10:45:00 AM 10.83 51.494 0.102 7.59 2.53 11.67
5/5/2022 11:00:00 AM 11.1 51.98 0.101 7.63 2.36 11.68
5/5/2022 11:15:00 AM 11.35 52.43 0.101 7.67 2.43 11.68
5/5/2022 11:30:00 AM 11.61 52.898 0.101 7.71 2.47 11.66
5/5/2022 11:45:00 AM 11.91 53.438 0.101 7.75 2.33 11.65
5/5/2022 12:00:00 PM 12.25 54.05 0.101 7.81 2.31 11.63
5/5/2022 12:15:00 PM 12.59 54.662 0.101 7.84 2.3 11.59
5/5/2022 12:30:00 PM 12.95 55.31 0.101 7.9 2.34 11.55
5/5/2022 12:45:00 PM 13.3 55.94 0.101 7.95 2.37 11.51
5/5/2022 1:00:00 PM 13.64 56.552 0.101 8.01 2.27 11.47
5/5/2022 1:15:00 PM 13.96 57.128 0.1 8.08 2.27 11.43
5/5/2022 1:30:00 PM 14.26 57.668 0.101 8.14 2.27 11.4
5/5/2022 1:45:00 PM 14.54 58.172 0.1 8.22 2.27 11.36
5/5/2022 2:00:00 PM 14.84 58.712 0.1 8.29 2.26 11.31
5/5/2022 2:15:00 PM 15.1 59.18 0.1 8.34 2.36 11.27
5/5/2022 2:30:00 PM 15.28 59.504 0.1 8.37 2.2 11.22
5/5/2022 2:45:00 PM 15.46 59.828 0.1 8.42 2.51 11.17
5/5/2022 3:00:00 PM 15.57 60.026 0.1 8.45 2.48 11.13
5/5/2022 3:15:00 PM 15.68 60.224 0.1 8.5 2.26 11.1
5/5/2022 3:30:00 PM 15.79 60.422 0.1 8.51 2.32 11.07
5/5/2022 3:45:00 PM 15.85 60.53 0.1 8.54 2.45 11.02
5/5/2022 4:00:00 PM 15.88 60.584 0.1 8.56 2.06 11.01
5/5/2022 4:15:00 PM 15.87 60.566 0.1 8.57 2.46 10.99
5/5/2022 4:30:00 PM 15.85 60.53 0.1 8.54 2.58 10.93
5/5/2022 4:45:00 PM 15.82 60.476 0.1 8.54 2.45 10.87
5/5/2022 5:00:00 PM 15.76 60.368 0.1 8.54 2.35 10.88
5/5/2022 5:15:00 PM 15.68 60.224 0.1 8.52 2.33 10.85
5/5/2022 5:30:00 PM 15.57 60.026 0.1 8.48 2.3 10.8
5/5/2022 5:45:00 PM 15.45 59.81 0.1 8.42 2.38 10.75
5/5/2022 6:00:00 PM 15.32 59.576 0.101 8.33 2.36 10.7
5/5/2022 6:15:00 PM 15.17 59.306 0.101 8.22 2.29 10.63
5/5/2022 6:30:00 PM 15.04 59.072 0.101 8.09 2.44 10.56
5/5/2022 6:45:00 PM 14.88 58.784 0.101 7.96 2.44 10.47
5/5/2022 7:00:00 PM 14.74 58.532 0.101 7.83 2.4 10.36
5/5/2022 7:15:00 PM 14.59 58.262 0.101 7.7 2.47 10.24
5/5/2022 7:30:00 PM 14.44 57.992 0.101 7.59 2.44 10.09
5/5/2022 7:45:00 PM 14.3 57.74 0.102 7.5 2.39 9.93
5/5/2022 8:00:00 PM 14.15 57.47 0.102 7.42 2.44 9.78
5/5/2022 8:15:00 PM 14 57.2 0.102 7.37 2.54 9.65
5/5/2022 8:30:00 PM 13.87 56.966 0.103 7.32 2.49 9.54
5/5/2022 8:45:00 PM 13.75 56.75 0.103 7.26 4.52 9.44
5/5/2022 9:00:00 PM 13.64 56.552 0.103 7.22 2.71 9.38
5/5/2022 9:15:00 PM 13.51 56.318 0.103 7.2 2.82 9.33
5/5/2022 9:30:00 PM 13.39 56.102 0.103 7.17 2.64 9.3
5/5/2022 9:45:00 PM 13.28 55.904 0.104 7.15 2.71 9.29
5/5/2022 10:00:00 PM 13.16 55.688 0.104 7.14 2.71 9.29
5/5/2022 10:15:00 PM 13.04 55.472 0.104 7.13 2.85 9.32
5/5/2022 10:30:00 PM 12.93 55.274 0.104 7.12 2.76 9.34
5/5/2022 10:45:00 PM 12.82 55.076 0.104 7.12 2.82 9.36
5/5/2022 11:00:00 PM 12.71 54.878 0.104 7.12 2.8 9.39
5/5/2022 11:15:00 PM 12.61 54.698 0.105 7.11 2.58 9.4
5/5/2022 11:30:00 PM 12.52 54.536 0.105 7.11 2.73 9.43
5/5/2022 11:45:00 PM 12.42 54.356 0.106 7.18 2.81 9.46
5/6/2022 12:00:00 AM 12.32 54.176 0.106 7.11 2.78 9.48
5/6/2022 12:15:00 AM 12.22 53.996 0.106 7.1 2.74 9.49
5/6/2022 12:30:00 AM 12.12 53.816 0.107 7.1 2.63 9.53
5/6/2022 12:45:00 AM 12.03 53.654 0.107 7.1 2.67 9.54
5/6/2022 1:00:00 AM 11.94 53.492 0.107 7.1 2.8 9.56
5/6/2022 1:15:00 AM 11.86 53.348 0.108 7.1 2.65 9.58
5/6/2022 1:30:00 AM 11.78 53.204 0.108 7.1 2.71 9.61
5/6/2022 1:45:00 AM 11.71 53.078 0.109 7.1 2.54 9.62
5/6/2022 2:00:00 AM 11.64 52.952 0.11 7.09 2.8 9.64
5/6/2022 2:15:00 AM 11.56 52.808 0.11 7.1 2.6 9.67
5/6/2022 2:30:00 AM 11.49 52.682 0.11 7.09 2.6 9.68
5/6/2022 2:45:00 AM 11.42 52.556 0.11 7.09 2.62 9.71
5/6/2022 3:00:00 AM 11.36 52.448 0.109 7.09 2.76 9.71
5/6/2022 3:15:00 AM 11.3 52.34 0.108 7.09 2.7 9.73
5/6/2022 3:30:00 AM 11.24 52.232 0.108 7.09 2.66 9.74
5/6/2022 3:45:00 AM 11.18 52.124 0.107 7.08 2.67 9.76
5/6/2022 4:00:00 AM 11.12 52.016 0.107 7.08 2.59 9.78
5/6/2022 4:15:00 AM 11.07 51.926 0.107 7.08 2.68 9.79
5/6/2022 4:30:00 AM 11.02 51.836 0.106 7.08 2.64 9.8
5/6/2022 4:45:00 AM 10.96 51.728 0.106 7.08 2.54 9.82
5/6/2022 5:00:00 AM 10.92 51.656 0.106 7.08 2.67 9.82
5/6/2022 5:15:00 AM 10.87 51.566 0.106 7.09 2.63 9.85
5/6/2022 5:30:00 AM 10.83 51.494 0.106 7.09 2.52 9.85
5/6/2022 5:45:00 AM 10.79 51.422 0.106 7.09 2.49 9.85
5/6/2022 6:00:00 AM 10.75 51.35 0.105 7.09 2.53 9.86
5/6/2022 6:15:00 AM 10.71 51.278 0.105 7.08 2.47 9.87
5/6/2022 6:30:00 AM 10.67 51.206 0.105 7.09 2.43 9.91
5/6/2022 6:45:00 AM 10.65 51.17 0.105 7.09 2.33 9.94
5/6/2022 7:00:00 AM 10.62 51.116 0.105 7.1 2.38 10
5/6/2022 7:15:00 AM 10.59 51.062 0.105 7.11 2.29 10.09
5/6/2022 7:30:00 AM 10.57 51.026 0.104 7.12 2.42 10.16
5/6/2022 7:45:00 AM 10.54 50.972 0.104 7.14 2.28 10.25
5/6/2022 8:00:00 AM 10.52 50.936 0.104 7.16 2.34 10.34
5/6/2022 8:15:00 AM 10.52 50.936 0.104 7.17 2.36 10.43
5/6/2022 8:30:00 AM 10.51 50.918 0.104 7.19 2.37 10.54
5/6/2022 8:45:00 AM 10.52 50.936 0.103 7.21 2.37 10.64
5/6/2022 9:00:00 AM 10.53 50.954 0.103 7.24 2.4 10.76
5/6/2022 9:15:00 AM 10.53 50.954 0.103 7.27 2.25 10.88
5/6/2022 9:30:00 AM 10.55 50.99 0.103 7.29 2.39 10.97
5/6/2022 9:45:00 AM 10.57 51.026 0.102 7.32 2.25 11.05
5/6/2022 10:00:00 AM 10.59 51.062 0.102 7.35 2.25 11.12
5/6/2022 10:15:00 AM 10.61 51.098 0.102 7.38 2.26 11.18
5/6/2022 10:30:00 AM 10.64 51.152 0.102 7.41 2.3 11.22
5/6/2022 10:45:00 AM 10.67 51.206 0.102 7.44 2.23 11.27
5/6/2022 11:00:00 AM 10.7 51.26 0.102 7.46 2.25 11.33
5/6/2022 11:15:00 AM 10.75 51.35 0.102 7.49 2.29 11.39
5/6/2022 11:30:00 AM 10.8 51.44 0.101 7.53 2.2 11.44
5/6/2022 11:45:00 AM 10.86 51.548 0.101 7.57 2.15 11.49
5/6/2022 12:00:00 PM 10.9 51.62 0.101 7.59 2.26 11.5
5/6/2022 12:15:00 PM 10.94 51.692 0.101 7.62 2.4 11.52
5/6/2022 12:30:00 PM 10.98 51.764 0.101 7.64 2.47 11.51
5/6/2022 12:45:00 PM 11.02 51.836 0.101 7.66 2.31 11.51
5/6/2022 1:00:00 PM 11.06 51.908 0.1 7.68 2.34 11.5
5/6/2022 1:15:00 PM 11.1 51.98 0.1 7.69 2.34 11.49
5/6/2022 1:30:00 PM 11.14 52.052 0.1 7.7 2.41 11.5
5/6/2022 1:45:00 PM 11.19 52.142 0.099 7.74 2.42 11.51
5/6/2022 2:00:00 PM 11.24 52.232 0.099 7.77 2.56 11.52
5/6/2022 2:15:00 PM 11.29 52.322 0.099 7.79 2.71 11.52
5/6/2022 2:30:00 PM 11.34 52.412 0.099 7.84 2.62 11.52
5/6/2022 2:45:00 PM 11.38 52.484 0.099 7.86 2.58 11.51
5/6/2022 3:00:00 PM 11.42 52.556 0.098 7.87 2.61 11.49
5/6/2022 3:15:00 PM 11.44 52.592 0.098 7.87 2.68 11.44
5/6/2022 3:30:00 PM 11.44 52.592 0.098 7.84 2.66 11.37
5/6/2022 3:45:00 PM 11.45 52.61 0.098 7.79 2.57 11.29
5/6/2022 4:00:00 PM 11.44 52.592 0.098 7.75 2.51 11.22
5/6/2022 4:15:00 PM 11.45 52.61 0.098 7.72 2.57 11.18
5/6/2022 4:30:00 PM 11.46 52.628 0.098 7.71 2.5 11.15
5/6/2022 4:45:00 PM 11.47 52.646 0.098 7.7 2.7 11.14
5/6/2022 5:00:00 PM 11.47 52.646 0.098 7.69 2.66 11.12
5/6/2022 5:15:00 PM 11.47 52.646 0.098 7.66 2.68 11.07
5/6/2022 5:30:00 PM 11.46 52.628 0.098 7.64 2.82 11.03
5/6/2022 5:45:00 PM 11.46 52.628 0.098 7.63 3.08 10.99
5/6/2022 6:00:00 PM 11.45 52.61 0.098 7.6 3.21 10.94
5/6/2022 6:15:00 PM 11.44 52.592 0.098 7.56 3.19 10.85
5/6/2022 6:30:00 PM 11.42 52.556 0.098 7.52 3.35 10.74
5/6/2022 6:45:00 PM 11.39 52.502 0.098 7.48 3.43 10.66
5/6/2022 7:00:00 PM 11.36 52.448 0.098 7.44 3.32 10.58
5/6/2022 7:15:00 PM 11.33 52.394 0.098 7.41 3.36 10.51
5/6/2022 7:30:00 PM 11.29 52.322 0.098 7.38 3.36 10.44
5/6/2022 7:45:00 PM 11.25 52.25 0.099 7.36 3.5 10.36
5/6/2022 8:00:00 PM 11.21 52.178 0.099 7.33 3.46 10.28
5/6/2022 8:15:00 PM 11.17 52.106 0.099 7.3 3.74 10.19
5/6/2022 8:30:00 PM 11.13 52.034 0.099 7.27 4.04 10.12
5/6/2022 8:45:00 PM 11.08 51.944 0.099 7.25 4.05 10.07
5/6/2022 9:00:00 PM 11.04 51.872 0.099 7.23 3.96 10.03
5/6/2022 9:15:00 PM 10.99 51.782 0.099 7.22 4.08 10.01
5/6/2022 9:30:00 PM 10.95 51.71 0.099 7.21 3.77 10
5/6/2022 9:45:00 PM 10.91 51.638 0.099 7.2 4.06 10
5/6/2022 10:00:00 PM 10.87 51.566 0.099 7.19 3.86 10
5/6/2022 10:15:00 PM 10.83 51.494 0.099 7.18 3.98 10.01
5/6/2022 10:30:00 PM 10.79 51.422 0.099 7.18 4.14 10.01
5/6/2022 10:45:00 PM 10.76 51.368 0.099 7.17 3.72 10.02
5/6/2022 11:00:00 PM 10.72 51.296 0.099 7.17 3.98 10.03
5/6/2022 11:15:00 PM 10.69 51.242 0.099 7.17 4 10.04
5/6/2022 11:30:00 PM 10.66 51.188 0.099 7.17 3.63 10.05
5/6/2022 11:45:00 PM 10.63 51.134 0.099 7.17 3.99 10.06
5/7/2022 12:00:00 AM 10.6 51.08 0.099 7.17 4 10.06
5/7/2022 12:15:00 AM 10.57 51.026 0.099 7.17 3.81 10.07
5/7/2022 12:30:00 AM 10.54 50.972 0.099 7.17 3.84 10.08
5/7/2022 12:45:00 AM 10.51 50.918 0.099 7.17 3.65 10.08
5/7/2022 1:00:00 AM 10.48 50.864 0.099 7.17 3.77 10.09
5/7/2022 1:15:00 AM 10.45 50.81 0.099 7.17 3.75 10.1
5/7/2022 1:30:00 AM 10.42 50.756 0.099 7.17 3.6 10.1
5/7/2022 1:45:00 AM 10.39 50.702 0.099 7.17 3.81 10.11
5/7/2022 2:00:00 AM 10.36 50.648 0.099 7.17 3.58 10.12
5/7/2022 2:15:00 AM 10.33 50.594 0.099 7.17 3.68 10.12
5/7/2022 2:30:00 AM 10.3 50.54 0.099 7.17 3.5 10.13
5/7/2022 2:45:00 AM 10.28 50.504 0.099 7.17 3.46 10.13
5/7/2022 3:00:00 AM 10.25 50.45 0.099 7.17 3.61 10.14
5/7/2022 3:15:00 AM 10.22 50.396 0.099 7.16 3.53 10.14
5/7/2022 3:30:00 AM 10.2 50.36 0.099 7.16 3.52 10.15
5/7/2022 3:45:00 AM 10.18 50.324 0.099 7.16 3.51 10.15
5/7/2022 4:00:00 AM 10.15 50.27 0.099 7.16 3.33 10.16
5/7/2022 4:15:00 AM 10.13 50.234 0.099 7.16 3.48 10.17
5/7/2022 4:30:00 AM 10.1 50.18 0.099 7.16 3.42 10.17
5/7/2022 4:45:00 AM 10.07 50.126 0.099 7.16 3.34 10.17
5/7/2022 5:00:00 AM 10.03 50.054 0.099 7.16 3.46 10.18
5/7/2022 5:15:00 AM 9.99 49.982 0.099 7.16 3.41 10.19
5/7/2022 5:30:00 AM 9.94 49.892 0.099 7.15 3.21 10.19
5/7/2022 5:45:00 AM 9.9 49.82 0.099 7.16 3.21 10.2
5/7/2022 6:00:00 AM 9.86 49.748 0.099 7.16 3.13 10.21
5/7/2022 6:15:00 AM 9.82 49.676 0.099 7.16 3.16 10.23
5/7/2022 6:30:00 AM 9.77 49.586 0.099 7.16 3 10.26
5/7/2022 6:45:00 AM 9.73 49.514 0.099 7.17 3.02 10.32
5/7/2022 7:00:00 AM 9.7 49.46 0.099 7.18 3.11 10.4
5/7/2022 7:15:00 AM 9.67 49.406 0.099 7.21 2.84 10.51
5/7/2022 7:30:00 AM 9.65 49.37 0.099 7.23 3.02 10.64
5/7/2022 7:45:00 AM 9.63 49.334 0.099 7.25 3 10.75
5/7/2022 8:00:00 AM 9.61 49.298 0.099 7.27 3.35 10.85
5/7/2022 8:15:00 AM 9.59 49.262 0.099 7.29 2.86 10.91
5/7/2022 8:30:00 AM 9.57 49.226 0.099 7.31 2.82 10.97
5/7/2022 8:45:00 AM 9.56 49.208 0.099 7.33 2.74 11.05
5/7/2022 9:00:00 AM 9.56 49.208 0.099 7.36 2.69 11.16
5/7/2022 9:15:00 AM 9.57 49.226 0.098 7.39 2.68 11.27
5/7/2022 9:30:00 AM 9.58 49.244 0.098 7.43 2.68 11.37
5/7/2022 9:45:00 AM 9.6 49.28 0.098 7.48 2.63 11.48
5/7/2022 10:00:00 AM 9.62 49.316 0.098 7.51 2.6 11.55
5/7/2022 10:15:00 AM 9.65 49.37 0.097 7.56 2.76